Provisional Data: Young Woman's Creek near North Bend, PA


Please select a monitoring station.
Please select start date.
Please select start date.

Toggle Unit: C/F Toggle Unit: C/F
Sample Time Temperature (C) Temperature (F) Specific Conductivity (mS/cm) pH   Turbidity (NTU+) DO (mg/L)
4/13/2022 12:00:00 AM 9.08 48.344 0.034 6.64 2.37 11.08
4/13/2022 12:15:00 AM 8.98 48.164 0.034 6.64 2.27 11.11
4/13/2022 12:30:00 AM 8.88 47.984 0.034 6.65 2.27 11.14
4/13/2022 12:45:00 AM 8.78 47.804 0.034 6.64 2.33 11.16
4/13/2022 1:00:00 AM 8.68 47.624 0.034 6.64 2.29 11.19
4/13/2022 1:15:00 AM 8.59 47.462 0.034 6.65 2.39 11.22
4/13/2022 1:30:00 AM 8.5 47.3 0.034 6.65 2.26 11.25
4/13/2022 1:45:00 AM 8.41 47.138 0.034 6.65 2.34 11.26
4/13/2022 2:00:00 AM 8.33 46.994 0.034 6.64 2.22 11.29
4/13/2022 2:15:00 AM 8.25 46.85 0.034 6.65 2.33 11.32
4/13/2022 2:30:00 AM 8.17 46.706 0.034 6.64 2.3 11.33
4/13/2022 2:45:00 AM 8.09 46.562 0.034 6.64 2.31 11.36
4/13/2022 3:00:00 AM 8.01 46.418 0.034 6.64 2.41 11.38
4/13/2022 3:15:00 AM 7.94 46.292 0.034 6.64 2.3 11.4
4/13/2022 3:30:00 AM 7.87 46.166 0.034 6.65 2.34 11.42
4/13/2022 3:45:00 AM 7.81 46.058 0.034 6.63 2.42 11.44
4/13/2022 4:00:00 AM 7.75 45.95 0.034 6.63 2.21 11.46
4/13/2022 4:15:00 AM 7.69 45.842 0.034 6.64 2.25 11.47
4/13/2022 4:30:00 AM 7.65 45.77 0.034 6.65 2.23 11.49
4/13/2022 4:45:00 AM 7.61 45.698 0.034 6.65 2.22 11.5
4/13/2022 5:00:00 AM 7.57 45.626 0.034 6.64 2.49 11.52
4/13/2022 5:15:00 AM 7.54 45.572 0.034 6.63 2.29 11.53
4/13/2022 5:30:00 AM 7.52 45.536 0.034 6.63 2.19 11.54
4/13/2022 5:45:00 AM 7.49 45.482 0.034 6.64 2.23 11.55
4/13/2022 6:00:00 AM 7.47 45.446 0.034 6.65 2.3 11.56
4/13/2022 6:15:00 AM 7.45 45.41 0.034 6.65 2.15 11.57
4/13/2022 6:30:00 AM 7.43 45.374 0.034 6.65 2.13 11.57
4/13/2022 6:45:00 AM 7.41 45.338 0.034 6.65 2.24 11.57
4/13/2022 7:00:00 AM 7.38 45.284 0.034 6.65 2.24 11.6
4/13/2022 7:15:00 AM 7.36 45.248 0.034 6.67 2.22 11.63
4/13/2022 7:30:00 AM 7.35 45.23 0.034 6.66 2.26 11.66
4/13/2022 7:45:00 AM 7.34 45.212 0.034 6.68 2.1 11.68
4/13/2022 8:00:00 AM 7.33 45.194 0.034 6.68 2.12 11.69
4/13/2022 8:15:00 AM 7.32 45.176 0.034 6.68 2.23 11.71
4/13/2022 8:30:00 AM 7.32 45.176 0.034 6.69 2.22 11.73
4/13/2022 8:45:00 AM 7.32 45.176 0.034 6.69 2.21 11.74
4/13/2022 9:00:00 AM 7.33 45.194 0.034 6.7 2.2 11.75
4/13/2022 9:15:00 AM 7.37 45.266 0.033 6.71 2.06 11.77
4/13/2022 9:30:00 AM 7.46 45.428 0.033 6.73 2.02 11.79
4/13/2022 9:45:00 AM 7.52 45.536 0.033 6.74 2.11 11.77
4/13/2022 10:00:00 AM 7.61 45.698 0.033 6.75 2.01 11.77
4/13/2022 10:15:00 AM 7.71 45.878 0.033 6.76 2.03 11.76
4/13/2022 10:30:00 AM 7.79 46.022 0.033 6.76 2.02 11.72
4/13/2022 10:45:00 AM 7.88 46.184 0.033 6.76 2.05 11.71
4/13/2022 11:00:00 AM 7.99 46.382 0.033 6.76 2.1 11.69
4/13/2022 11:15:00 AM 8.18 46.724 0.033 6.78 1.99 11.66
4/13/2022 11:30:00 AM 8.41 47.138 0.033 6.78 2.01 11.6
4/13/2022 11:45:00 AM 8.59 47.462 0.033 6.78 2.08 11.56
4/13/2022 12:00:00 PM 8.77 47.786 0.033 6.8 1.95 11.51
4/13/2022 12:15:00 PM 9.01 48.218 0.033 6.79 1.95 11.45
4/13/2022 12:30:00 PM 9.25 48.65 0.033 6.8 2.03 11.39
4/13/2022 12:45:00 PM 9.45 49.01 0.033 6.8 1.93 11.33
4/13/2022 1:00:00 PM 9.63 49.334 0.033 6.8 1.94 11.28
4/13/2022 1:15:00 PM 9.83 49.694 0.033 6.81 1.97 11.23
4/13/2022 1:30:00 PM 9.86 49.748 0.033 6.81 2.02 11.16
4/13/2022 1:45:00 PM 10.05 50.09 0.033 6.82 2.11 11.13
4/13/2022 2:00:00 PM 10.15 50.27 0.033 6.8 1.93 11.08
4/13/2022 2:15:00 PM 10.29 50.522 0.033 6.8 2.01 11.03
4/13/2022 2:30:00 PM 10.4 50.72 0.033 6.82 1.92 10.99
4/13/2022 2:45:00 PM 10.51 50.918 0.033 6.81 1.97 10.94
4/13/2022 3:00:00 PM 10.61 51.098 0.033 6.79 1.9 10.9
4/13/2022 3:15:00 PM 10.71 51.278 0.033 6.8 1.95 10.87
4/13/2022 3:30:00 PM 10.82 51.476 0.033 6.8 2.02 10.85
4/13/2022 3:45:00 PM 10.93 51.674 0.033 6.82 2.05 10.82
4/13/2022 4:00:00 PM 10.99 51.782 0.033 6.81 2.03 10.8
4/13/2022 4:15:00 PM 11.07 51.926 0.033 6.8 2.02 10.78
4/13/2022 4:30:00 PM 11.15 52.07 0.033 6.8 2.05 10.76
4/13/2022 4:45:00 PM 11.22 52.196 0.032 6.8 2.17 10.74
4/13/2022 5:00:00 PM 11.31 52.358 0.032 6.82 2.05 10.72
4/13/2022 5:15:00 PM 11.35 52.43 0.033 6.81 2.1 10.69
4/13/2022 5:30:00 PM 11.34 52.412 0.033 6.8 2.01 10.63
4/13/2022 5:45:00 PM 11.35 52.43 0.033 6.77 2.08 10.6
4/13/2022 6:00:00 PM 11.36 52.448 0.033 6.78 2.02 10.59
4/13/2022 6:15:00 PM 11.35 52.43 0.033 6.75 2.12 10.56
4/13/2022 6:30:00 PM 11.35 52.43 0.033 6.76 2.07 10.57
4/13/2022 6:45:00 PM 11.35 52.43 0.033 6.75 2.04 10.56
4/13/2022 7:00:00 PM 11.34 52.412 0.033 6.74 2.36 10.54
4/13/2022 7:15:00 PM 11.32 52.376 0.033 6.73 2.06 10.52
4/13/2022 7:30:00 PM 11.28 52.304 0.033 6.71 2.07 10.51
4/13/2022 7:45:00 PM 11.23 52.214 0.033 6.69 2.13 10.48
4/13/2022 8:00:00 PM 11.18 52.124 0.033 6.68 2.1 10.47
4/13/2022 8:15:00 PM 11.13 52.034 0.033 6.68 2.27 10.46
4/13/2022 8:30:00 PM 11.08 51.944 0.033 6.68 2.19 10.46
4/13/2022 8:45:00 PM 11.02 51.836 0.033 6.67 2.11 10.47
4/13/2022 9:00:00 PM 10.97 51.746 0.033 6.66 2.27 10.48
4/13/2022 9:15:00 PM 10.91 51.638 0.033 6.66 2.34 10.49
4/13/2022 9:30:00 PM 10.85 51.53 0.034 6.64 2.36 10.5
4/13/2022 9:45:00 PM 10.78 51.404 0.034 6.65 2.37 10.52
4/13/2022 10:00:00 PM 10.73 51.314 0.034 6.64 2.38 10.52
4/13/2022 10:15:00 PM 10.67 51.206 0.034 6.63 2.34 10.54
4/13/2022 10:30:00 PM 10.61 51.098 0.034 6.64 2.43 10.56
4/13/2022 10:45:00 PM 10.54 50.972 0.034 6.64 2.29 10.58
4/13/2022 11:00:00 PM 10.48 50.864 0.034 6.63 2.48 10.59
4/13/2022 11:15:00 PM 10.41 50.738 0.034 6.63 2.51 10.61
4/13/2022 11:30:00 PM 10.35 50.63 0.034 6.63 2.3 10.62
4/13/2022 11:45:00 PM 10.29 50.522 0.034 6.65 2.26 10.63
4/14/2022 12:00:00 AM 10.22 50.396 0.034 6.64 2.37 10.65
4/14/2022 12:15:00 AM 10.16 50.288 0.034 6.64 2.13 10.67
4/14/2022 12:30:00 AM 10.09 50.162 0.034 6.63 2.49 10.69
4/14/2022 12:45:00 AM 10.03 50.054 0.034 6.63 2.47 10.7
4/14/2022 1:00:00 AM 9.97 49.946 0.034 6.63 2.21 10.72
4/14/2022 1:15:00 AM 9.91 49.838 0.034 6.63 2.23 10.74
4/14/2022 1:30:00 AM 9.85 49.73 0.034 6.63 2.34 10.75
4/14/2022 1:45:00 AM 9.79 49.622 0.034 6.62 2.3 10.77
4/14/2022 2:00:00 AM 9.73 49.514 0.034 6.63 2.26 10.79
4/14/2022 2:15:00 AM 9.68 49.424 0.034 6.62 2.16 10.8
4/14/2022 2:30:00 AM 9.62 49.316 0.034 6.63 2.31 10.81
4/14/2022 2:45:00 AM 9.57 49.226 0.034 6.62 2.33 10.82
4/14/2022 3:00:00 AM 9.51 49.118 0.034 6.63 2.19 10.84
4/14/2022 3:15:00 AM 9.46 49.028 0.034 6.62 2.3 10.86
4/14/2022 3:30:00 AM 9.4 48.92 0.034 6.62 2.35 10.88
4/14/2022 3:45:00 AM 9.35 48.83 0.034 6.61 2.21 10.88
4/14/2022 4:00:00 AM 9.3 48.74 0.034 6.62 2.31 10.9
4/14/2022 4:15:00 AM 9.24 48.632 0.034 6.62 2.31 10.91
4/14/2022 4:30:00 AM 9.19 48.542 0.034 6.63 2.2 10.92
4/14/2022 4:45:00 AM 9.14 48.452 0.034 6.62 2.44 10.94
4/14/2022 5:00:00 AM 9.09 48.362 0.034 6.61 2.3 10.95
4/14/2022 5:15:00 AM 9.05 48.29 0.034 6.61 2.27 10.96
4/14/2022 5:30:00 AM 9 48.2 0.034 6.61 2.45 10.98
4/14/2022 5:45:00 AM 8.95 48.11 0.034 6.61 2.31 10.99
4/14/2022 6:00:00 AM 8.91 48.038 0.034 6.62 2.28 10.99
4/14/2022 6:15:00 AM 8.86 47.948 0.034 6.61 2.29 11
4/14/2022 6:30:00 AM 8.82 47.876 0.034 6.61 2.34 11.02
4/14/2022 6:45:00 AM 8.77 47.786 0.034 6.61 2.43 11.04
4/14/2022 7:00:00 AM 8.73 47.714 0.034 6.62 2.22 11.07
4/14/2022 7:15:00 AM 8.69 47.642 0.034 6.63 2.42 11.1
4/14/2022 7:30:00 AM 8.65 47.57 0.034 6.63 2.55 11.13
4/14/2022 7:45:00 AM 8.63 47.534 0.034 6.64 2.33 11.17
4/14/2022 8:00:00 AM 8.6 47.48 0.034 6.64 2.45 11.2
4/14/2022 8:15:00 AM 8.59 47.462 0.034 6.66 2.28 11.24
4/14/2022 8:30:00 AM 8.58 47.444 0.034 6.66 2.12 11.25
4/14/2022 8:45:00 AM 8.59 47.462 0.034 6.67 2.2 11.29
4/14/2022 9:00:00 AM 8.61 47.498 0.034 6.69 2.19 11.31
4/14/2022 9:15:00 AM 8.64 47.552 0.034 6.71 2.17 11.3
4/14/2022 9:30:00 AM 8.72 47.696 0.034 6.74 2.14 11.29
4/14/2022 9:45:00 AM 8.8 47.84 0.034 6.74 2.04 11.29
4/14/2022 10:00:00 AM 8.91 48.038 0.034 6.76 2.09 11.28
4/14/2022 10:15:00 AM 9.06 48.308 0.034 6.78 2.21 11.27
4/14/2022 10:30:00 AM 9.3 48.74 0.033 6.8 2.07 11.25
4/14/2022 10:45:00 AM 9.51 49.118 0.033 6.81 2.16 11.21
4/14/2022 11:00:00 AM 9.69 49.442 0.033 6.82 2 11.16
4/14/2022 11:15:00 AM 9.82 49.676 0.033 6.82 2.06 11.11
4/14/2022 11:30:00 AM 9.92 49.856 0.033 6.82 2.08 11.04
4/14/2022 11:45:00 AM 10.03 50.054 0.033 6.82 2.07 11.01
4/14/2022 12:00:00 PM 10.12 50.216 0.033 6.82 2.11 10.99
4/14/2022 12:15:00 PM 10.15 50.27 0.033 6.81 2.02 10.96
4/14/2022 12:30:00 PM 10.24 50.432 0.033 6.8 2.14 10.91
4/14/2022 12:45:00 PM 10.28 50.504 0.033 6.81 2.12 10.92
4/14/2022 1:00:00 PM 10.34 50.612 0.033 6.8 2.04 10.9
4/14/2022 1:15:00 PM 10.4 50.72 0.033 6.81 1.96 10.88
4/14/2022 1:30:00 PM 10.45 50.81 0.033 6.81 2.08 10.88
4/14/2022 1:45:00 PM 10.49 50.882 0.033 6.82 2.14 10.88
4/14/2022 2:00:00 PM 10.51 50.918 0.033 6.82 2.55 10.88
4/14/2022 2:15:00 PM 10.5 50.9 0.033 6.8 2.16 10.87
4/14/2022 2:30:00 PM 10.56 51.008 0.033 6.82 2.25 10.9
4/14/2022 2:45:00 PM 10.67 51.206 0.033 6.84 1.99 10.91
4/14/2022 3:00:00 PM 10.68 51.224 0.033 6.84 2.12 10.9
4/14/2022 3:15:00 PM 10.67 51.206 0.033 6.83 2.32 10.9
4/14/2022 3:30:00 PM 10.7 51.26 0.033 6.84 2.24 10.9
4/14/2022 3:45:00 PM 10.74 51.332 0.033 6.85 2.1 10.89
4/14/2022 4:00:00 PM 10.71 51.278 0.033 6.84 2.23 10.89
4/14/2022 4:15:00 PM 10.72 51.296 0.033 6.84 2.07 10.89
4/14/2022 4:30:00 PM 10.71 51.278 0.033 6.84 2.19 10.89
4/14/2022 4:45:00 PM 10.7 51.26 0.033 6.84 2.05 10.89
4/14/2022 5:00:00 PM 10.74 51.332 0.033 6.83 2.24 10.88
4/14/2022 5:15:00 PM 10.74 51.332 0.033 6.84 2.44 10.87
4/14/2022 5:30:00 PM 10.71 51.278 0.033 6.82 2.1 10.85
4/14/2022 5:45:00 PM 10.64 51.152 0.033 6.81 2.11 10.81
4/14/2022 6:00:00 PM 10.53 50.954 0.033 6.79 2.16 10.8
4/14/2022 6:15:00 PM 10.47 50.846 0.033 6.78 2.06 10.79
4/14/2022 6:30:00 PM 10.38 50.684 0.033 6.76 2.05 10.8
4/14/2022 6:45:00 PM 10.31 50.558 0.033 6.76 2.2 10.81
4/14/2022 7:00:00 PM 10.24 50.432 0.033 6.76 2.08 10.81
4/14/2022 7:15:00 PM 10.18 50.324 0.033 6.74 2.25 10.81
4/14/2022 7:30:00 PM 10.11 50.198 0.033 6.74 2.5 10.81
4/14/2022 7:45:00 PM 10.03 50.054 0.033 6.73 2.25 10.81
4/14/2022 8:00:00 PM 9.96 49.928 0.033 6.72 2.26 10.81
4/14/2022 8:15:00 PM 9.86 49.748 0.033 6.7 2.25 10.82
4/14/2022 8:30:00 PM 9.78 49.604 0.033 6.7 2.23 10.83
4/14/2022 8:45:00 PM 9.68 49.424 0.033 6.7 2.54 10.87
4/14/2022 9:00:00 PM 9.58 49.244 0.033 6.7 2.37 10.88
4/14/2022 9:15:00 PM 9.47 49.046 0.034 6.7 2.5 10.92
4/14/2022 9:30:00 PM 9.36 48.848 0.034 6.69 2.32 10.96
4/14/2022 9:45:00 PM 9.25 48.65 0.034 6.69 2.3 10.98
4/14/2022 10:00:00 PM 9.15 48.47 0.034 6.69 2.29 11.01
4/14/2022 10:15:00 PM 9.03 48.254 0.034 6.69 2.23 11.04
4/14/2022 10:30:00 PM 8.91 48.038 0.034 6.68 2.32 11.08
4/14/2022 10:45:00 PM 8.81 47.858 0.034 6.69 2.27 11.11
4/14/2022 11:00:00 PM 8.7 47.66 0.034 6.69 2.28 11.15
4/14/2022 11:15:00 PM 8.59 47.462 0.034 6.68 2.25 11.17
4/14/2022 11:30:00 PM 8.49 47.282 0.034 6.68 2.53 11.2
4/14/2022 11:45:00 PM 8.4 47.12 0.034 6.69 2.41 11.24
4/15/2022 12:00:00 AM 8.29 46.922 0.034 6.69 2.44 11.26
4/15/2022 12:15:00 AM 8.2 46.76 0.034 6.69 2.31 11.29
4/15/2022 12:30:00 AM 8.1 46.58 0.034 6.67 2.3 11.32
4/15/2022 12:45:00 AM 8.01 46.418 0.034 6.68 2.3 11.35
4/15/2022 1:00:00 AM 7.91 46.238 0.034 6.68 2.24 11.38
4/15/2022 1:15:00 AM 7.82 46.076 0.034 6.68 2.17 11.41
4/15/2022 1:30:00 AM 7.73 45.914 0.034 6.68 2.36 11.44
4/15/2022 1:45:00 AM 7.63 45.734 0.034 6.68 2.35 11.48
4/15/2022 2:00:00 AM 7.54 45.572 0.034 6.67 2.37 11.5
4/15/2022 2:15:00 AM 7.45 45.41 0.034 6.67 2.26 11.52
4/15/2022 2:30:00 AM 7.36 45.248 0.034 6.67 2.25 11.55
4/15/2022 2:45:00 AM 7.29 45.122 0.034 6.67 2.43 11.57
4/15/2022 3:00:00 AM 7.2 44.96 0.034 6.66 2.32 11.6
4/15/2022 3:15:00 AM 7.11 44.798 0.034 6.67 2.25 11.64
4/15/2022 3:30:00 AM 7.03 44.654 0.034 6.67 2.24 11.66
4/15/2022 3:45:00 AM 6.95 44.51 0.034 6.66 2.23 11.69
4/15/2022 4:00:00 AM 6.87 44.366 0.034 6.67 2.24 11.71
4/15/2022 4:15:00 AM 6.79 44.222 0.034 6.65 2.33 11.74
4/15/2022 4:30:00 AM 6.71 44.078 0.034 6.66 2.23 11.76
4/15/2022 4:45:00 AM 6.63 43.934 0.034 6.66 2.19 11.79
4/15/2022 5:00:00 AM 6.56 43.808 0.034 6.66 2.14 11.81
4/15/2022 5:15:00 AM 6.49 43.682 0.034 6.66 2.43 11.83
4/15/2022 5:30:00 AM 6.42 43.556 0.034 6.67 2.23 11.86
4/15/2022 5:45:00 AM 6.34 43.412 0.034 6.66 2.26 11.88
4/15/2022 6:00:00 AM 6.26 43.268 0.034 6.66 2.23 11.9
4/15/2022 6:15:00 AM 6.2 43.16 0.034 6.66 2.21 11.93
4/15/2022 6:30:00 AM 6.14 43.052 0.034 6.66 2.2 11.96
4/15/2022 6:45:00 AM 6.07 42.926 0.034 6.66 2.21 11.99
4/15/2022 7:00:00 AM 6.01 42.818 0.034 6.67 2.27 12.03
4/15/2022 7:15:00 AM 5.96 42.728 0.034 6.67 2.24 12.07
4/15/2022 7:30:00 AM 5.91 42.638 0.034 6.68 2.29 12.1
4/15/2022 7:45:00 AM 5.86 42.548 0.034 6.68 2.44 12.14
4/15/2022 8:00:00 AM 5.81 42.458 0.034 6.67 2.28 12.17
4/15/2022 8:15:00 AM 5.77 42.386 0.034 6.67 2.15 12.2
4/15/2022 8:30:00 AM 5.73 42.314 0.034 6.67 2.04 12.22
4/15/2022 8:45:00 AM 5.69 42.242 0.034 6.69 2.13 12.24
4/15/2022 9:00:00 AM 5.67 42.206 0.034 6.69 2.68 12.26
4/15/2022 9:15:00 AM 5.66 42.188 0.034 6.7 2.05 12.28
4/15/2022 9:30:00 AM 5.68 42.224 0.034 6.71 2.03 12.29
4/15/2022 9:45:00 AM 5.71 42.278 0.034 6.73 2.03 12.29
4/15/2022 10:00:00 AM 5.79 42.422 0.034 6.73 2.08 12.29
4/15/2022 10:15:00 AM 5.9 42.62 0.034 6.75 2.13 12.28
4/15/2022 10:30:00 AM 6.06 42.908 0.034 6.76 2.09 12.25
4/15/2022 10:45:00 AM 6.24 43.232 0.034 6.76 2.03 12.21
4/15/2022 11:00:00 AM 6.44 43.592 0.033 6.77 1.93 12.17
4/15/2022 11:15:00 AM 6.66 43.988 0.033 6.78 2 12.12
4/15/2022 11:30:00 AM 6.92 44.456 0.033 6.77 1.95 12.06
4/15/2022 11:45:00 AM 7.2 44.96 0.033 6.78 1.93 11.99
4/15/2022 12:00:00 PM 7.49 45.482 0.033 6.79 2.17 11.91
4/15/2022 12:15:00 PM 7.79 46.022 0.033 6.79 1.9 11.84
4/15/2022 12:30:00 PM 8.11 46.598 0.033 6.79 1.89 11.75
4/15/2022 12:45:00 PM 8.29 46.922 0.033 6.8 1.85 11.68
4/15/2022 1:00:00 PM 8.52 47.336 0.033 6.8 1.98 11.61
4/15/2022 1:15:00 PM 8.88 47.984 0.033 6.8 1.93 11.53
4/15/2022 1:30:00 PM 9.17 48.506 0.033 6.8 1.94 11.46
4/15/2022 1:45:00 PM 9.47 49.046 0.033 6.81 1.88 11.37
4/15/2022 2:00:00 PM 9.7 49.46 0.033 6.81 1.98 11.3
4/15/2022 2:15:00 PM 9.8 49.64 0.033 6.81 1.87 11.25
4/15/2022 2:30:00 PM 9.95 49.91 0.033 6.82 1.84 11.16
4/15/2022 2:45:00 PM 10.11 50.198 0.033 6.82 1.89 11.12
4/15/2022 3:00:00 PM 10.47 50.846 0.033 6.82 1.96 11.04
4/15/2022 3:15:00 PM 10.6 51.08 0.033 6.82 1.9 10.99
4/15/2022 3:30:00 PM 10.67 51.206 0.033 6.82 2.04 10.94
4/15/2022 3:45:00 PM 10.77 51.386 0.033 6.83 2.07 10.92
4/15/2022 4:00:00 PM 10.85 51.53 0.033 6.83 2.01 10.87
4/15/2022 4:15:00 PM 10.91 51.638 0.033 6.84 2.03 10.86
4/15/2022 4:30:00 PM 10.95 51.71 0.033 6.84 1.94 10.83
4/15/2022 4:45:00 PM 10.97 51.746 0.033 6.84 2.1 10.81
4/15/2022 5:00:00 PM 10.98 51.764 0.033 6.84 2.04 10.79
4/15/2022 5:15:00 PM 10.99 51.782 0.033 6.83 1.99 10.77
4/15/2022 5:30:00 PM 10.99 51.782 0.033 6.82 2.07 10.75
4/15/2022 5:45:00 PM 10.96 51.728 0.033 6.81 2.03 10.73
4/15/2022 6:00:00 PM 10.92 51.656 0.033 6.81 2.42 10.71
4/15/2022 6:15:00 PM 10.9 51.62 0.033 6.79 2.05 10.72
4/15/2022 6:30:00 PM 10.82 51.476 0.033 6.79 2.03 10.71
4/15/2022 6:45:00 PM 10.73 51.314 0.033 6.79 1.95 10.71
4/15/2022 7:00:00 PM 10.65 51.17 0.033 6.78 1.96 10.72
4/15/2022 7:15:00 PM 10.58 51.044 0.033 6.77 2.11 10.71
4/15/2022 7:30:00 PM 10.5 50.9 0.033 6.76 1.95 10.7
4/15/2022 7:45:00 PM 10.43 50.774 0.033 6.75 2.06 10.69
4/15/2022 8:00:00 PM 10.35 50.63 0.033 6.73 2.08 10.69
4/15/2022 8:15:00 PM 10.26 50.468 0.034 6.72 2.15 10.7
4/15/2022 8:30:00 PM 10.18 50.324 0.034 6.72 2.24 10.71
4/15/2022 8:45:00 PM 10.09 50.162 0.034 6.71 2.24 10.73
4/15/2022 9:00:00 PM 9.99 49.982 0.034 6.7 2.17 10.75
4/15/2022 9:15:00 PM 9.9 49.82 0.034 6.7 2.16 10.77
4/15/2022 9:30:00 PM 9.81 49.658 0.034 6.69 2.25 10.8
4/15/2022 9:45:00 PM 9.72 49.496 0.034 6.68 2.55 10.83
4/15/2022 10:00:00 PM 9.64 49.352 0.034 6.69 2.29 10.85
4/15/2022 10:15:00 PM 9.56 49.208 0.034 6.69 2.33 10.86
4/15/2022 10:30:00 PM 9.47 49.046 0.034 6.69 2.48 10.89
4/15/2022 10:45:00 PM 9.38 48.884 0.034 6.68 2.25 10.92
4/15/2022 11:00:00 PM 9.29 48.722 0.034 6.68 2.2 10.95
4/15/2022 11:15:00 PM 9.21 48.578 0.034 6.68 2.2 10.96
4/15/2022 11:30:00 PM 9.14 48.452 0.034 6.69 2.26 10.98
4/15/2022 11:45:00 PM 9.06 48.308 0.034 6.69 2.27 11.01
4/16/2022 12:00:00 AM 8.99 48.182 0.034 6.69 2.31 11.02
4/16/2022 12:15:00 AM 8.91 48.038 0.034 6.68 2.29 11.04
4/16/2022 12:30:00 AM 8.83 47.894 0.034 6.69 2.34 11.07
4/16/2022 12:45:00 AM 8.76 47.768 0.034 6.68 2.38 11.09
4/16/2022 1:00:00 AM 8.7 47.66 0.034 6.68 2.25 11.11
4/16/2022 1:15:00 AM 8.63 47.534 0.034 6.68 2.63 11.13
4/16/2022 1:30:00 AM 8.56 47.408 0.034 6.68 2.39 11.14
4/16/2022 1:45:00 AM 8.5 47.3 0.034 6.67 2.31 11.16
4/16/2022 2:00:00 AM 8.45 47.21 0.034 6.67 2.2 11.18
4/16/2022 2:15:00 AM 8.39 47.102 0.034 6.67 2.29 11.2
4/16/2022 2:30:00 AM 8.34 47.012 0.034 6.67 2.13 11.2
4/16/2022 2:45:00 AM 8.28 46.904 0.034 6.68 2.24 11.22
4/16/2022 3:00:00 AM 8.24 46.832 0.034 6.68 2.17 11.24
4/16/2022 3:15:00 AM 8.2 46.76 0.034 6.68 2.28 11.25
4/16/2022 3:30:00 AM 8.15 46.67 0.034 6.67 2.24 11.27
4/16/2022 3:45:00 AM 8.12 46.616 0.034 6.67 2.15 11.29
4/16/2022 4:00:00 AM 8.09 46.562 0.034 6.67 2.29 11.3
4/16/2022 4:15:00 AM 8.06 46.508 0.034 6.67 2.37 11.31
4/16/2022 4:30:00 AM 8.03 46.454 0.034 6.67 2.37 11.32
4/16/2022 4:45:00 AM 8 46.4 0.034 6.67 2.31 11.33
4/16/2022 5:00:00 AM 7.97 46.346 0.034 6.66 2.17 11.33
4/16/2022 5:15:00 AM 7.95 46.31 0.034 6.67 2.19 11.34
4/16/2022 5:30:00 AM 7.92 46.256 0.034 6.67 2.28 11.35
4/16/2022 5:45:00 AM 7.9 46.22 0.034 6.67 2.16 11.35
4/16/2022 6:00:00 AM 7.88 46.184 0.034 6.67 2.28 11.36
4/16/2022 6:15:00 AM 7.86 46.148 0.034 6.67 2.16 11.37
4/16/2022 6:30:00 AM 7.84 46.112 0.034 6.67 2.14 11.37
4/16/2022 6:45:00 AM 7.83 46.094 0.034 6.66 2.19 11.39
4/16/2022 7:00:00 AM 7.82 46.076 0.034 6.68 2.16 11.41
4/16/2022 7:15:00 AM 7.82 46.076 0.034 6.68 2.52 11.43
4/16/2022 7:30:00 AM 7.82 46.076 0.034 6.69 2.23 11.45
4/16/2022 7:45:00 AM 7.84 46.112 0.034 6.71 2.16 11.49
4/16/2022 8:00:00 AM 7.86 46.148 0.034 6.74 2.38 11.53
4/16/2022 8:15:00 AM 7.88 46.184 0.034 6.74 2.31 11.54
4/16/2022 8:30:00 AM 7.91 46.238 0.034 6.76 2.05 11.55
4/16/2022 8:45:00 AM 7.95 46.31 0.034 6.77 2.02 11.56
4/16/2022 9:00:00 AM 7.97 46.346 0.034 6.77 2.22 11.52
4/16/2022 9:15:00 AM 8 46.4 0.034 6.77 2.07 11.53
4/16/2022 9:30:00 AM 8.03 46.454 0.034 6.77 2.14 11.52
4/16/2022 9:45:00 AM 8.05 46.49 0.034 6.77 2.08 11.5
4/16/2022 10:00:00 AM 8.09 46.562 0.034 6.78 2.06 11.5
4/16/2022 10:15:00 AM 8.11 46.598 0.034 6.79 2.08 11.5
4/16/2022 10:30:00 AM 8.15 46.67 0.034 6.79 2.1 11.5
4/16/2022 10:45:00 AM 8.17 46.706 0.034 6.79 2.09 11.49
4/16/2022 11:00:00 AM 8.21 46.778 0.034 6.79 2.04 11.48
4/16/2022 11:15:00 AM 8.23 46.814 0.034 6.78 1.95 11.46
4/16/2022 11:30:00 AM 8.27 46.886 0.034 6.79 1.96 11.47
4/16/2022 11:45:00 AM 8.29 46.922 0.034 6.79 2.12 11.44
4/16/2022 12:00:00 PM 8.32 46.976 0.034 6.79 2.13 11.44
4/16/2022 12:15:00 PM 8.36 47.048 0.034 6.8 1.96 11.44
4/16/2022 12:30:00 PM 8.41 47.138 0.033 6.79 2.2 11.43
4/16/2022 12:45:00 PM 8.43 47.174 0.033 6.79 2.04 11.43
4/16/2022 1:00:00 PM 8.45 47.21 0.033 6.79 2.2 11.42
4/16/2022 1:15:00 PM 8.46 47.228 0.033 6.79 2.15 11.41
4/16/2022 1:30:00 PM 8.46 47.228 0.033 6.78 2.02 11.38
4/16/2022 1:45:00 PM 8.49 47.282 0.033 6.79 2.3 11.42
4/16/2022 2:00:00 PM 8.5 47.3 0.033 6.8 2.2 11.42
4/16/2022 2:15:00 PM 8.51 47.318 0.033 6.79 2.08 11.43
4/16/2022 2:30:00 PM 8.51 47.318 0.033 6.8 2.19 11.42
4/16/2022 2:45:00 PM 8.52 47.336 0.033 6.8 2.24 11.43
4/16/2022 3:00:00 PM 8.53 47.354 0.033 6.81 2.59 11.43
4/16/2022 3:15:00 PM 8.53 47.354 0.033 6.8 2.16 11.43
4/16/2022 3:30:00 PM 8.57 47.426 0.033 6.81 2.31 11.43
4/16/2022 3:45:00 PM 8.54 47.372 0.033 6.8 2.15 11.41
4/16/2022 4:00:00 PM 8.55 47.39 0.033 6.81 2.39 11.41
4/16/2022 4:15:00 PM 8.57 47.426 0.033 6.81 2.16 11.39
4/16/2022 4:30:00 PM 8.54 47.372 0.033 6.8 2.34 11.38
4/16/2022 4:45:00 PM 8.54 47.372 0.033 6.8 2.24 11.39
4/16/2022 5:00:00 PM 8.55 47.39 0.033 6.8 2.2 11.39
4/16/2022 5:15:00 PM 8.55 47.39 0.033 6.8 2.3 11.38
4/16/2022 5:30:00 PM 8.55 47.39 0.033 6.81 2.27 11.38
4/16/2022 5:45:00 PM 8.54 47.372 0.033 6.79 2.26 11.38
4/16/2022 6:00:00 PM 8.54 47.372 0.033 6.79 2.19 11.37
4/16/2022 6:15:00 PM 8.54 47.372 0.033 6.79 2.25 11.38
4/16/2022 6:30:00 PM 8.53 47.354 0.033 6.78 2.29 11.39
4/16/2022 6:45:00 PM 8.51 47.318 0.033 6.79 2.29 11.38
4/16/2022 7:00:00 PM 8.47 47.246 0.033 6.78 2.32 11.36
4/16/2022 7:15:00 PM 8.44 47.192 0.033 6.78 2.39 11.34
4/16/2022 7:30:00 PM 8.39 47.102 0.033 6.76 2.4 11.32
4/16/2022 7:45:00 PM 8.34 47.012 0.033 6.75 2.34 11.3
4/16/2022 8:00:00 PM 8.29 46.922 0.033 6.74 2.28 11.29
4/16/2022 8:15:00 PM 8.24 46.832 0.033 6.72 2.28 11.28
4/16/2022 8:30:00 PM 8.19 46.742 0.033 6.72 2.34 11.29
4/16/2022 8:45:00 PM 8.13 46.634 0.033 6.71 2.47 11.29
4/16/2022 9:00:00 PM 8.08 46.544 0.033 6.7 2.72 11.3
4/16/2022 9:15:00 PM 8.03 46.454 0.033 6.7 2.37 11.32
4/16/2022 9:30:00 PM 7.98 46.364 0.033 6.7 2.53 11.34
4/16/2022 9:45:00 PM 7.93 46.274 0.033 6.7 2.37 11.35
4/16/2022 10:00:00 PM 7.89 46.202 0.034 6.7 2.32 11.37
4/16/2022 10:15:00 PM 7.83 46.094 0.034 6.7 2.28 11.38
4/16/2022 10:30:00 PM 7.78 46.004 0.034 6.7 2.54 11.4
4/16/2022 10:45:00 PM 7.72 45.896 0.034 6.69 2.19 11.41
4/16/2022 11:00:00 PM 7.65 45.77 0.034 6.7 2.27 11.43
4/16/2022 11:15:00 PM 7.58 45.644 0.034 6.7 2.21 11.45
4/16/2022 11:30:00 PM 7.5 45.5 0.034 6.7 2.33 11.48
4/16/2022 11:45:00 PM 7.42 45.356 0.034 6.7 2.14 11.51
4/17/2022 12:00:00 AM 7.34 45.212 0.034 6.7 2.15 11.53
4/17/2022 12:15:00 AM 7.25 45.05 0.034 6.7 2.18 11.56
4/17/2022 12:30:00 AM 7.17 44.906 0.034 6.7 2.19 11.59
4/17/2022 12:45:00 AM 7.1 44.78 0.034 6.7 2.39 11.6
4/17/2022 1:00:00 AM 7.02 44.636 0.034 6.71 2.47 11.63
4/17/2022 1:15:00 AM 6.94 44.492 0.034 6.7 2.45 11.65
4/17/2022 1:30:00 AM 6.86 44.348 0.034 6.69 2.74 11.67
4/17/2022 1:45:00 AM 6.78 44.204 0.034 6.7 2.2 11.71
4/17/2022 2:00:00 AM 6.71 44.078 0.034 6.69 2.2 11.73
4/17/2022 2:15:00 AM 6.64 43.952 0.034 6.7 2.2 11.76
4/17/2022 2:30:00 AM 6.58 43.844 0.034 6.69 2.2 11.78
4/17/2022 2:45:00 AM 6.52 43.736 0.034 6.7 2.32 11.79
4/17/2022 3:00:00 AM 6.45 43.61 0.034 6.69 2.29 11.81
4/17/2022 3:15:00 AM 6.38 43.484 0.034 6.68 2.25 11.83
4/17/2022 3:30:00 AM 6.32 43.376 0.034 6.69 2.27 11.86
4/17/2022 3:45:00 AM 6.26 43.268 0.034 6.69 2.29 11.88
4/17/2022 4:00:00 AM 6.2 43.16 0.034 6.69 2.15 11.9
4/17/2022 4:15:00 AM 6.15 43.07 0.035 6.69 2.23 11.92
4/17/2022 4:30:00 AM 6.1 42.98 0.035 6.68 2.26 11.93
4/17/2022 4:45:00 AM 6.05 42.89 0.035 6.68 2.25 11.96
4/17/2022 5:00:00 AM 6.01 42.818 0.035 6.69 2.12 11.97
4/17/2022 5:15:00 AM 5.98 42.764 0.035 6.68 2.2 11.99
4/17/2022 5:30:00 AM 5.94 42.692 0.035 6.68 2.27 12
4/17/2022 5:45:00 AM 5.91 42.638 0.035 6.69 2.17 12.01
4/17/2022 6:00:00 AM 5.87 42.566 0.035 6.68 2.26 12.02
4/17/2022 6:15:00 AM 5.84 42.512 0.035 6.69 2.19 12.04
4/17/2022 6:30:00 AM 5.81 42.458 0.035 6.69 2.18 12.06
4/17/2022 6:45:00 AM 5.78 42.404 0.035 6.69 2.13 12.07
4/17/2022 7:00:00 AM 5.76 42.368 0.035 6.69 2.41 12.1
4/17/2022 7:15:00 AM 5.73 42.314 0.035 6.7 2.35 12.14
4/17/2022 7:30:00 AM 5.71 42.278 0.034 6.71 2.27 12.19
4/17/2022 7:45:00 AM 5.7 42.26 0.034 6.72 2.18 12.23
4/17/2022 8:00:00 AM 5.7 42.26 0.034 6.73 2.1 12.25
4/17/2022 8:15:00 AM 5.69 42.242 0.034 6.73 2.08 12.27
4/17/2022 8:30:00 AM 5.71 42.278 0.034 6.75 2.16 12.3
4/17/2022 8:45:00 AM 5.66 42.188 0.034 6.75 1.94 12.27
4/17/2022 9:00:00 AM 5.69 42.242 0.034 6.76 1.92 12.33
4/17/2022 9:15:00 AM 5.71 42.278 0.034 6.77 2.06 12.34
4/17/2022 9:30:00 AM 5.69 42.242 0.034 6.78 1.88 12.36
4/17/2022 9:45:00 AM 5.71 42.278 0.034 6.78 1.9 12.37
4/17/2022 10:00:00 AM 5.76 42.368 0.034 6.79 1.87 12.39
4/17/2022 10:15:00 AM 5.8 42.44 0.034 6.8 1.92 12.39
4/17/2022 10:30:00 AM 5.86 42.548 0.034 6.79 1.85 12.38
4/17/2022 10:45:00 AM 5.92 42.656 0.034 6.8 1.93 12.37
4/17/2022 11:00:00 AM 5.97 42.746 0.034 6.8 1.85 12.35
4/17/2022 11:15:00 AM 6.11 42.998 0.034 6.81 2.2 12.34
4/17/2022 11:30:00 AM 6.23 43.214 0.034 6.81 1.82 12.3
4/17/2022 11:45:00 AM 6.25 43.25 0.034 6.81 1.84 12.29
4/17/2022 12:00:00 PM 6.4 43.52 0.034 6.81 1.86 12.27
4/17/2022 12:15:00 PM 6.44 43.592 0.034 6.81 1.91 12.26
4/17/2022 12:30:00 PM 6.67 44.006 0.033 6.81 1.88 12.21
4/17/2022 12:45:00 PM 6.65 43.97 0.033 6.8 1.84 12.18
4/17/2022 1:00:00 PM 6.68 44.024 0.033 6.81 1.82 12.16
4/17/2022 1:15:00 PM 6.85 44.33 0.033 6.82 1.76 12.15
4/17/2022 1:30:00 PM 6.89 44.402 0.033 6.81 1.83 12.12
4/17/2022 1:45:00 PM 7.26 45.068 0.033 6.82 1.81 12.05
4/17/2022 2:00:00 PM 7.57 45.626 0.033 6.82 1.92 11.98
4/17/2022 2:15:00 PM 7.94 46.292 0.033 6.81 1.79 11.87
4/17/2022 2:30:00 PM 8.03 46.454 0.033 6.82 1.85 11.83
4/17/2022 2:45:00 PM 8.08 46.544 0.033 6.81 1.84 11.75
4/17/2022 3:00:00 PM 8.25 46.85 0.033 6.82 1.78 11.74
4/17/2022 3:15:00 PM 8.26 46.868 0.033 6.82 2.13 11.72
4/17/2022 3:30:00 PM 8.22 46.796 0.033 6.82 1.79 11.7
4/17/2022 3:45:00 PM 8.07 46.526 0.033 6.81 1.95 11.72
4/17/2022 4:00:00 PM 8.16 46.688 0.033 6.81 1.91 11.73
4/17/2022 4:15:00 PM 8.15 46.67 0.033 6.82 1.96 11.72
4/17/2022 4:30:00 PM 8.02 46.436 0.033 6.81 1.86 11.71
4/17/2022 4:45:00 PM 8.02 46.436 0.033 6.82 1.89 11.71
4/17/2022 5:00:00 PM 8.09 46.562 0.033 6.82 1.91 11.69
4/17/2022 5:15:00 PM 8.11 46.598 0.033 6.82 1.81 11.66
4/17/2022 5:30:00 PM 8.1 46.58 0.033 6.82 1.82 11.66
4/17/2022 5:45:00 PM 8.08 46.544 0.033 6.82 1.92 11.63
4/17/2022 6:00:00 PM 8.06 46.508 0.033 6.81 1.96 11.63
4/17/2022 6:15:00 PM 8.02 46.436 0.033 6.81 2.01 11.63
4/17/2022 6:30:00 PM 7.98 46.364 0.033 6.8 1.92 11.62
4/17/2022 6:45:00 PM 7.95 46.31 0.033 6.8 2.01 11.63
4/17/2022 7:00:00 PM 7.88 46.184 0.033 6.78 1.87 11.61
4/17/2022 7:15:00 PM 7.79 46.022 0.033 6.77 1.91 11.59
4/17/2022 7:30:00 PM 7.71 45.878 0.034 6.76 1.91 11.62
4/17/2022 7:45:00 PM 7.64 45.752 0.034 6.75 1.9 11.6
4/17/2022 8:00:00 PM 7.57 45.626 0.034 6.74 2.04 11.59
4/17/2022 8:15:00 PM 7.51 45.518 0.034 6.73 1.94 11.59
4/17/2022 8:30:00 PM 7.44 45.392 0.034 6.73 2.06 11.6
4/17/2022 8:45:00 PM 7.36 45.248 0.034 6.72 2.2 11.61
4/17/2022 9:00:00 PM 7.29 45.122 0.034 6.72 2.13 11.64
4/17/2022 9:15:00 PM 7.21 44.978 0.034 6.71 1.96 11.65
4/17/2022 9:30:00 PM 7.11 44.798 0.034 6.71 2.01 11.69
4/17/2022 9:45:00 PM 7.01 44.618 0.034 6.71 2.07 11.71
4/17/2022 10:00:00 PM 6.92 44.456 0.034 6.71 2.12 11.75
4/17/2022 10:15:00 PM 6.81 44.258 0.034 6.7 2.16 11.78
4/17/2022 10:30:00 PM 6.69 44.042 0.034 6.7 2 11.82
4/17/2022 10:45:00 PM 6.58 43.844 0.034 6.71 2.24 11.86
4/17/2022 11:00:00 PM 6.48 43.664 0.034 6.7 2.12 11.89
4/17/2022 11:15:00 PM 6.36 43.448 0.034 6.7 2.12 11.93
4/17/2022 11:30:00 PM 6.25 43.25 0.034 6.7 2.03 11.97
4/17/2022 11:45:00 PM 6.15 43.07 0.035 6.7 2 11.99
4/18/2022 12:00:00 AM 6.05 42.89 0.035 6.7 2.35 12.03
4/18/2022 12:15:00 AM 5.95 42.71 0.035 6.7 2.06 12.06
4/18/2022 12:30:00 AM 5.86 42.548 0.035 6.7 1.99 12.09
4/18/2022 12:45:00 AM 5.75 42.35 0.035 6.7 2.11 12.13
4/18/2022 1:00:00 AM 5.68 42.224 0.035 6.69 2.12 12.15
4/18/2022 1:15:00 AM 5.58 42.044 0.035 6.69 2 12.18
4/18/2022 1:30:00 AM 5.5 41.9 0.035 6.7 2.04 12.22
4/18/2022 1:45:00 AM 5.42 41.756 0.035 6.68 1.99 12.24
4/18/2022 2:00:00 AM 5.34 41.612 0.035 6.67 1.99 12.26
4/18/2022 2:15:00 AM 5.26 41.468 0.035 6.67 1.95 12.3
4/18/2022 2:30:00 AM 5.18 41.324 0.035 6.66 2.13 12.32
4/18/2022 2:45:00 AM 5.11 41.198 0.035 6.66 1.93 12.35
4/18/2022 3:00:00 AM 5.04 41.072 0.035 6.65 1.95 12.37
4/18/2022 3:15:00 AM 4.98 40.964 0.035 6.65 1.96 12.38
4/18/2022 3:30:00 AM 4.9 40.82 0.035 6.65 1.96 12.41
4/18/2022 3:45:00 AM 4.83 40.694 0.035 6.65 1.97 12.44
4/18/2022 4:00:00 AM 4.76 40.568 0.035 6.65 1.98 12.46
4/18/2022 4:15:00 AM 4.71 40.478 0.035 6.64 1.94 12.46
4/18/2022 4:30:00 AM 4.65 40.37 0.035 6.65 1.94 12.5
4/18/2022 4:45:00 AM 4.58 40.244 0.035 6.64 1.95 12.51
4/18/2022 5:00:00 AM 4.53 40.154 0.035 6.64 1.88 12.53
4/18/2022 5:15:00 AM 4.45 40.01 0.035 6.64 1.95 12.56
4/18/2022 5:30:00 AM 4.39 39.902 0.035 6.64 2 12.58
4/18/2022 5:45:00 AM 4.32 39.776 0.035 6.64 1.97 12.59
4/18/2022 6:00:00 AM 4.29 39.722 0.035 6.64 1.89 12.6
4/18/2022 6:15:00 AM 4.24 39.632 0.035 6.64 1.87 12.61
4/18/2022 6:30:00 AM 4.17 39.506 0.035 6.64 2.02 12.64
4/18/2022 6:45:00 AM 4.12 39.416 0.035 6.65 2.13 12.67
4/18/2022 7:00:00 AM 4.09 39.362 0.035 6.65 2.13 12.71
4/18/2022 7:15:00 AM 4.04 39.272 0.035 6.67 2.28 12.76
4/18/2022 7:30:00 AM 4.02 39.236 0.035 6.68 2.03 12.79
4/18/2022 7:45:00 AM 3.99 39.182 0.035 6.69 1.94 12.83
4/18/2022 8:00:00 AM 3.98 39.164 0.035 6.71 1.88 12.87
4/18/2022 8:15:00 AM 3.99 39.182 0.034 6.71 2.11 12.89
4/18/2022 8:30:00 AM 4 39.2 0.034 6.73 1.85 12.91
4/18/2022 8:45:00 AM 4.01 39.218 0.034 6.74 1.92 12.92
4/18/2022 9:00:00 AM 4.04 39.272 0.034 6.75 1.87 12.92
4/18/2022 9:15:00 AM 4.11 39.398 0.034 6.76 1.83 12.92
4/18/2022 9:30:00 AM 4.19 39.542 0.034 6.77 1.84 12.91
4/18/2022 9:45:00 AM 4.27 39.686 0.034 6.77 1.79 12.89
4/18/2022 10:00:00 AM 4.35 39.83 0.034 6.78 1.8 12.86
4/18/2022 10:15:00 AM 4.44 39.992 0.034 6.79 1.89 12.85
4/18/2022 10:30:00 AM 4.54 40.172 0.034 6.79 1.8 12.82
4/18/2022 10:45:00 AM 4.63 40.334 0.034 6.8 1.8 12.79
4/18/2022 11:00:00 AM 4.71 40.478 0.034 6.8 1.75 12.76
4/18/2022 11:15:00 AM 4.78 40.604 0.034 6.8 1.78 12.73
4/18/2022 11:30:00 AM 4.8 40.64 0.034 6.8 1.75 12.7
4/18/2022 11:45:00 AM 4.85 40.73 0.034 6.8 2.13 12.68
4/18/2022 12:00:00 PM 4.93 40.874 0.034 6.81 1.8 12.67
4/18/2022 12:15:00 PM 4.99 40.982 0.034 6.8 1.9 12.63
4/18/2022 12:30:00 PM 5.06 41.108 0.034 6.8 1.74 12.63
4/18/2022 12:45:00 PM 5.15 41.27 0.034 6.81 1.78 12.6
4/18/2022 1:00:00 PM 5.22 41.396 0.034 6.81 1.77 12.57
4/18/2022 1:15:00 PM 5.32 41.576 0.034 6.81 1.73 12.53
4/18/2022 1:30:00 PM 5.37 41.666 0.034 6.81 1.68 12.51
4/18/2022 1:45:00 PM 5.41 41.738 0.034 6.81 1.75 12.46
4/18/2022 2:00:00 PM 5.44 41.792 0.034 6.81 1.73 12.43
4/18/2022 2:15:00 PM 5.45 41.81 0.034 6.8 1.79 12.41
4/18/2022 2:30:00 PM 5.45 41.81 0.034 6.8 1.77 12.39
4/18/2022 2:45:00 PM 5.4 41.72 0.034 6.79 1.78 12.37
4/18/2022 3:00:00 PM 5.4 41.72 0.034 6.79 1.93 12.38
4/18/2022 3:15:00 PM 5.37 41.666 0.033 6.79 1.81 12.37
4/18/2022 3:30:00 PM 5.34 41.612 0.033 6.79 1.86 12.38
4/18/2022 3:45:00 PM 5.27 41.486 0.033 6.78 1.87 12.38
4/18/2022 4:00:00 PM 5.22 41.396 0.033 6.78 1.89 12.38
4/18/2022 4:15:00 PM 5.18 41.324 0.033 6.77 1.91 12.38
4/18/2022 4:30:00 PM 5.09 41.162 0.033 6.77 1.87 12.38
4/18/2022 4:45:00 PM 5.02 41.036 0.033 6.76 1.92 12.38
4/18/2022 5:00:00 PM 5.01 41.018 0.033 6.76 2.01 12.39
4/18/2022 5:15:00 PM 4.96 40.928 0.033 6.75 1.96 12.41
4/18/2022 5:30:00 PM 4.98 40.964 0.033 6.76 2.05 12.41
4/18/2022 5:45:00 PM 4.97 40.946 0.033 6.75 2 12.41
4/18/2022 6:00:00 PM 4.97 40.946 0.033 6.74 1.9 12.38
4/18/2022 6:15:00 PM 4.93 40.874 0.033 6.74 1.89 12.38
4/18/2022 6:30:00 PM 4.91 40.838 0.033 6.73 2.02 12.37
4/18/2022 6:45:00 PM 4.86 40.748 0.033 6.73 2 12.37
4/18/2022 7:00:00 PM 4.81 40.658 0.033 6.72 1.92 12.37
4/18/2022 7:15:00 PM 4.72 40.496 0.033 6.72 1.98 12.38
4/18/2022 7:30:00 PM 4.49 40.082 0.033 6.71 2.04 12.41
4/18/2022 7:45:00 PM 4.44 39.992 0.033 6.71 1.91 12.43
4/18/2022 8:00:00 PM 4.33 39.794 0.033 6.71 2.2 12.45
4/18/2022 8:15:00 PM 4.28 39.704 0.034 6.71 1.95 12.46
4/18/2022 8:30:00 PM 4.26 39.668 0.034 6.7 1.96 12.47
4/18/2022 8:45:00 PM 4.2 39.56 0.034 6.7 2.2 12.5
4/18/2022 9:00:00 PM 4.16 39.488 0.034 6.7 2.08 12.51
4/18/2022 9:15:00 PM 4.09 39.362 0.034 6.69 2.07 12.53
4/18/2022 9:30:00 PM 4.04 39.272 0.034 6.69 2.08 12.54
4/18/2022 9:45:00 PM 4.03 39.254 0.034 6.69 1.98 12.55
4/18/2022 10:00:00 PM 4.01 39.218 0.034 6.69 2.01 12.56
4/18/2022 10:15:00 PM 3.98 39.164 0.034 6.69 2.05 12.56
4/18/2022 10:30:00 PM 3.94 39.092 0.034 6.69 2 12.58
4/18/2022 10:45:00 PM 3.89 39.002 0.034 6.69 2.02 12.59
4/18/2022 11:00:00 PM 3.89 39.002 0.034 6.69 1.97 12.6
4/18/2022 11:15:00 PM 3.82 38.876 0.034 6.69 2.24 12.61
4/18/2022 11:30:00 PM 3.77 38.786 0.034 6.69 2.06 12.62
4/18/2022 11:45:00 PM 3.72 38.696 0.034 6.68 2.01 12.63
4/19/2022 12:00:00 AM 3.69 38.642 0.034 6.68 1.99 12.64
4/19/2022 12:15:00 AM 3.69 38.642 0.034 6.68 2.01 12.65
4/19/2022 12:30:00 AM 3.69 38.642 0.034 6.68 1.98 12.65
4/19/2022 12:45:00 AM 3.7 38.66 0.034 6.68 2.04 12.66
4/19/2022 1:00:00 AM 3.68 38.624 0.034 6.68 1.94 12.66
4/19/2022 1:15:00 AM 3.65 38.57 0.034 6.68 1.95 12.66
4/19/2022 1:30:00 AM 3.62 38.516 0.034 6.68 1.95 12.67
4/19/2022 1:45:00 AM 3.63 38.534 0.034 6.68 1.99 12.67
4/19/2022 2:00:00 AM 3.59 38.462 0.034 6.68 1.98 12.67
4/19/2022 2:15:00 AM 3.59 38.462 0.034 6.68 1.92 12.67
4/19/2022 2:30:00 AM 3.6 38.48 0.034 6.68 1.99 12.67
4/19/2022 2:45:00 AM 3.61 38.498 0.034 6.68 1.93 12.67
4/19/2022 3:00:00 AM 3.63 38.534 0.034 6.68 2.02 12.66
4/19/2022 3:15:00 AM 3.64 38.552 0.034 6.68 2.17 12.67
4/19/2022 3:30:00 AM 3.66 38.588 0.034 6.68 1.88 12.65
4/19/2022 3:45:00 AM 3.67 38.606 0.034 6.68 1.94 12.64
4/19/2022 4:00:00 AM 3.7 38.66 0.034 6.69 1.88 12.63
4/19/2022 4:15:00 AM 3.71 38.678 0.034 6.69 1.92 12.63
4/19/2022 4:30:00 AM 3.73 38.714 0.034 6.68 1.87 12.61
4/19/2022 4:45:00 AM 3.75 38.75 0.034 6.69 1.89 12.6
4/19/2022 5:00:00 AM 3.76 38.768 0.034 6.69 1.95 12.6
4/19/2022 5:15:00 AM 3.77 38.786 0.034 6.69 1.91 12.6
4/19/2022 5:30:00 AM 3.78 38.804 0.034 6.69 1.91 12.59
4/19/2022 5:45:00 AM 3.8 38.84 0.034 6.69 1.9 12.58
4/19/2022 6:00:00 AM 3.81 38.858 0.034 6.68 1.94 12.58
4/19/2022 6:15:00 AM 3.83 38.894 0.034 6.69 2.1 12.57
4/19/2022 6:30:00 AM 3.84 38.912 0.034 6.69 1.95 12.57
4/19/2022 6:45:00 AM 3.86 38.948 0.034 6.69 1.96 12.57
4/19/2022 7:00:00 AM 3.88 38.984 0.034 6.7 1.86 12.58
4/19/2022 7:15:00 AM 3.9 39.02 0.034 6.7 1.95 12.6
4/19/2022 7:30:00 AM 3.94 39.092 0.034 6.72 1.99 12.64
4/19/2022 7:45:00 AM 3.95 39.11 0.034 6.73 1.89 12.66
4/19/2022 8:00:00 AM 3.96 39.128 0.034 6.74 1.91 12.67
4/19/2022 8:15:00 AM 3.97 39.146 0.034 6.75 1.97 12.69
4/19/2022 8:30:00 AM 3.99 39.182 0.034 6.75 1.87 12.7
4/19/2022 8:45:00 AM 4.03 39.254 0.034 6.77 1.89 12.71
4/19/2022 9:00:00 AM 4.08 39.344 0.034 6.77 1.9 12.71
4/19/2022 9:15:00 AM 4.12 39.416 0.034 6.77 1.92 12.71
4/19/2022 9:30:00 AM 4.1 39.38 0.034 6.77 1.88 12.68
4/19/2022 9:45:00 AM 4.1 39.38 0.034 6.77 1.94 12.68
4/19/2022 10:00:00 AM 4.12 39.416 0.034 6.76 1.96 12.67
4/19/2022 10:15:00 AM 4.18 39.524 0.034 6.78 1.89 12.68
4/19/2022 10:30:00 AM 4.23 39.614 0.034 6.78 1.93 12.68
4/19/2022 10:45:00 AM 4.29 39.722 0.034 6.78 1.99 12.67
4/19/2022 11:00:00 AM 4.37 39.866 0.034 6.79 1.82 12.67
4/19/2022 11:15:00 AM 4.48 40.064 0.034 6.8 1.9 12.65
4/19/2022 11:30:00 AM 4.49 40.082 0.034 6.79 1.84 12.63
4/19/2022 11:45:00 AM 4.67 40.406 0.033 6.8 1.88 12.62
4/19/2022 12:00:00 PM 4.82 40.676 0.033 6.8 1.88 12.57
4/19/2022 12:15:00 PM 4.9 40.82 0.033 6.8 1.89 12.53
4/19/2022 12:30:00 PM 5.07 41.126 0.033 6.8 1.93 12.49
4/19/2022 12:45:00 PM 5.12 41.216 0.033 6.8 1.87 12.48
4/19/2022 1:00:00 PM 5.27 41.486 0.033 6.8 1.86 12.4
4/19/2022 1:15:00 PM 5.31 41.558 0.033 6.8 1.92 12.38
4/19/2022 1:30:00 PM 5.36 41.648 0.033 6.8 1.92 12.34
4/19/2022 1:45:00 PM 5.61 42.098 0.033 6.81 1.92 12.33
4/19/2022 2:00:00 PM 5.73 42.314 0.033 6.8 1.87 12.26
4/19/2022 2:15:00 PM 5.99 42.782 0.033 6.81 1.91 12.23
4/19/2022 2:30:00 PM 6 42.8 0.033 6.81 1.93 12.19
4/19/2022 2:45:00 PM 6.07 42.926 0.033 6.81 1.88 12.16
4/19/2022 3:00:00 PM 6.14 43.052 0.033 6.81 1.86 12.13
4/19/2022 3:15:00 PM 6.33 43.394 0.033 6.82 1.87 12.08
4/19/2022 3:30:00 PM 6.33 43.394 0.033 6.81 1.81 12.05
4/19/2022 3:45:00 PM 6.36 43.448 0.033 6.81 1.81 12.04
4/19/2022 4:00:00 PM 6.45 43.61 0.033 6.81 1.92 12.02
4/19/2022 4:15:00 PM 6.55 43.79 0.033 6.82 1.92 12.01
4/19/2022 4:30:00 PM 6.57 43.826 0.033 6.82 1.96 11.98
4/19/2022 4:45:00 PM 6.53 43.754 0.033 6.81 1.91 11.96
4/19/2022 5:00:00 PM 6.55 43.79 0.033 6.81 1.98 11.95
4/19/2022 5:15:00 PM 6.57 43.826 0.033 6.81 2.03 11.97
4/19/2022 5:30:00 PM 6.59 43.862 0.033 6.81 1.89 11.95
4/19/2022 5:45:00 PM 6.59 43.862 0.033 6.82 1.95 11.94
4/19/2022 6:00:00 PM 6.54 43.772 0.034 6.81 1.96 11.95
4/19/2022 6:15:00 PM 6.49 43.682 0.034 6.8 1.98 11.91
4/19/2022 6:30:00 PM 6.45 43.61 0.034 6.8 2.03 11.94
4/19/2022 6:45:00 PM 6.4 43.52 0.034 6.79 2.37 11.94
4/19/2022 7:00:00 PM 6.36 43.448 0.034 6.78 2.14 11.94
4/19/2022 7:15:00 PM 6.31 43.358 0.034 6.78 2.15 11.94
4/19/2022 7:30:00 PM 6.26 43.268 0.034 6.76 2.08 11.93
4/19/2022 7:45:00 PM 6.19 43.142 0.034 6.76 2.14 11.92
4/19/2022 8:00:00 PM 6.11 42.998 0.034 6.74 2.16 11.93
4/19/2022 8:15:00 PM 6.05 42.89 0.034 6.74 2.02 11.93
4/19/2022 8:30:00 PM 5.99 42.782 0.034 6.74 2.07 11.95
4/19/2022 8:45:00 PM 5.93 42.674 0.034 6.73 2.11 11.96
4/19/2022 9:00:00 PM 5.88 42.584 0.034 6.73 2.14 11.97
4/19/2022 9:15:00 PM 5.84 42.512 0.034 6.72 2.2 11.98
4/19/2022 9:30:00 PM 5.78 42.404 0.034 6.72 2.12 12.01
4/19/2022 9:45:00 PM 5.72 42.296 0.035 6.72 2.17 12.03
4/19/2022 10:00:00 PM 5.66 42.188 0.035 6.73 2.24 12.05
4/19/2022 10:15:00 PM 5.6 42.08 0.035 6.72 2.12 12.08
4/19/2022 10:30:00 PM 5.55 41.99 0.035 6.72 2.16 12.1
4/19/2022 10:45:00 PM 5.5 41.9 0.035 6.72 2.1 12.12
4/19/2022 11:00:00 PM 5.46 41.828 0.035 6.72 2.25 12.13
4/19/2022 11:15:00 PM 5.43 41.774 0.035 6.72 2.04 12.15
4/19/2022 11:30:00 PM 5.39 41.702 0.035 6.71 2.12 12.16
4/19/2022 11:45:00 PM 5.36 41.648 0.035 6.71 2 12.18
4/20/2022 12:00:00 AM 5.33 41.594 0.035 6.72 2.05 12.19
4/20/2022 12:15:00 AM 5.28 41.504 0.035 6.72 2.02 12.21
4/20/2022 12:30:00 AM 5.24 41.432 0.035 6.71 2.04 12.23
4/20/2022 12:45:00 AM 5.21 41.378 0.035 6.72 1.99 12.24
4/20/2022 1:00:00 AM 5.18 41.324 0.035 6.71 1.97 12.26
4/20/2022 1:15:00 AM 5.15 41.27 0.035 6.71 2.05 12.26
4/20/2022 1:30:00 AM 5.13 41.234 0.035 6.72 2.01 12.28
4/20/2022 1:45:00 AM 5.11 41.198 0.035 6.71 2.08 12.29
4/20/2022 2:00:00 AM 5.07 41.126 0.035 6.71 2.09 12.3
4/20/2022 2:15:00 AM 5.03 41.054 0.035 6.71 1.93 12.31
4/20/2022 2:30:00 AM 4.99 40.982 0.035 6.71 2.75 12.33
4/20/2022 2:45:00 AM 4.97 40.946 0.035 6.7 2.07 12.34
4/20/2022 3:00:00 AM 4.95 40.91 0.035 6.71 1.94 12.35
4/20/2022 3:15:00 AM 4.93 40.874 0.035 6.71 2.03 12.35
4/20/2022 3:30:00 AM 4.9 40.82 0.035 6.71 1.99 12.37
4/20/2022 3:45:00 AM 4.89 40.802 0.035 6.71 1.91 12.38
4/20/2022 4:00:00 AM 4.88 40.784 0.035 6.71 1.96 12.38
4/20/2022 4:15:00 AM 4.85 40.73 0.035 6.71 2.05 12.4
4/20/2022 4:30:00 AM 4.84 40.712 0.035 6.71 1.99 12.41
4/20/2022 4:45:00 AM 4.82 40.676 0.035 6.71 1.96 12.42
4/20/2022 5:00:00 AM 4.8 40.64 0.035 6.71 2.07 12.43
4/20/2022 5:15:00 AM 4.77 40.586 0.035 6.7 1.98 12.43
4/20/2022 5:30:00 AM 4.75 40.55 0.035 6.7 1.94 12.45
4/20/2022 5:45:00 AM 4.73 40.514 0.035 6.71 1.97 12.45
4/20/2022 6:00:00 AM 4.68 40.424 0.035 6.7 1.92 12.47
4/20/2022 6:15:00 AM 4.64 40.352 0.035 6.7 2.27 12.49
4/20/2022 6:30:00 AM 4.61 40.298 0.035 6.7 1.97 12.5
4/20/2022 6:45:00 AM 4.56 40.208 0.035 6.7 1.91 12.53
4/20/2022 7:00:00 AM 4.53 40.154 0.035 6.71 1.87 12.57
4/20/2022 7:15:00 AM 4.49 40.082 0.035 6.72 1.86 12.61
4/20/2022 7:30:00 AM 4.46 40.028 0.035 6.73 2 12.63
4/20/2022 7:45:00 AM 4.43 39.974 0.035 6.73 1.95 12.66
4/20/2022 8:00:00 AM 4.39 39.902 0.035 6.74 1.98 12.69
4/20/2022 8:15:00 AM 4.37 39.866 0.035 6.74 1.93 12.72
4/20/2022 8:30:00 AM 4.35 39.83 0.035 6.75 1.97 12.74
4/20/2022 8:45:00 AM 4.33 39.794 0.035 6.75 1.93 12.76
4/20/2022 9:00:00 AM 4.33 39.794 0.035 6.75 1.82 12.77
4/20/2022 9:15:00 AM 4.32 39.776 0.035 6.75 1.89 12.79
4/20/2022 9:30:00 AM 4.35 39.83 0.035 6.76 1.86 12.79
4/20/2022 9:45:00 AM 4.4 39.92 0.035 6.76 1.86 12.79
4/20/2022 10:00:00 AM 4.47 40.046 0.035 6.76 1.89 12.78
4/20/2022 10:15:00 AM 4.57 40.226 0.035 6.77 1.87 12.77
4/20/2022 10:30:00 AM 4.71 40.478 0.035 6.78 1.87 12.75
4/20/2022 10:45:00 AM 4.88 40.784 0.035 6.79 1.83 12.72
4/20/2022 11:00:00 AM 5.07 41.126 0.035 6.79 1.82 12.67
4/20/2022 11:15:00 AM 5.3 41.54 0.035 6.8 1.86 12.61
4/20/2022 11:30:00 AM 5.56 42.008 0.035 6.8 1.77 12.56
4/20/2022 11:45:00 AM 5.82 42.476 0.035 6.8 1.75 12.49
4/20/2022 12:00:00 PM 6.1 42.98 0.035 6.8 1.71 12.42
4/20/2022 12:15:00 PM 6.38 43.484 0.035 6.81 1.75 12.35
4/20/2022 12:30:00 PM 6.71 44.078 0.035 6.8 1.75 12.27
4/20/2022 12:45:00 PM 6.98 44.564 0.034 6.8 1.72 12.18
4/20/2022 1:00:00 PM 7.29 45.122 0.034 6.81 1.76 12.09
4/20/2022 1:15:00 PM 7.56 45.608 0.034 6.81 2.14 12.02
4/20/2022 1:30:00 PM 7.85 46.13 0.034 6.81 1.7 11.94
4/20/2022 1:45:00 PM 8.13 46.634 0.034 6.82 1.7 11.86
4/20/2022 2:00:00 PM 8.39 47.102 0.034 6.82 1.72 11.79
4/20/2022 2:15:00 PM 8.68 47.624 0.034 6.82 1.69 11.7
4/20/2022 2:30:00 PM 8.91 48.038 0.034 6.82 1.72 11.62
4/20/2022 2:45:00 PM 9.11 48.398 0.034 6.82 1.76 11.54
4/20/2022 3:00:00 PM 9.3 48.74 0.034 6.83 1.75 11.47
4/20/2022 3:15:00 PM 9.44 48.992 0.034 6.82 1.75 11.4
4/20/2022 3:30:00 PM 9.6 49.28 0.034 6.83 2.07 11.36
4/20/2022 3:45:00 PM 9.7 49.46 0.034 6.83 1.69 11.31
4/20/2022 4:00:00 PM 9.83 49.694 0.034 6.83 1.71 11.26
4/20/2022 4:15:00 PM 9.91 49.838 0.034 6.84 1.75 11.22
4/20/2022 4:30:00 PM 9.99 49.982 0.034 6.83 1.69 11.19
4/20/2022 4:45:00 PM 10.01 50.018 0.034 6.83 1.79 11.16
4/20/2022 5:00:00 PM 10.04 50.072 0.034 6.83 1.81 11.14
4/20/2022 5:15:00 PM 10.05 50.09 0.034 6.83 1.88 11.12
4/20/2022 5:30:00 PM 10.02 50.036 0.034 6.82 1.87 11.1
4/20/2022 5:45:00 PM 9.99 49.982 0.034 6.82 1.84 11.09
4/20/2022 6:00:00 PM 9.9 49.82 0.034 6.81 1.88 11.08
4/20/2022 6:15:00 PM 9.83 49.694 0.034 6.8 1.84 11.08
4/20/2022 6:30:00 PM 9.79 49.622 0.034 6.79 2.12 11.07
4/20/2022 6:45:00 PM 9.73 49.514 0.034 6.78 1.89 11.07
4/20/2022 7:00:00 PM 9.67 49.406 0.034 6.77 1.94 11.09
4/20/2022 7:15:00 PM 9.59 49.262 0.034 6.77 1.9 11.09
4/20/2022 7:30:00 PM 9.51 49.118 0.034 6.76 2.14 11.09
4/20/2022 7:45:00 PM 9.42 48.956 0.034 6.75 2.28 11.1
4/20/2022 8:00:00 PM 9.31 48.758 0.034 6.74 2.26 11.11
4/20/2022 8:15:00 PM 9.19 48.542 0.034 6.73 2.17 11.13
4/20/2022 8:30:00 PM 9.06 48.308 0.035 6.72 2.78 11.16
4/20/2022 8:45:00 PM 8.94 48.092 0.035 6.73 2.53 11.19
4/20/2022 9:00:00 PM 8.8 47.84 0.035 6.72 2.42 11.23
4/20/2022 9:15:00 PM 8.66 47.588 0.035 6.72 2.43 11.27
4/20/2022 9:30:00 PM 8.51 47.318 0.035 6.71 2.57 11.31
4/20/2022 9:45:00 PM 8.37 47.066 0.035 6.71 2.38 11.36
4/20/2022 10:00:00 PM 8.23 46.814 0.035 6.71 2.72 11.4
4/20/2022 10:15:00 PM 8.1 46.58 0.035 6.7 2.28 11.44
4/20/2022 10:30:00 PM 7.97 46.346 0.035 6.71 2.62 11.47
4/20/2022 10:45:00 PM 7.84 46.112 0.035 6.71 2.42 11.51
4/20/2022 11:00:00 PM 7.73 45.914 0.035 6.7 2.41 11.54
4/20/2022 11:15:00 PM 7.63 45.734 0.035 6.71 2.4 11.57
4/20/2022 11:30:00 PM 7.53 45.554 0.035 6.7 2.36 11.61
4/20/2022 11:45:00 PM 7.44 45.392 0.035 6.7 2.37 11.64
4/21/2022 12:00:00 AM 7.34 45.212 0.035 6.7 2.52 11.67
4/21/2022 12:15:00 AM 7.25 45.05 0.035 6.69 2.29 11.7
4/21/2022 12:30:00 AM 7.15 44.87 0.035 6.7 2.16 11.72
4/21/2022 12:45:00 AM 7.07 44.726 0.035 6.7 2.23 11.75
4/21/2022 1:00:00 AM 6.99 44.582 0.035 6.7 2.18 11.78
4/21/2022 1:15:00 AM 6.91 44.438 0.035 6.7 2.28 11.8
4/21/2022 1:30:00 AM 6.82 44.276 0.035 6.7 2.3 11.83
4/21/2022 1:45:00 AM 6.73 44.114 0.035 6.68 2.22 11.86
4/21/2022 2:00:00 AM 6.65 43.97 0.035 6.69 2.18 11.88
4/21/2022 2:15:00 AM 6.57 43.826 0.035 6.7 2.2 11.9
4/21/2022 2:30:00 AM 6.49 43.682 0.035 6.69 2.15 11.92
4/21/2022 2:45:00 AM 6.42 43.556 0.035 6.69 2.15 11.94
4/21/2022 3:00:00 AM 6.34 43.412 0.035 6.69 2.15 11.97
4/21/2022 3:15:00 AM 6.29 43.322 0.035 6.69 2.12 11.99
4/21/2022 3:30:00 AM 6.22 43.196 0.035 6.7 2.12 12.01
4/21/2022 3:45:00 AM 6.16 43.088 0.035 6.69 2.19 12.03
4/21/2022 4:00:00 AM 6.11 42.998 0.035 6.69 2.5 12.05
4/21/2022 4:15:00 AM 6.06 42.908 0.035 6.7 2.7 12.06
4/21/2022 4:30:00 AM 6.01 42.818 0.035 6.69 2.59 12.09
4/21/2022 4:45:00 AM 5.96 42.728 0.035 6.69 2.55 12.1
4/21/2022 5:00:00 AM 5.91 42.638 0.035 6.69 2.45 12.11
4/21/2022 5:15:00 AM 5.86 42.548 0.035 6.69 2.59 12.13
4/21/2022 5:30:00 AM 5.82 42.476 0.035 6.69 2.3 12.14
4/21/2022 5:45:00 AM 5.77 42.386 0.035 6.69 2.41 12.15
4/21/2022 6:00:00 AM 5.74 42.332 0.035 6.69 2.25 12.17
4/21/2022 6:15:00 AM 5.69 42.242 0.035 6.69 2.15 12.17
4/21/2022 6:30:00 AM 5.64 42.152 0.035 6.69 2.11 12.19
4/21/2022 6:45:00 AM 5.6 42.08 0.035 6.68 2.18 12.22
4/21/2022 7:00:00 AM 5.56 42.008 0.035 6.7 2.15 12.25
4/21/2022 7:15:00 AM 5.52 41.936 0.035 6.71 2.13 12.28
4/21/2022 7:30:00 AM 5.52 41.936 0.035 6.72 2.2 12.33
4/21/2022 7:45:00 AM 5.52 41.936 0.035 6.73 2.13 12.36
4/21/2022 8:00:00 AM 5.53 41.954 0.035 6.73 2.1 12.37
4/21/2022 8:15:00 AM 5.53 41.954 0.035 6.74 2.15 12.38
4/21/2022 8:30:00 AM 5.54 41.972 0.035 6.74 2.2 12.38
4/21/2022 8:45:00 AM 5.58 42.044 0.035 6.75 2.1 12.41
4/21/2022 9:00:00 AM 5.63 42.134 0.035 6.76 2.09 12.42
4/21/2022 9:15:00 AM 5.66 42.188 0.035 6.76 2.02 12.41
4/21/2022 9:30:00 AM 5.74 42.332 0.035 6.77 2.06 12.43
4/21/2022 9:45:00 AM 5.8 42.44 0.035 6.78 1.98 12.42
4/21/2022 10:00:00 AM 5.86 42.548 0.035 6.79 2.07 12.41
4/21/2022 10:15:00 AM 5.94 42.692 0.035 6.79 2.05 12.39
4/21/2022 10:30:00 AM 6 42.8 0.035 6.8 2.05 12.37
4/21/2022 10:45:00 AM 6.04 42.872 0.035 6.8 2.07 12.34
4/21/2022 11:00:00 AM 6.09 42.962 0.034 6.8 2.03 12.31
4/21/2022 11:15:00 AM 6.13 43.034 0.034 6.79 2.05 12.27
4/21/2022 11:30:00 AM 6.18 43.124 0.034 6.79 2.16 12.25
4/21/2022 11:45:00 AM 6.22 43.196 0.034 6.78 2.07 12.22
4/21/2022 12:00:00 PM 6.26 43.268 0.034 6.78 1.97 12.2
4/21/2022 12:15:00 PM 6.31 43.358 0.034 6.78 2.18 12.19
4/21/2022 12:30:00 PM 6.35 43.43 0.034 6.79 2.04 12.16
4/21/2022 12:45:00 PM 6.39 43.502 0.034 6.77 2.03 12.13
4/21/2022 1:00:00 PM 6.42 43.556 0.034 6.77 2.2 12.11
4/21/2022 1:15:00 PM 6.46 43.628 0.034 6.77 2.09 12.08
4/21/2022 1:30:00 PM 6.49 43.682 0.034 6.76 2.07 12.07
4/21/2022 1:45:00 PM 6.54 43.772 0.034 6.77 2.09 12.07
4/21/2022 2:00:00 PM 6.58 43.844 0.034 6.77 5.4 12.06
4/21/2022 2:15:00 PM 6.62 43.916 0.034 6.77 2.09 12.05
4/21/2022 2:30:00 PM 6.66 43.988 0.034 6.77 2.13 12.03
4/21/2022 2:45:00 PM 6.7 44.06 0.034 6.78 2.15 12.04
4/21/2022 3:00:00 PM 6.75 44.15 0.034 6.78 2.21 12.02
4/21/2022 3:15:00 PM 6.78 44.204 0.034 6.77 2.2 12.01
4/21/2022 3:30:00 PM 6.81 44.258 0.034 6.78 2.12 11.99
4/21/2022 3:45:00 PM 6.84 44.312 0.034 6.78 2.13 11.98
4/21/2022 4:00:00 PM 6.86 44.348 0.034 6.77 2.15 11.95
4/21/2022 4:15:00 PM 6.89 44.402 0.034 6.77 2.11 11.95
4/21/2022 4:30:00 PM 6.92 44.456 0.034 6.77 2.17 11.93
4/21/2022 4:45:00 PM 6.93 44.474 0.034 6.77 2.07 11.92
4/21/2022 5:00:00 PM 6.96 44.528 0.034 6.76 2.23 11.89
4/21/2022 5:15:00 PM 6.98 44.564 0.034 6.75 2.29 11.89
4/21/2022 5:30:00 PM 7 44.6 0.034 6.74 2.13 11.88
4/21/2022 5:45:00 PM 7.02 44.636 0.034 6.76 2.18 11.87
4/21/2022 6:00:00 PM 7.05 44.69 0.034 6.75 2.41 11.88
4/21/2022 6:15:00 PM 7.07 44.726 0.034 6.74 2.74 11.87
4/21/2022 6:30:00 PM 7.1 44.78 0.034 6.75 2.63 11.87
4/21/2022 6:45:00 PM 7.13 44.834 0.034 6.74 2.88 11.87
4/21/2022 7:00:00 PM 7.15 44.87 0.034 6.75 2.81 11.85
4/21/2022 7:15:00 PM 7.17 44.906 0.034 6.74 2.8 11.82
4/21/2022 7:30:00 PM 7.18 44.924 0.034 6.73 2.66 11.81
4/21/2022 7:45:00 PM 7.2 44.96 0.034 6.72 2.57 11.78
4/21/2022 8:00:00 PM 7.2 44.96 0.034 6.72 2.5 11.75
4/21/2022 8:15:00 PM 7.2 44.96 0.034 6.71 2.5 11.73
4/21/2022 8:30:00 PM 7.2 44.96 0.034 6.7 3.13 11.72
4/21/2022 8:45:00 PM 7.2 44.96 0.034 6.69 2.56 11.71
4/21/2022 9:00:00 PM 7.2 44.96 0.034 6.68 2.63 11.71
4/21/2022 9:15:00 PM 7.2 44.96 0.034 6.69 2.67 11.71
4/21/2022 9:30:00 PM 7.2 44.96 0.034 6.67 2.66 11.7
4/21/2022 9:45:00 PM 7.21 44.978 0.035 6.69 2.48 11.7
4/21/2022 10:00:00 PM 7.2 44.96 0.035 6.67 2.65 11.7
4/21/2022 10:15:00 PM 7.2 44.96 0.035 6.68 2.59 11.71
4/21/2022 10:30:00 PM 7.2 44.96 0.035 6.68 2.59 11.71
4/21/2022 10:45:00 PM 7.2 44.96 0.035 6.68 2.68 11.71
4/21/2022 11:00:00 PM 7.2 44.96 0.035 6.67 2.71 11.71
4/21/2022 11:15:00 PM 7.2 44.96 0.035 6.67 2.58 11.72
4/21/2022 11:30:00 PM 7.2 44.96 0.035 6.67 2.55 11.7
4/21/2022 11:45:00 PM 7.2 44.96 0.035 6.68 2.55 11.71
4/22/2022 12:00:00 AM 7.21 44.978 0.035 6.67 2.56 11.71
4/22/2022 12:15:00 AM 7.21 44.978 0.035 6.67 2.6 11.71
4/22/2022 12:30:00 AM 7.21 44.978 0.035 6.67 2.88 11.71
4/22/2022 12:45:00 AM 7.21 44.978 0.035 6.68 2.43 11.71
4/22/2022 1:00:00 AM 7.21 44.978 0.035 6.66 2.58 11.71
4/22/2022 1:15:00 AM 7.22 44.996 0.035 6.67 2.61 11.71
4/22/2022 1:30:00 AM 7.22 44.996 0.035 6.67 2.52 11.71
4/22/2022 1:45:00 AM 7.21 44.978 0.035 6.67 2.54 11.72
4/22/2022 2:00:00 AM 7.2 44.96 0.035 6.67 2.61 11.72
4/22/2022 2:15:00 AM 7.2 44.96 0.035 6.66 2.53 11.72
4/22/2022 2:30:00 AM 7.2 44.96 0.035 6.66 2.47 11.71
4/22/2022 2:45:00 AM 7.2 44.96 0.035 6.66 2.66 11.71
4/22/2022 3:00:00 AM 7.2 44.96 0.035 6.67 2.01 11.71
4/22/2022 3:15:00 AM 7.2 44.96 0.035 6.66 2.28 11.71
4/22/2022 3:30:00 AM 7.2 44.96 0.035 6.67 2.05 11.72
4/22/2022 3:45:00 AM 7.2 44.96 0.035 6.67 2.12 11.71
4/22/2022 4:00:00 AM 7.19 44.942 0.035 6.68 2.16 11.72
4/22/2022 4:15:00 AM 7.19 44.942 0.035 6.69 2.13 11.73
4/22/2022 4:30:00 AM 7.17 44.906 0.035 6.69 2.1 11.74
4/22/2022 4:45:00 AM 7.16 44.888 0.035 6.69 2.18 11.74
4/22/2022 5:00:00 AM 7.15 44.87 0.035 6.7 2.15 11.75
4/22/2022 5:15:00 AM 7.14 44.852 0.035 6.7 2.18 11.74
4/22/2022 5:30:00 AM 7.13 44.834 0.035 6.7 2.29 11.75
4/22/2022 5:45:00 AM 7.12 44.816 0.035 6.69 2.11 11.76
4/22/2022 6:00:00 AM 7.11 44.798 0.035 6.68 2.13 11.77
4/22/2022 6:15:00 AM 7.1 44.78 0.035 6.69 2.34 11.77
4/22/2022 6:30:00 AM 7.09 44.762 0.035 6.69 2.14 11.79
4/22/2022 6:45:00 AM 7.08 44.744 0.035 6.69 2.16 11.81
4/22/2022 7:00:00 AM 7.07 44.726 0.035 6.71 2.13 11.83
4/22/2022 7:15:00 AM 7.07 44.726 0.035 6.7 2.14 11.85
4/22/2022 7:30:00 AM 7.07 44.726 0.035 6.71 2.12 11.87
4/22/2022 7:45:00 AM 7.07 44.726 0.035 6.73 2.09 11.9
4/22/2022 8:00:00 AM 7.08 44.744 0.035 6.74 2.07 11.94
4/22/2022 8:15:00 AM 7.09 44.762 0.035 6.75 2.14 11.95
4/22/2022 8:30:00 AM 7.11 44.798 0.035 6.76 2.18 11.98
4/22/2022 8:45:00 AM 7.11 44.798 0.035 6.77 2.03 11.98
4/22/2022 9:00:00 AM 7.1 44.78 0.035 6.76 2.01 11.98
4/22/2022 9:15:00 AM 7.09 44.762 0.035 6.75 2.05 11.98
4/22/2022 9:30:00 AM 7.1 44.78 0.035 6.77 2.06 11.98
4/22/2022 9:45:00 AM 7.12 44.816 0.035 6.77 2.93 11.99
4/22/2022 10:00:00 AM 7.17 44.906 0.035 6.78 2.2 11.99
4/22/2022 10:15:00 AM 7.26 45.068 0.034 6.8 2.07 11.99
4/22/2022 10:30:00 AM 7.39 45.302 0.034 6.8 2.65 11.98
4/22/2022 10:45:00 AM 7.53 45.554 0.034 6.81 2.14 11.96
4/22/2022 11:00:00 AM 7.69 45.842 0.034 6.81 2.05 11.92
4/22/2022 11:15:00 AM 7.9 46.22 0.034 6.81 2.04 11.89
4/22/2022 11:30:00 AM 8.11 46.598 0.034 6.81 2 11.84
4/22/2022 11:45:00 AM 8.34 47.012 0.034 6.82 2.15 11.79
4/22/2022 12:00:00 PM 8.6 47.48 0.034 6.82 1.96 11.73
4/22/2022 12:15:00 PM 8.87 47.966 0.034 6.82 1.95 11.67
4/22/2022 12:30:00 PM 9.14 48.452 0.034 6.82 2.02 11.6
4/22/2022 12:45:00 PM 9.42 48.956 0.034 6.82 2.02 11.53
4/22/2022 1:00:00 PM 9.7 49.46 0.034 6.82 2.26 11.45
4/22/2022 1:15:00 PM 9.92 49.856 0.034 6.83 2.01 11.4
4/22/2022 1:30:00 PM 10.18 50.324 0.034 6.82 2.08 11.33
4/22/2022 1:45:00 PM 10.46 50.828 0.034 6.84 2.06 11.25
4/22/2022 2:00:00 PM 10.75 51.35 0.034 6.84 1.98 11.18
4/22/2022 2:15:00 PM 10.98 51.764 0.034 6.84 2.09 11.1
4/22/2022 2:30:00 PM 11.19 52.142 0.034 6.84 2.07 11.04
4/22/2022 2:45:00 PM 11.38 52.484 0.034 6.84 2.27 10.98
4/22/2022 3:00:00 PM 11.53 52.754 0.034 6.84 1.95 10.93
4/22/2022 3:15:00 PM 11.65 52.97 0.034 6.85 2.04 10.88
4/22/2022 3:30:00 PM 11.79 53.222 0.034 6.83 2.5 10.83
4/22/2022 3:45:00 PM 11.89 53.402 0.034 6.85 2.33 10.79
4/22/2022 4:00:00 PM 11.96 53.528 0.034 6.86 2.29 10.77
4/22/2022 4:15:00 PM 12 53.6 0.034 6.85 2.3 10.73
4/22/2022 4:30:00 PM 12.04 53.672 0.034 6.86 2.02 10.72
4/22/2022 4:45:00 PM 12.08 53.744 0.034 6.85 2.18 10.7
4/22/2022 5:00:00 PM 12.07 53.726 0.034 6.85 2.47 10.69
4/22/2022 5:15:00 PM 12.08 53.744 0.034 6.85 2.12 10.67
4/22/2022 5:30:00 PM 12.05 53.69 0.034 6.84 2.21 10.65
4/22/2022 5:45:00 PM 12.05 53.69 0.034 6.84 2.09 10.65
4/22/2022 6:00:00 PM 12.01 53.618 0.034 6.85 2.2 10.65
4/22/2022 6:15:00 PM 11.95 53.51 0.034 6.83 2.28 10.64
4/22/2022 6:30:00 PM 11.92 53.456 0.034 6.82 2.2 10.63
4/22/2022 6:45:00 PM 11.88 53.384 0.034 6.81 2.62 10.63
4/22/2022 7:00:00 PM 11.83 53.294 0.034 6.8 2.24 10.6
4/22/2022 7:15:00 PM 11.76 53.168 0.034 6.79 2.23 10.6
4/22/2022 7:30:00 PM 11.66 52.988 0.034 6.76 1.91 10.6
4/22/2022 7:45:00 PM 11.55 52.79 0.034 6.74 2.63 10.6
4/22/2022 8:00:00 PM 11.42 52.556 0.034 6.74 2.58 10.59
4/22/2022 8:15:00 PM 11.3 52.34 0.034 6.73 2.7 10.61
4/22/2022 8:30:00 PM 11.18 52.124 0.034 6.73 2.42 10.62
4/22/2022 8:45:00 PM 11.05 51.89 0.034 6.72 2.72 10.64
4/22/2022 9:00:00 PM 10.92 51.656 0.034 6.71 2.38 10.68
4/22/2022 9:15:00 PM 10.8 51.44 0.034 6.72 2.21 10.71
4/22/2022 9:30:00 PM 10.67 51.206 0.034 6.7 2.87 10.74
4/22/2022 9:45:00 PM 10.55 50.99 0.035 6.71 2.68 10.77
4/22/2022 10:00:00 PM 10.43 50.774 0.035 6.71 2.7 10.8
4/22/2022 10:15:00 PM 10.32 50.576 0.035 6.7 3.02 10.83
4/22/2022 10:30:00 PM 10.21 50.378 0.035 6.7 2.83 10.87
4/22/2022 10:45:00 PM 10.11 50.198 0.035 6.71 2.39 10.9
4/22/2022 11:00:00 PM 10.01 50.018 0.035 6.71 2.71 10.93
4/22/2022 11:15:00 PM 9.91 49.838 0.035 6.7 2.48 10.96
4/22/2022 11:30:00 PM 9.81 49.658 0.035 6.7 2.62 10.98
4/22/2022 11:45:00 PM 9.72 49.496 0.035 6.7 2.72 11.01
4/23/2022 12:00:00 AM 9.62 49.316 0.035 6.7 2.56 11.03
4/23/2022 12:15:00 AM 9.53 49.154 0.035 6.7 2.28 11.06
4/23/2022 12:30:00 AM 9.45 49.01 0.035 6.71 2.43 11.1
4/23/2022 12:45:00 AM 9.37 48.866 0.035 6.71 2.34 11.11
4/23/2022 1:00:00 AM 9.29 48.722 0.035 6.7 2.41 11.13
4/23/2022 1:15:00 AM 9.22 48.596 0.035 6.7 2.44 11.16
4/23/2022 1:30:00 AM 9.15 48.47 0.035 6.7 2.67 11.17
4/23/2022 1:45:00 AM 9.08 48.344 0.035 6.7 2.17 11.19
4/23/2022 2:00:00 AM 9.01 48.218 0.035 6.69 2.49 11.21
4/23/2022 2:15:00 AM 8.94 48.092 0.035 6.69 2.3 11.23
4/23/2022 2:30:00 AM 8.88 47.984 0.035 6.7 2.4 11.25
4/23/2022 2:45:00 AM 8.82 47.876 0.035 6.7 2.16 11.26
4/23/2022 3:00:00 AM 8.76 47.768 0.035 6.7 2.45 11.28
4/23/2022 3:15:00 AM 8.71 47.678 0.035 6.7 2.3 11.3
4/23/2022 3:30:00 AM 8.66 47.588 0.035 6.69 2.28 11.31
4/23/2022 3:45:00 AM 8.6 47.48 0.035 6.69 2.67 11.32
4/23/2022 4:00:00 AM 8.56 47.408 0.035 6.69 2.08 11.34
4/23/2022 4:15:00 AM 8.51 47.318 0.035 6.71 2.29 11.35
4/23/2022 4:30:00 AM 8.46 47.228 0.035 6.71 2.36 11.36
4/23/2022 4:45:00 AM 8.42 47.156 0.035 6.7 2.4 11.38
4/23/2022 5:00:00 AM 8.38 47.084 0.035 6.7 2.25 11.39
4/23/2022 5:15:00 AM 8.34 47.012 0.035 6.7 2.59 11.4
4/23/2022 5:30:00 AM 8.29 46.922 0.035 6.7 2.31 11.41
4/23/2022 5:45:00 AM 8.26 46.868 0.035 6.7 2.24 11.42
4/23/2022 6:00:00 AM 8.23 46.814 0.035 6.7 2.4 11.43
4/23/2022 6:15:00 AM 8.19 46.742 0.035 6.7 2.3 11.44
4/23/2022 6:30:00 AM 8.16 46.688 0.035 6.7 2.14 11.45
4/23/2022 6:45:00 AM 8.12 46.616 0.035 6.7 2.26 11.47
4/23/2022 7:00:00 AM 8.09 46.562 0.035 6.71 2.32 11.5
4/23/2022 7:15:00 AM 8.08 46.544 0.035 6.72 2.36 11.54
4/23/2022 7:30:00 AM 8.06 46.508 0.035 6.72 2.5 11.56
4/23/2022 7:45:00 AM 8.04 46.472 0.035 6.73 2.23 11.6
4/23/2022 8:00:00 AM 8.03 46.454 0.035 6.74 2.27 11.63
4/23/2022 8:15:00 AM 8.05 46.49 0.035 6.76 2.42 11.67
4/23/2022 8:30:00 AM 8.06 46.508 0.035 6.78 2.3 11.69
4/23/2022 8:45:00 AM 8.08 46.544 0.035 6.78 2.32 11.71
4/23/2022 9:00:00 AM 8.11 46.598 0.034 6.79 2.46 11.73
4/23/2022 9:15:00 AM 8.13 46.634 0.034 6.81 2.17 11.72
4/23/2022 9:30:00 AM 8.2 46.76 0.034 6.81 2.37 11.73
4/23/2022 9:45:00 AM 8.23 46.814 0.034 6.83 2.31 11.72
4/23/2022 10:00:00 AM 8.28 46.904 0.034 6.82 2.24 11.72
4/23/2022 10:15:00 AM 8.34 47.012 0.034 6.84 2.26 11.71
4/23/2022 10:30:00 AM 8.43 47.174 0.034 6.83 2.23 11.7
4/23/2022 10:45:00 AM 8.5 47.3 0.034 6.84 2.46 11.68
4/23/2022 11:00:00 AM 8.51 47.318 0.034 6.84 2.27 11.65
4/23/2022 11:15:00 AM 8.55 47.39 0.034 6.84 2.13 11.64
4/23/2022 11:30:00 AM 8.59 47.462 0.034 6.83 2.1 11.62
4/23/2022 11:45:00 AM 8.63 47.534 0.034 6.83 2.2 11.6
4/23/2022 12:00:00 PM 8.69 47.642 0.034 6.83 2.41 11.59
4/23/2022 12:15:00 PM 8.73 47.714 0.034 6.83 2.25 11.57
4/23/2022 12:30:00 PM 8.77 47.786 0.034 6.84 2.28 11.56
4/23/2022 12:45:00 PM 8.82 47.876 0.034 6.83 2.19 11.54
4/23/2022 1:00:00 PM 8.88 47.984 0.034 6.83 2.33 11.52
4/23/2022 1:15:00 PM 8.94 48.092 0.034 6.84 2.28 11.51
4/23/2022 1:30:00 PM 9.02 48.236 0.034 6.85 2.17 11.48
4/23/2022 1:45:00 PM 9.07 48.326 0.034 6.84 2.22 11.47
4/23/2022 2:00:00 PM 9.14 48.452 0.034 6.85 2.28 11.45
4/23/2022 2:15:00 PM 9.23 48.614 0.034 6.85 2.37 11.44
4/23/2022 2:30:00 PM 9.33 48.794 0.034 6.86 2.19 11.41
4/23/2022 2:45:00 PM 9.45 49.01 0.033 6.85 2.28 11.38
4/23/2022 3:00:00 PM 9.62 49.316 0.033 6.85 2.42 11.35
4/23/2022 3:15:00 PM 9.78 49.604 0.033 6.86 2.16 11.33
4/23/2022 3:30:00 PM 9.95 49.91 0.033 6.85 2.17 11.28
4/23/2022 3:45:00 PM 10.1 50.18 0.033 6.85 2.23 11.22
4/23/2022 4:00:00 PM 10.24 50.432 0.033 6.85 2.19 11.18
4/23/2022 4:15:00 PM 10.38 50.684 0.033 6.86 2.24 11.14
4/23/2022 4:30:00 PM 10.5 50.9 0.033 6.86 2.51 11.1
4/23/2022 4:45:00 PM 10.58 51.044 0.033 6.85 2.2 11.08
4/23/2022 5:00:00 PM 10.65 51.17 0.033 6.86 2.19 11.04
4/23/2022 5:15:00 PM 10.66 51.188 0.033 6.85 2.14 10.99
4/23/2022 5:30:00 PM 10.67 51.206 0.033 6.84 2.31 10.96
4/23/2022 5:45:00 PM 10.69 51.242 0.033 6.83 2.32 10.92
4/23/2022 6:00:00 PM 10.68 51.224 0.033 6.81 2.27 10.89
4/23/2022 6:15:00 PM 10.67 51.206 0.034 6.8 2.26 10.86
4/23/2022 6:30:00 PM 10.65 51.17 0.034 6.79 2.46 10.85
4/23/2022 6:45:00 PM 10.61 51.098 0.034 6.78 2.39 10.84
4/23/2022 7:00:00 PM 10.57 51.026 0.034 6.78 2.31 10.83
4/23/2022 7:15:00 PM 10.53 50.954 0.034 6.77 2.46 10.83
4/23/2022 7:30:00 PM 10.48 50.864 0.034 6.76 2.34 10.82
4/23/2022 7:45:00 PM 10.43 50.774 0.034 6.75 2.27 10.81
4/23/2022 8:00:00 PM 10.37 50.666 0.034 6.74 2.55 10.8
4/23/2022 8:15:00 PM 10.31 50.558 0.034 6.73 2.33 10.8
4/23/2022 8:30:00 PM 10.24 50.432 0.034 6.72 2.38 10.8
4/23/2022 8:45:00 PM 10.17 50.306 0.034 6.71 2.5 10.81
4/23/2022 9:00:00 PM 10.09 50.162 0.034 6.71 2.25 10.83
4/23/2022 9:15:00 PM 10.01 50.018 0.034 6.71 2.48 10.85
4/23/2022 9:30:00 PM 9.93 49.874 0.034 6.7 2.38 10.87
4/23/2022 9:45:00 PM 9.85 49.73 0.034 6.7 2.44 10.89
4/23/2022 10:00:00 PM 9.77 49.586 0.034 6.7 2.45 10.91
4/23/2022 10:15:00 PM 9.69 49.442 0.034 6.7 2.52 10.93
4/23/2022 10:30:00 PM 9.61 49.298 0.035 6.69 2.4 10.95
4/23/2022 10:45:00 PM 9.53 49.154 0.035 6.69 2.31 10.98
4/23/2022 11:00:00 PM 9.45 49.01 0.035 6.69 2.31 10.99
4/23/2022 11:15:00 PM 9.38 48.884 0.035 6.69 2.42 11.01
4/23/2022 11:30:00 PM 9.3 48.74 0.035 6.69 2.51 11.04
4/23/2022 11:45:00 PM 9.23 48.614 0.035 6.7 2.39 11.06
4/24/2022 12:00:00 AM 9.16 48.488 0.035 6.69 2.17 11.08
4/24/2022 12:15:00 AM 9.09 48.362 0.035 6.7 2.29 11.1
4/24/2022 12:30:00 AM 9.02 48.236 0.035 6.69 2.47 11.12
4/24/2022 12:45:00 AM 8.95 48.11 0.035 6.69 2.43 11.13
4/24/2022 1:00:00 AM 8.88 47.984 0.035 6.69 2.33 11.16
4/24/2022 1:15:00 AM 8.81 47.858 0.035 6.7 2.47 11.18
4/24/2022 1:30:00 AM 8.75 47.75 0.035 6.69 2.49 11.2
4/24/2022 1:45:00 AM 8.69 47.642 0.035 6.7 2.48 11.21
4/24/2022 2:00:00 AM 8.62 47.516 0.035 6.69 2.41 11.22
4/24/2022 2:15:00 AM 8.56 47.408 0.035 6.69 2.46 11.24
4/24/2022 2:30:00 AM 8.5 47.3 0.035 6.68 2.39 11.26
4/24/2022 2:45:00 AM 8.44 47.192 0.035 6.7 2.33 11.27
4/24/2022 3:00:00 AM 8.39 47.102 0.035 6.69 2.38 11.29
4/24/2022 3:15:00 AM 8.34 47.012 0.035 6.69 2.5 11.31
4/24/2022 3:30:00 AM 8.3 46.94 0.035 6.69 2.46 11.32
4/24/2022 3:45:00 AM 8.26 46.868 0.035 6.7 2.38 11.34
4/24/2022 4:00:00 AM 8.22 46.796 0.035 6.69 2.78 11.35
4/24/2022 4:15:00 AM 8.19 46.742 0.035 6.69 2.31 11.35
4/24/2022 4:30:00 AM 8.16 46.688 0.035 6.68 2.3 11.37
4/24/2022 4:45:00 AM 8.12 46.616 0.035 6.68 2.39 11.38
4/24/2022 5:00:00 AM 8.09 46.562 0.035 6.68 2.39 11.39
4/24/2022 5:15:00 AM 8.06 46.508 0.035 6.69 2.54 11.4
4/24/2022 5:30:00 AM 8.02 46.436 0.035 6.68 2.46 11.4
4/24/2022 5:45:00 AM 7.98 46.364 0.035 6.68 2.77 11.41
4/24/2022 6:00:00 AM 7.95 46.31 0.035 6.67 2.53 11.42
4/24/2022 6:15:00 AM 7.91 46.238 0.035 6.68 2.52 11.43
4/24/2022 6:30:00 AM 7.87 46.166 0.035 6.68 2.54 11.46
4/24/2022 6:45:00 AM 7.84 46.112 0.035 6.69 2.35 11.48
4/24/2022 7:00:00 AM 7.81 46.058 0.035 6.69 2.52 11.51
4/24/2022 7:15:00 AM 7.78 46.004 0.035 6.7 2.42 11.55
4/24/2022 7:30:00 AM 7.75 45.95 0.035 6.7 2.51 11.58
4/24/2022 7:45:00 AM 7.74 45.932 0.035 6.71 2.75 11.6
4/24/2022 8:00:00 AM 7.72 45.896 0.035 6.71 2.83 11.63
4/24/2022 8:15:00 AM 7.71 45.878 0.035 6.72 2.61 11.64
4/24/2022 8:30:00 AM 7.7 45.86 0.035 6.73 2.66 11.66
4/24/2022 8:45:00 AM 7.69 45.842 0.035 6.74 2.92 11.68
4/24/2022 9:00:00 AM 7.7 45.86 0.034 6.74 2.81 11.68
4/24/2022 9:15:00 AM 7.73 45.914 0.034 6.74 2.56 11.69
4/24/2022 9:30:00 AM 7.79 46.022 0.034 6.75 2.68 11.69
4/24/2022 9:45:00 AM 7.87 46.166 0.034 6.78 2.63 11.69
4/24/2022 10:00:00 AM 7.99 46.382 0.034 6.79 2.64 11.68
4/24/2022 10:15:00 AM 8.13 46.634 0.034 6.8 2.57 11.66
4/24/2022 10:30:00 AM 8.3 46.94 0.034 6.81 2.7 11.63
4/24/2022 10:45:00 AM 8.48 47.264 0.034 6.82 2.64 11.59
4/24/2022 11:00:00 AM 8.69 47.642 0.034 6.83 2.6 11.55
4/24/2022 11:15:00 AM 8.94 48.092 0.034 6.83 2.52 11.5
4/24/2022 11:30:00 AM 9.22 48.596 0.034 6.83 2.61 11.44
4/24/2022 11:45:00 AM 9.51 49.118 0.034 6.84 2.52 11.37
4/24/2022 12:00:00 PM 9.83 49.694 0.034 6.85 2.47 11.3
4/24/2022 12:15:00 PM 10.16 50.288 0.034 6.84 2.52 11.22
4/24/2022 12:30:00 PM 10.49 50.882 0.034 6.84 2.9 11.14
4/24/2022 12:45:00 PM 10.83 51.494 0.034 6.84 2.51 11.06
4/24/2022 1:00:00 PM 11.18 52.124 0.034 6.85 2.48 10.97
4/24/2022 1:15:00 PM 11.53 52.754 0.033 6.86 2.49 10.89
4/24/2022 1:30:00 PM 11.86 53.348 0.033 6.85 2.57 10.81
4/24/2022 1:45:00 PM 12.21 53.978 0.033 6.85 2.47 10.73
4/24/2022 2:00:00 PM 12.52 54.536 0.033 6.86 2.76 10.64
4/24/2022 2:15:00 PM 12.81 55.058 0.033 6.87 2.57 10.57
4/24/2022 2:30:00 PM 13.04 55.472 0.033 6.87 2.29 10.5
4/24/2022 2:45:00 PM 13.3 55.94 0.033 6.87 2.53 10.42
4/24/2022 3:00:00 PM 13.5 56.3 0.033 6.88 2.54 10.36
4/24/2022 3:15:00 PM 13.54 56.372 0.033 6.87 2.82 10.29
4/24/2022 3:30:00 PM 13.69 56.642 0.033 6.88 2.37 10.24
4/24/2022 3:45:00 PM 13.73 56.714 0.033 6.87 2.08 10.21
4/24/2022 4:00:00 PM 13.97 57.146 0.033 6.88 2.41 10.18
4/24/2022 4:15:00 PM 14.16 57.488 0.033 6.87 2.24 10.14
4/24/2022 4:30:00 PM 14.14 57.452 0.033 6.87 2.79 10.09
4/24/2022 4:45:00 PM 14.2 57.56 0.033 6.86 2.4 10.08
4/24/2022 5:00:00 PM 14.28 57.704 0.033 6.87 2.25 10.05
4/24/2022 5:15:00 PM 14.37 57.866 0.033 6.87 2.93 10.04
4/24/2022 5:30:00 PM 14.37 57.866 0.033 6.86 2.78 10.01
4/24/2022 5:45:00 PM 14.39 57.902 0.033 6.86 2.63 9.99
4/24/2022 6:00:00 PM 14.38 57.884 0.033 6.85 2.39 9.97
4/24/2022 6:15:00 PM 14.34 57.812 0.033 6.84 2.43 9.94
4/24/2022 6:30:00 PM 14.31 57.758 0.034 6.82 2.47 9.92
4/24/2022 6:45:00 PM 14.25 57.65 0.034 6.8 2.43 9.9
4/24/2022 7:00:00 PM 14.18 57.524 0.034 6.79 2.64 9.88
4/24/2022 7:15:00 PM 14.13 57.434 0.034 6.78 2.71 9.89
4/24/2022 7:30:00 PM 14.05 57.29 0.034 6.77 2.51 9.88
4/24/2022 7:45:00 PM 13.96 57.128 0.034 6.76 2.65 9.88
4/24/2022 8:00:00 PM 13.87 56.966 0.034 6.74 2.29 9.87
4/24/2022 8:15:00 PM 13.77 56.786 0.034 6.74 2.45 9.88
4/24/2022 8:30:00 PM 13.67 56.606 0.034 6.73 2.79 9.89
4/24/2022 8:45:00 PM 13.57 56.426 0.034 6.72 2.85 9.9
4/24/2022 9:00:00 PM 13.45 56.21 0.034 6.71 2.66 9.94
4/24/2022 9:15:00 PM 13.34 56.012 0.034 6.7 2.64 9.95
4/24/2022 9:30:00 PM 13.22 55.796 0.034 6.71 2.56 9.98
4/24/2022 9:45:00 PM 13.1 55.58 0.034 6.71 2.62 10.02
4/24/2022 10:00:00 PM 12.99 55.382 0.035 6.7 2.68 10.04
4/24/2022 10:15:00 PM 12.89 55.202 0.035 6.71 2.83 10.07
4/24/2022 10:30:00 PM 12.79 55.022 0.035 6.71 2.86 10.09
4/24/2022 10:45:00 PM 12.69 54.842 0.035 6.69 3.03 10.12
4/24/2022 11:00:00 PM 12.59 54.662 0.035 6.7 2.97 10.14
4/24/2022 11:15:00 PM 12.49 54.482 0.035 6.7 2.87 10.17
4/24/2022 11:30:00 PM 12.4 54.32 0.035 6.7 2.91 10.19
4/24/2022 11:45:00 PM 12.3 54.14 0.035 6.69 2.94 10.22
4/25/2022 12:00:00 AM 12.2 53.96 0.035 6.7 3.45 10.23
4/25/2022 12:15:00 AM 12.1 53.78 0.035 6.69 3 10.26
4/25/2022 12:30:00 AM 12.01 53.618 0.035 6.69 2.78 10.29
4/25/2022 12:45:00 AM 11.91 53.438 0.035 6.68 3.1 10.31
4/25/2022 1:00:00 AM 11.81 53.258 0.035 6.67 3.47 10.34
4/25/2022 1:15:00 AM 11.71 53.078 0.035 6.68 3 10.36
4/25/2022 1:30:00 AM 11.62 52.916 0.035 6.69 3.14 10.39
4/25/2022 1:45:00 AM 11.52 52.736 0.035 6.68 3.09 10.41
4/25/2022 2:00:00 AM 11.43 52.574 0.035 6.68 3.21 10.43
4/25/2022 2:15:00 AM 11.34 52.412 0.035 6.68 3.24 10.46
4/25/2022 2:30:00 AM 11.26 52.268 0.035 6.68 2.89 10.48
4/25/2022 2:45:00 AM 11.17 52.106 0.035 6.68 2.72 10.5
4/25/2022 3:00:00 AM 11.09 51.962 0.035 6.68 2.71 10.53
4/25/2022 3:15:00 AM 11.01 51.818 0.035 6.68 2.69 10.55
4/25/2022 3:30:00 AM 10.92 51.656 0.035 6.68 2.7 10.57
4/25/2022 3:45:00 AM 10.84 51.512 0.035 6.67 2.69 10.59
4/25/2022 4:00:00 AM 10.76 51.368 0.035 6.68 2.83 10.62
4/25/2022 4:15:00 AM 10.69 51.242 0.035 6.67 2.48 10.64
4/25/2022 4:30:00 AM 10.61 51.098 0.035 6.68 2.73 10.65
4/25/2022 4:45:00 AM 10.54 50.972 0.035 6.68 2.72 10.67
4/25/2022 5:00:00 AM 10.47 50.846 0.035 6.68 3.15 10.69
4/25/2022 5:15:00 AM 10.4 50.72 0.035 6.67 2.57 10.71
4/25/2022 5:30:00 AM 10.34 50.612 0.035 6.67 2.8 10.73
4/25/2022 5:45:00 AM 10.27 50.486 0.035 6.68 2.69 10.75
4/25/2022 6:00:00 AM 10.21 50.378 0.035 6.67 2.66 10.75
4/25/2022 6:15:00 AM 10.15 50.27 0.035 6.68 2.61 10.78
4/25/2022 6:30:00 AM 10.09 50.162 0.035 6.67 2.78 10.81
4/25/2022 6:45:00 AM 10.03 50.054 0.035 6.69 2.56 10.85
4/25/2022 7:00:00 AM 9.99 49.982 0.035 6.69 2.8 10.89
4/25/2022 7:15:00 AM 9.95 49.91 0.035 6.7 2.62 10.95
4/25/2022 7:30:00 AM 9.92 49.856 0.035 6.72 2.58 10.99
4/25/2022 7:45:00 AM 9.89 49.802 0.035 6.73 2.63 11.03
4/25/2022 8:00:00 AM 9.87 49.766 0.035 6.73 2.61 11.05
4/25/2022 8:15:00 AM 9.86 49.748 0.035 6.74 2.82 11.08
4/25/2022 8:30:00 AM 9.84 49.712 0.035 6.76 2.47 11.09
4/25/2022 8:45:00 AM 9.83 49.694 0.035 6.76 2.5 11.1
4/25/2022 9:00:00 AM 9.85 49.73 0.034 6.79 2.55 11.12
4/25/2022 9:15:00 AM 9.86 49.748 0.034 6.79 2.53 11.11
4/25/2022 9:30:00 AM 9.89 49.802 0.034 6.8 2.49 11.09
4/25/2022 9:45:00 AM 9.93 49.874 0.034 6.8 2.45 11.1
4/25/2022 10:00:00 AM 10 50 0.034 6.82 2.38 11.09
4/25/2022 10:15:00 AM 10.12 50.216 0.034 6.83 2.54 11.08
4/25/2022 10:30:00 AM 10.25 50.45 0.034 6.83 2.44 11.07
4/25/2022 10:45:00 AM 10.41 50.738 0.034 6.84 2.51 11.05
4/25/2022 11:00:00 AM 10.6 51.08 0.034 6.85 2.65 11.01
4/25/2022 11:15:00 AM 10.83 51.494 0.034 6.85 2.46 10.97
4/25/2022 11:30:00 AM 11.07 51.926 0.034 6.84 2.67 10.93
4/25/2022 11:45:00 AM 11.33 52.394 0.034 6.86 2.37 10.88
4/25/2022 12:00:00 PM 11.59 52.862 0.034 6.87 2.34 10.82
4/25/2022 12:15:00 PM 11.89 53.402 0.034 6.87 2.36 10.76
4/25/2022 12:30:00 PM 12.21 53.978 0.034 6.87 2.35 10.7
4/25/2022 12:45:00 PM 12.52 54.536 0.034 6.87 2.34 10.62
4/25/2022 1:00:00 PM 12.83 55.094 0.033 6.87 2.23 10.56
4/25/2022 1:15:00 PM 13.12 55.616 0.033 6.87 2.23 10.49
4/25/2022 1:30:00 PM 13.41 56.138 0.033 6.88 2.17 10.42
4/25/2022 1:45:00 PM 13.7 56.66 0.033 6.88 2.43 10.35
4/25/2022 2:00:00 PM 14 57.2 0.033 6.88 2.33 10.28
4/25/2022 2:15:00 PM 14.23 57.614 0.033 6.88 2.42 10.21
4/25/2022 2:30:00 PM 14.49 58.082 0.033 6.89 2.29 10.16
4/25/2022 2:45:00 PM 14.7 58.46 0.033 6.89 2.26 10.1
4/25/2022 3:00:00 PM 14.86 58.748 0.033 6.89 2.14 10.04
4/25/2022 3:15:00 PM 15.05 59.09 0.033 6.89 2.48 9.99
4/25/2022 3:30:00 PM 15.18 59.324 0.033 6.89 2.39 9.94
4/25/2022 3:45:00 PM 15.32 59.576 0.033 6.89 2.29 9.9
4/25/2022 4:00:00 PM 15.42 59.756 0.033 6.88 2.45 9.86
4/25/2022 4:15:00 PM 15.51 59.918 0.033 6.89 2.49 9.83
4/25/2022 4:30:00 PM 15.56 60.008 0.033 6.89 2.28 9.8
4/25/2022 4:45:00 PM 15.59 60.062 0.033 6.88 2.28 9.78
4/25/2022 5:00:00 PM 15.57 60.026 0.033 6.88 2.28 9.74
4/25/2022 5:15:00 PM 15.54 59.972 0.033 6.86 2.35 9.73
4/25/2022 5:30:00 PM 15.55 59.99 0.033 6.87 2.46 9.74
4/25/2022 5:45:00 PM 15.48 59.864 0.033 6.85 2.43 9.71
4/25/2022 6:00:00 PM 15.42 59.756 0.033 6.86 2.48 9.72
4/25/2022 6:15:00 PM 15.38 59.684 0.034 6.85 2.48 9.73
4/25/2022 6:30:00 PM 15.33 59.594 0.034 6.85 2.27 9.72
4/25/2022 6:45:00 PM 15.28 59.504 0.034 6.84 2.3 9.72
4/25/2022 7:00:00 PM 15.2 59.36 0.034 6.83 2.44 9.72
4/25/2022 7:15:00 PM 15.09 59.162 0.034 6.82 2.52 9.7
4/25/2022 7:30:00 PM 14.99 58.982 0.034 6.81 2.68 9.69
4/25/2022 7:45:00 PM 14.86 58.748 0.034 6.8 2.48 9.68
4/25/2022 8:00:00 PM 14.72 58.496 0.034 6.79 2.55 9.68
4/25/2022 8:15:00 PM 14.57 58.226 0.034 6.75 2.65 9.69
4/25/2022 8:30:00 PM 14.45 58.01 0.034 6.76 2.72 9.71
4/25/2022 8:45:00 PM 14.31 57.758 0.034 6.75 2.73 9.73
4/25/2022 9:00:00 PM 14.19 57.542 0.034 6.76 2.85 9.75
4/25/2022 9:15:00 PM 14.07 57.326 0.034 6.75 2.94 9.78
4/25/2022 9:30:00 PM 13.95 57.11 0.034 6.75 2.94 9.81
4/25/2022 9:45:00 PM 13.83 56.894 0.035 6.75 2.93 9.84
4/25/2022 10:00:00 PM 13.71 56.678 0.035 6.75 3.02 9.87
4/25/2022 10:15:00 PM 13.6 56.48 0.035 6.74 2.77 9.9
4/25/2022 10:30:00 PM 13.49 56.282 0.035 6.75 2.74 9.93
4/25/2022 10:45:00 PM 13.38 56.084 0.035 6.74 2.84 9.95
4/25/2022 11:00:00 PM 13.27 55.886 0.035 6.75 2.74 9.97
4/25/2022 11:15:00 PM 13.17 55.706 0.035 6.74 2.82 10
4/25/2022 11:30:00 PM 13.07 55.526 0.035 6.74 2.92 10.02
4/25/2022 11:45:00 PM 12.98 55.364 0.035 6.75 3.17 10.06
4/26/2022 12:00:00 AM 12.88 55.184 0.035 6.74 2.81 10.07
4/26/2022 12:15:00 AM 12.79 55.022 0.035 6.73 2.95 10.1
4/26/2022 12:30:00 AM 12.71 54.878 0.035 6.73 2.79 10.12
4/26/2022 12:45:00 AM 12.62 54.716 0.035 6.74 2.7 10.14
4/26/2022 1:00:00 AM 12.54 54.572 0.035 6.73 2.68 10.16
4/26/2022 1:15:00 AM 12.47 54.446 0.035 6.73 2.5 10.17
4/26/2022 1:30:00 AM 12.39 54.302 0.035 6.73 2.87 10.19
4/26/2022 1:45:00 AM 12.32 54.176 0.035 6.75 2.94 10.21
4/26/2022 2:00:00 AM 12.24 54.032 0.035 6.73 3.06 10.22
4/26/2022 2:15:00 AM 12.17 53.906 0.035 6.74 2.86 10.25
4/26/2022 2:30:00 AM 12.11 53.798 0.035 6.75 2.74 10.26
4/26/2022 2:45:00 AM 12.04 53.672 0.035 6.75 3.03 10.27
4/26/2022 3:00:00 AM 11.97 53.546 0.035 6.74 2.98 10.28
4/26/2022 3:15:00 AM 11.91 53.438 0.035 6.74 2.94 10.32
4/26/2022 3:30:00 AM 11.85 53.33 0.035 6.74 2.77 10.33
4/26/2022 3:45:00 AM 11.79 53.222 0.035 6.74 2.68 10.34
4/26/2022 4:00:00 AM 11.73 53.114 0.035 6.73 2.68 10.36
4/26/2022 4:15:00 AM 11.67 53.006 0.035 6.73 2.74 10.37
4/26/2022 4:30:00 AM 11.61 52.898 0.035 6.72 2.69 10.39
4/26/2022 4:45:00 AM 11.56 52.808 0.035 6.73 2.85 10.4
4/26/2022 5:00:00 AM 11.51 52.718 0.035 6.72 2.84 10.41
4/26/2022 5:15:00 AM 11.46 52.628 0.035 6.72 3.47 10.42
4/26/2022 5:30:00 AM 11.41 52.538 0.035 6.72 2.57 10.44
4/26/2022 5:45:00 AM 11.36 52.448 0.035 6.72 2.85 10.45
4/26/2022 6:00:00 AM 11.32 52.376 0.035 6.72 2.84 10.46
4/26/2022 6:15:00 AM 11.27 52.286 0.035 6.71 3.04 10.48
4/26/2022 6:30:00 AM 11.22 52.196 0.035 6.72 3.01 10.49
4/26/2022 6:45:00 AM 11.18 52.124 0.035 6.72 2.74 10.51
4/26/2022 7:00:00 AM 11.14 52.052 0.035 6.71 2.86 10.53
4/26/2022 7:15:00 AM 11.11 51.998 0.035 6.73 2.93 10.56
4/26/2022 7:30:00 AM 11.07 51.926 0.035 6.73 2.75 10.58
4/26/2022 7:45:00 AM 11.04 51.872 0.035 6.74 2.75 10.61
4/26/2022 8:00:00 AM 11.01 51.818 0.035 6.74 2.78 10.61
4/26/2022 8:15:00 AM 10.99 51.782 0.035 6.76 2.64 10.66
4/26/2022 8:30:00 AM 10.97 51.746 0.035 6.76 2.8 10.69
4/26/2022 8:45:00 AM 10.94 51.692 0.035 6.77 2.56 10.69
4/26/2022 9:00:00 AM 10.93 51.674 0.035 6.77 2.72 10.73
4/26/2022 9:15:00 AM 10.93 51.674 0.035 6.79 2.79 10.76
4/26/2022 9:30:00 AM 10.93 51.674 0.035 6.8 2.68 10.79
4/26/2022 9:45:00 AM 10.93 51.674 0.035 6.81 2.63 10.8
4/26/2022 10:00:00 AM 10.93 51.674 0.034 6.83 2.58 10.82
4/26/2022 10:15:00 AM 10.93 51.674 0.034 6.83 2.66 10.82
4/26/2022 10:30:00 AM 10.95 51.71 0.034 6.83 2.71 10.83
4/26/2022 10:45:00 AM 10.97 51.746 0.034 6.85 2.49 10.85
4/26/2022 11:00:00 AM 10.97 51.746 0.034 6.84 2.71 10.84
4/26/2022 11:15:00 AM 11.01 51.818 0.034 6.86 2.58 10.86
4/26/2022 11:30:00 AM 11.05 51.89 0.034 6.87 2.5 10.86
4/26/2022 11:45:00 AM 11.07 51.926 0.034 6.87 2.6 10.85
4/26/2022 12:00:00 PM 11.09 51.962 0.034 6.87 2.62 10.84
4/26/2022 12:15:00 PM 11.14 52.052 0.034 6.86 2.52 10.84
4/26/2022 12:30:00 PM 11.15 52.07 0.034 6.88 2.48 10.83
4/26/2022 12:45:00 PM 11.19 52.142 0.034 6.88 2.54 10.83
4/26/2022 1:00:00 PM 11.24 52.232 0.034 6.88 2.44 10.83
4/26/2022 1:15:00 PM 11.26 52.268 0.034 6.88 2.38 10.8
4/26/2022 1:30:00 PM 11.27 52.286 0.034 6.88 2.5 10.79
4/26/2022 1:45:00 PM 11.27 52.286 0.034 6.87 2.43 10.78
4/26/2022 2:00:00 PM 11.27 52.286 0.034 6.87 2.51 10.77
4/26/2022 2:15:00 PM 11.31 52.358 0.034 6.89 2.63 10.78
4/26/2022 2:30:00 PM 11.36 52.448 0.034 6.89 2.54 10.77
4/26/2022 2:45:00 PM 11.35 52.43 0.034 6.88 2.64 10.75
4/26/2022 3:00:00 PM 11.33 52.394 0.034 6.86 2.48 10.71
4/26/2022 3:15:00 PM 11.33 52.394 0.034 6.86 2.45 10.7
4/26/2022 3:30:00 PM 11.32 52.376 0.034 6.85 2.64 10.66
4/26/2022 3:45:00 PM 11.3 52.34 0.034 6.82 2.56 10.64
4/26/2022 4:00:00 PM 11.29 52.322 0.034 6.83 2.51 10.65
4/26/2022 4:15:00 PM 11.29 52.322 0.034 6.83 2.49 10.67
4/26/2022 4:30:00 PM 11.27 52.286 0.034 6.84 2.52 10.68
4/26/2022 4:45:00 PM 11.25 52.25 0.034 6.83 2.58 10.66
4/26/2022 5:00:00 PM 11.22 52.196 0.034 6.82 2.47 10.64
4/26/2022 5:15:00 PM 11.25 52.25 0.034 6.84 2.52 10.7
4/26/2022 5:30:00 PM 11.28 52.304 0.034 6.85 2.44 10.73
4/26/2022 5:45:00 PM 11.26 52.268 0.034 6.86 2.71 10.73
4/26/2022 6:00:00 PM 11.24 52.232 0.034 6.86 2.62 10.72
4/26/2022 6:15:00 PM 11.21 52.178 0.034 6.86 2.56 10.73
4/26/2022 6:30:00 PM 11.19 52.142 0.034 6.87 2.85 10.73
4/26/2022 6:45:00 PM 11.15 52.07 0.034 6.85 2.68 10.72
4/26/2022 7:00:00 PM 11.09 51.962 0.034 6.85 2.55 10.7
4/26/2022 7:15:00 PM 11.02 51.836 0.034 6.83 2.59 10.67
4/26/2022 7:30:00 PM 10.96 51.728 0.034 6.8 2.5 10.66
4/26/2022 7:45:00 PM 10.91 51.638 0.034 6.8 2.6 10.66
4/26/2022 8:00:00 PM 10.83 51.494 0.034 6.79 2.68 10.64
4/26/2022 8:15:00 PM 10.77 51.386 0.034 6.78 2.85 10.63
4/26/2022 8:30:00 PM 10.72 51.296 0.034 6.76 2.79 10.63
4/26/2022 8:45:00 PM 10.66 51.188 0.034 6.76 2.64 10.63
4/26/2022 9:00:00 PM 10.61 51.098 0.034 6.75 2.77 10.64
4/26/2022 9:15:00 PM 10.54 50.972 0.034 6.76 3.11 10.66
4/26/2022 9:30:00 PM 10.48 50.864 0.035 6.75 3.62 10.66
4/26/2022 9:45:00 PM 10.42 50.756 0.035 6.74 3.01 10.68
4/26/2022 10:00:00 PM 10.37 50.666 0.035 6.75 2.96 10.7
4/26/2022 10:15:00 PM 10.3 50.54 0.035 6.75 2.95 10.71
4/26/2022 10:30:00 PM 10.24 50.432 0.035 6.75 2.97 10.74
4/26/2022 10:45:00 PM 10.16 50.288 0.035 6.76 2.96 10.75
4/26/2022 11:00:00 PM 10.09 50.162 0.035 6.75 3.21 10.78
4/26/2022 11:15:00 PM 9.99 49.982 0.035 6.75 3.15 10.8
4/26/2022 11:30:00 PM 9.92 49.856 0.035 6.74 2.94 10.82
4/26/2022 11:45:00 PM 9.84 49.712 0.035 6.75 2.93 10.84
4/27/2022 12:00:00 AM 9.76 49.568 0.035 6.74 3.03 10.87
4/27/2022 12:15:00 AM 9.7 49.46 0.035 6.75 3.01 10.89
4/27/2022 12:30:00 AM 9.62 49.316 0.035 6.75 2.89 10.91
4/27/2022 12:45:00 AM 9.54 49.172 0.035 6.75 3.12 10.93
4/27/2022 1:00:00 AM 9.46 49.028 0.035 6.75 3.88 10.94
4/27/2022 1:15:00 AM 9.39 48.902 0.035 6.75 3.19 10.96
4/27/2022 1:30:00 AM 9.34 48.812 0.035 6.75 2.73 10.98
4/27/2022 1:45:00 AM 9.25 48.65 0.035 6.75 2.58 11
4/27/2022 2:00:00 AM 9.2 48.56 0.035 6.75 2.48 11.01
4/27/2022 2:15:00 AM 9.12 48.416 0.035 6.75 2.58 11.03
4/27/2022 2:30:00 AM 9.05 48.29 0.035 6.75 2.82 11.05
4/27/2022 2:45:00 AM 9 48.2 0.035 6.74 2.44 11.05
4/27/2022 3:00:00 AM 8.93 48.074 0.035 6.74 2.47 11.09
4/27/2022 3:15:00 AM 8.86 47.948 0.035 6.74 2.62 11.1
4/27/2022 3:30:00 AM 8.79 47.822 0.035 6.74 2.53 11.13
4/27/2022 3:45:00 AM 8.73 47.714 0.035 6.73 2.78 11.14
4/27/2022 4:00:00 AM 8.68 47.624 0.035 6.74 2.61 11.16
4/27/2022 4:15:00 AM 8.59 47.462 0.035 6.74 2.53 11.18
4/27/2022 4:30:00 AM 8.53 47.354 0.035 6.74 2.57 11.2
4/27/2022 4:45:00 AM 8.46 47.228 0.035 6.74 2.52 11.22
4/27/2022 5:00:00 AM 8.4 47.12 0.035 6.75 2.82 11.24
4/27/2022 5:15:00 AM 8.37 47.066 0.035 6.73 2.89 11.25
4/27/2022 5:30:00 AM 8.32 46.976 0.035 6.74 2.57 11.26
4/27/2022 5:45:00 AM 8.22 46.796 0.035 6.74 2.63 11.28
4/27/2022 6:00:00 AM 8.14 46.652 0.035 6.74 2.8 11.3
4/27/2022 6:15:00 AM 8.08 46.544 0.035 6.74 2.55 11.33
4/27/2022 6:30:00 AM 8.04 46.472 0.035 6.74 3.03 11.36
4/27/2022 6:45:00 AM 8 46.4 0.035 6.74 2.57 11.37
4/27/2022 7:00:00 AM 7.94 46.292 0.035 6.76 2.56 11.44
4/27/2022 7:15:00 AM 7.89 46.202 0.035 6.76 3.12 11.48
4/27/2022 7:30:00 AM 7.84 46.112 0.035 6.76 2.6 11.52
4/27/2022 7:45:00 AM 7.82 46.076 0.035 6.78 2.59 11.55
4/27/2022 8:00:00 AM 7.78 46.004 0.035 6.78 3.05 11.56
4/27/2022 8:15:00 AM 7.75 45.95 0.035 6.78 2.67 11.57
4/27/2022 8:30:00 AM 7.71 45.878 0.035 6.78 2.58 11.58
4/27/2022 8:45:00 AM 7.67 45.806 0.035 6.78 2.49 11.6
4/27/2022 9:00:00 AM 7.65 45.77 0.035 6.79 3.24 11.63
4/27/2022 9:15:00 AM 7.62 45.716 0.035 6.79 2.99 11.64
4/27/2022 9:30:00 AM 7.56 45.608 0.035 6.79 2.62 11.65
4/27/2022 9:45:00 AM 7.55 45.59 0.034 6.8 2.72 11.7
4/27/2022 10:00:00 AM 7.56 45.608 0.034 6.82 2.65 11.75
4/27/2022 10:15:00 AM 7.53 45.554 0.034 6.82 2.61 11.75
4/27/2022 10:30:00 AM 7.51 45.518 0.034 6.82 2.66 11.74
4/27/2022 10:45:00 AM 7.55 45.59 0.034 6.83 2.81 11.78
4/27/2022 11:00:00 AM 7.65 45.77 0.034 6.83 2.63 11.77
4/27/2022 11:15:00 AM 7.58 45.644 0.034 6.83 2.66 11.75
4/27/2022 11:30:00 AM 7.61 45.698 0.034 6.83 2.6 11.74
4/27/2022 11:45:00 AM 7.66 45.788 0.034 6.83 3.01 11.77
4/27/2022 12:00:00 PM 7.66 45.788 0.034 6.84 2.71 11.76
4/27/2022 12:15:00 PM 7.73 45.914 0.034 6.85 2.61 11.75
4/27/2022 12:30:00 PM 7.73 45.914 0.034 6.84 2.59 11.74
4/27/2022 12:45:00 PM 7.76 45.968 0.034 6.85 2.56 11.74
4/27/2022 1:00:00 PM 7.75 45.95 0.034 6.84 2.68 11.72
4/27/2022 1:15:00 PM 7.72 45.896 0.034 6.84 2.49 11.74
4/27/2022 1:30:00 PM 7.72 45.896 0.034 6.84 2.68 11.74
4/27/2022 1:45:00 PM 7.7 45.86 0.034 6.84 2.69 11.74
4/27/2022 2:00:00 PM 7.71 45.878 0.034 6.83 2.65 11.72
4/27/2022 2:15:00 PM 7.78 46.004 0.034 6.84 2.83 11.75
4/27/2022 2:30:00 PM 7.74 45.932 0.034 6.85 2.65 11.71
4/27/2022 2:45:00 PM 7.78 46.004 0.034 6.84 2.51 11.73
4/27/2022 3:00:00 PM 7.89 46.202 0.034 6.85 2.64 11.71
4/27/2022 3:15:00 PM 7.89 46.202 0.034 6.85 2.49 11.68
4/27/2022 3:30:00 PM 7.83 46.094 0.034 6.84 2.62 11.68
4/27/2022 3:45:00 PM 7.78 46.004 0.034 6.83 2.76 11.65
4/27/2022 4:00:00 PM 7.76 45.968 0.034 6.83 2.62 11.67
4/27/2022 4:15:00 PM 7.8 46.04 0.034 6.84 2.63 11.68
4/27/2022 4:30:00 PM 7.82 46.076 0.034 6.83 2.82 11.66
4/27/2022 4:45:00 PM 7.77 45.986 0.034 6.83 2.64 11.66
4/27/2022 5:00:00 PM 7.74 45.932 0.034 6.82 2.69 11.65
4/27/2022 5:15:00 PM 7.72 45.896 0.034 6.82 2.81 11.66
4/27/2022 5:30:00 PM 7.69 45.842 0.034 6.82 2.87 11.68
4/27/2022 5:45:00 PM 7.64 45.752 0.034 6.81 2.73 11.67
4/27/2022 6:00:00 PM 7.59 45.662 0.034 6.81 2.77 11.67
4/27/2022 6:15:00 PM 7.54 45.572 0.034 6.8 2.73 11.66
4/27/2022 6:30:00 PM 7.49 45.482 0.034 6.8 2.61 11.67
4/27/2022 6:45:00 PM 7.43 45.374 0.034 6.78 2.75 11.65
4/27/2022 7:00:00 PM 7.37 45.266 0.034 6.79 2.64 11.67
4/27/2022 7:15:00 PM 7.3 45.14 0.034 6.78 2.71 11.68
4/27/2022 7:30:00 PM 7.24 45.032 0.034 6.77 2.87 11.67
4/27/2022 7:45:00 PM 7.16 44.888 0.034 6.77 2.76 11.7
4/27/2022 8:00:00 PM 7.1 44.78 0.034 6.76 3.07 11.68
4/27/2022 8:15:00 PM 7.02 44.636 0.034 6.76 2.88 11.69
4/27/2022 8:30:00 PM 6.94 44.492 0.034 6.74 2.81 11.71
4/27/2022 8:45:00 PM 6.86 44.348 0.034 6.74 2.97 11.73
4/27/2022 9:00:00 PM 6.8 44.24 0.034 6.74 2.92 11.75
4/27/2022 9:15:00 PM 6.75 44.15 0.034 6.73 2.85 11.76
4/27/2022 9:30:00 PM 6.7 44.06 0.034 6.73 2.87 11.77
4/27/2022 9:45:00 PM 6.65 43.97 0.034 6.74 2.81 11.8
4/27/2022 10:00:00 PM 6.61 43.898 0.035 6.74 2.76 11.8
4/27/2022 10:15:00 PM 6.56 43.808 0.035 6.73 2.66 11.82
4/27/2022 10:30:00 PM 6.52 43.736 0.035 6.72 2.73 11.83
4/27/2022 10:45:00 PM 6.47 43.646 0.035 6.72 2.62 11.84
4/27/2022 11:00:00 PM 6.43 43.574 0.035 6.71 2.65 11.85
4/27/2022 11:15:00 PM 6.38 43.484 0.035 6.72 2.68 11.88
4/27/2022 11:30:00 PM 6.33 43.394 0.035 6.71 2.8 11.89
4/27/2022 11:45:00 PM 6.28 43.304 0.035 6.7 2.74 11.91
4/28/2022 12:00:00 AM 6.24 43.232 0.035 6.7 2.78 11.92
4/28/2022 12:15:00 AM 6.19 43.142 0.035 6.71 2.65 11.94
4/28/2022 12:30:00 AM 6.16 43.088 0.035 6.71 2.69 11.95
4/28/2022 12:45:00 AM 6.13 43.034 0.035 6.71 2.73 11.96
4/28/2022 1:00:00 AM 6.1 42.98 0.035 6.7 2.73 11.98
4/28/2022 1:15:00 AM 6.06 42.908 0.035 6.7 2.74 11.98
4/28/2022 1:30:00 AM 6.03 42.854 0.035 6.7 2.68 12
4/28/2022 1:45:00 AM 5.99 42.782 0.035 6.71 2.72 12.01
4/28/2022 2:00:00 AM 5.95 42.71 0.035 6.71 2.74 12.02
4/28/2022 2:15:00 AM 5.91 42.638 0.035 6.7 2.75 12.03
4/28/2022 2:30:00 AM 5.87 42.566 0.035 6.7 2.68 12.05
4/28/2022 2:45:00 AM 5.84 42.512 0.035 6.7 2.77 12.04
4/28/2022 3:00:00 AM 5.8 42.44 0.035 6.7 2.75 12.06
4/28/2022 3:15:00 AM 5.75 42.35 0.035 6.7 3.15 12.1
4/28/2022 3:30:00 AM 5.72 42.296 0.035 6.7 2.67 12.1
4/28/2022 3:45:00 AM 5.7 42.26 0.035 6.7 2.67 12.1
4/28/2022 4:00:00 AM 5.66 42.188 0.035 6.7 2.7 12.11
4/28/2022 4:15:00 AM 5.63 42.134 0.035 6.7 2.6 12.13
4/28/2022 4:30:00 AM 5.61 42.098 0.035 6.7 2.56 12.14
4/28/2022 4:45:00 AM 5.58 42.044 0.035 6.7 2.65 12.14
4/28/2022 5:00:00 AM 5.55 41.99 0.035 6.7 2.69 12.15
4/28/2022 5:15:00 AM 5.52 41.936 0.035 6.71 2.69 12.16
4/28/2022 5:30:00 AM 5.49 41.882 0.035 6.7 2.66 12.17
4/28/2022 5:45:00 AM 5.47 41.846 0.035 6.7 2.71 12.18
4/28/2022 6:00:00 AM 5.45 41.81 0.035 6.7 2.72 12.18
4/28/2022 6:15:00 AM 5.42 41.756 0.035 6.7 2.53 12.2
4/28/2022 6:30:00 AM 5.38 41.684 0.035 6.71 2.7 12.22
4/28/2022 6:45:00 AM 5.36 41.648 0.035 6.72 2.72 12.26
4/28/2022 7:00:00 AM 5.33 41.594 0.035 6.73 4.67 12.3
4/28/2022 7:15:00 AM 5.33 41.594 0.035 6.74 2.84 12.33
4/28/2022 7:30:00 AM 5.32 41.576 0.035 6.75 2.63 12.37
4/28/2022 7:45:00 AM 5.31 41.558 0.035 6.76 2.58 12.39
4/28/2022 8:00:00 AM 5.29 41.522 0.035 6.76 2.62 12.41
4/28/2022 8:15:00 AM 5.28 41.504 0.035 6.77 2.57 12.42
4/28/2022 8:30:00 AM 5.27 41.486 0.035 6.77 2.52 12.44
4/28/2022 8:45:00 AM 5.26 41.468 0.034 6.78 2.47 12.44
4/28/2022 9:00:00 AM 5.25 41.45 0.034 6.78 2.57 12.45
4/28/2022 9:15:00 AM 5.25 41.45 0.034 6.79 2.65 12.46
4/28/2022 9:30:00 AM 5.26 41.468 0.034 6.79 2.59 12.46
4/28/2022 9:45:00 AM 5.29 41.522 0.034 6.79 2.53 12.46
4/28/2022 10:00:00 AM 5.35 41.63 0.034 6.8 2.47 12.47
4/28/2022 10:15:00 AM 5.46 41.828 0.034 6.8 2.63 12.45
4/28/2022 10:30:00 AM 5.6 42.08 0.034 6.8 2.49 12.42
4/28/2022 10:45:00 AM 5.76 42.368 0.034 6.81 2.58 12.39
4/28/2022 11:00:00 AM 5.93 42.674 0.034 6.81 2.56 12.34
4/28/2022 11:15:00 AM 6.14 43.052 0.034 6.82 2.46 12.29
4/28/2022 11:30:00 AM 6.4 43.52 0.034 6.82 2.81 12.24
4/28/2022 11:45:00 AM 6.64 43.952 0.034 6.82 2.51 12.18
4/28/2022 12:00:00 PM 6.91 44.438 0.034 6.82 2.55 12.09
4/28/2022 12:15:00 PM 7.21 44.978 0.034 6.83 2.48 12.03
4/28/2022 12:30:00 PM 7.53 45.554 0.034 6.83 2.42 11.95
4/28/2022 12:45:00 PM 7.83 46.094 0.034 6.83 2.6 11.87
4/28/2022 1:00:00 PM 8.13 46.634 0.034 6.83 2.44 11.79
4/28/2022 1:15:00 PM 8.43 47.174 0.034 6.84 2.42 11.7
4/28/2022 1:30:00 PM 8.75 47.75 0.034 6.84 2.38 11.62
4/28/2022 1:45:00 PM 9.04 48.272 0.034 6.83 2.62 11.54
4/28/2022 2:00:00 PM 9.28 48.704 0.034 6.84 2.48 11.47
4/28/2022 2:15:00 PM 9.54 49.172 0.034 6.84 2.75 11.38
4/28/2022 2:30:00 PM 9.75 49.55 0.034 6.84 2.4 11.3
4/28/2022 2:45:00 PM 9.91 49.838 0.034 6.84 2.48 11.24
4/28/2022 3:00:00 PM 10.09 50.162 0.033 6.85 2.58 11.19
4/28/2022 3:15:00 PM 10.24 50.432 0.033 6.85 2.69 11.12
4/28/2022 3:30:00 PM 10.37 50.666 0.033 6.85 2.93 11.08
4/28/2022 3:45:00 PM 10.44 50.792 0.033 6.85 2.74 11.03
4/28/2022 4:00:00 PM 10.5 50.9 0.033 6.85 2.65 11
4/28/2022 4:15:00 PM 10.58 51.044 0.033 6.85 2.79 10.96
4/28/2022 4:30:00 PM 10.64 51.152 0.033 6.86 2.72 10.94
4/28/2022 4:45:00 PM 10.63 51.134 0.033 6.85 2.89 10.93
4/28/2022 5:00:00 PM 10.63 51.134 0.034 6.84 2.79 10.9
4/28/2022 5:15:00 PM 10.61 51.098 0.034 6.86 2.82 10.89
4/28/2022 5:30:00 PM 10.55 50.99 0.034 6.85 2.8 10.88
4/28/2022 5:45:00 PM 10.5 50.9 0.034 6.85 2.74 10.88
4/28/2022 6:00:00 PM 10.39 50.702 0.034 6.84 2.79 10.87
4/28/2022 6:15:00 PM 10.31 50.558 0.034 6.83 2.84 10.86
4/28/2022 6:30:00 PM 10.21 50.378 0.034 6.83 2.85 10.87
4/28/2022 6:45:00 PM 10.11 50.198 0.034 6.82 2.83 10.87
4/28/2022 7:00:00 PM 10.06 50.108 0.034 6.81 2.85 10.88
4/28/2022 7:15:00 PM 10 50 0.034 6.81 3.15 10.89
4/28/2022 7:30:00 PM 9.92 49.856 0.034 6.81 2.75 10.91
4/28/2022 7:45:00 PM 9.82 49.676 0.034 6.8 3 10.92
4/28/2022 8:00:00 PM 9.72 49.496 0.034 6.79 2.88 10.92
4/28/2022 8:15:00 PM 9.6 49.28 0.034 6.78 2.99 10.94
4/28/2022 8:30:00 PM 9.48 49.064 0.034 6.77 2.98 10.95
4/28/2022 8:45:00 PM 9.36 48.848 0.034 6.76 2.92 10.97
4/28/2022 9:00:00 PM 9.24 48.632 0.034 6.76 2.99 11
4/28/2022 9:15:00 PM 9.1 48.38 0.034 6.76 5.02 11.05
4/28/2022 9:30:00 PM 8.97 48.146 0.034 6.76 3.35 11.08
4/28/2022 9:45:00 PM 8.83 47.894 0.034 6.76 3.05 11.12
4/28/2022 10:00:00 PM 8.7 47.66 0.035 6.76 3.05 11.16
4/28/2022 10:15:00 PM 8.56 47.408 0.035 6.75 3.16 11.2
4/28/2022 10:30:00 PM 8.41 47.138 0.035 6.75 3.01 11.25
4/28/2022 10:45:00 PM 8.28 46.904 0.035 6.75 3.05 11.28
4/28/2022 11:00:00 PM 8.13 46.634 0.035 6.75 3.03 11.33
4/28/2022 11:15:00 PM 7.99 46.382 0.035 6.75 3.09 11.38
4/28/2022 11:30:00 PM 7.85 46.13 0.035 6.75 3.17 11.42
4/28/2022 11:45:00 PM 7.71 45.878 0.035 6.75 2.96 11.46
4/29/2022 12:00:00 AM 7.57 45.626 0.035 6.74 3.12 11.51
4/29/2022 12:15:00 AM 7.44 45.392 0.035 6.75 3.07 11.55
4/29/2022 12:30:00 AM 7.32 45.176 0.035 6.74 3.15 11.58
4/29/2022 12:45:00 AM 7.2 44.96 0.035 6.75 3.66 11.61
4/29/2022 1:00:00 AM 7.09 44.762 0.035 6.74 3 11.66
4/29/2022 1:15:00 AM 6.96 44.528 0.035 6.74 2.86 11.69
4/29/2022 1:30:00 AM 6.84 44.312 0.035 6.74 2.92 11.73
4/29/2022 1:45:00 AM 6.73 44.114 0.035 6.74 2.8 11.76
4/29/2022 2:00:00 AM 6.62 43.916 0.035 6.74 2.85 11.81
4/29/2022 2:15:00 AM 6.53 43.754 0.035 6.74 2.85 11.83
4/29/2022 2:30:00 AM 6.41 43.538 0.035 6.74 2.76 11.87
4/29/2022 2:45:00 AM 6.32 43.376 0.035 6.74 2.76 11.9
4/29/2022 3:00:00 AM 6.22 43.196 0.035 6.73 2.86 11.93
4/29/2022 3:15:00 AM 6.14 43.052 0.035 6.73 2.8 11.96
4/29/2022 3:30:00 AM 6.03 42.854 0.035 6.73 2.74 11.99
4/29/2022 3:45:00 AM 5.93 42.674 0.035 6.74 2.85 12.03
4/29/2022 4:00:00 AM 5.85 42.53 0.035 6.73 2.79 12.05
4/29/2022 4:15:00 AM 5.78 42.404 0.035 6.73 2.88 12.07
4/29/2022 4:30:00 AM 5.68 42.224 0.035 6.73 2.74 12.11
4/29/2022 4:45:00 AM 5.6 42.08 0.035 6.72 2.71 12.13
4/29/2022 5:00:00 AM 5.51 41.918 0.035 6.73 2.76 12.16
4/29/2022 5:15:00 AM 5.42 41.756 0.035 6.72 2.81 12.19
4/29/2022 5:30:00 AM 5.35 41.63 0.035 6.71 2.79 12.21
4/29/2022 5:45:00 AM 5.27 41.486 0.035 6.7 2.76 12.24
4/29/2022 6:00:00 AM 5.2 41.36 0.035 6.7 2.84 12.26
4/29/2022 6:15:00 AM 5.13 41.234 0.035 6.69 2.75 12.29
4/29/2022 6:30:00 AM 5.06 41.108 0.035 6.69 2.81 12.33
4/29/2022 6:45:00 AM 4.98 40.964 0.035 6.7 2.8 12.38
4/29/2022 7:00:00 AM 4.91 40.838 0.035 6.7 2.73 12.42
4/29/2022 7:15:00 AM 4.85 40.73 0.035 6.7 2.74 12.47
4/29/2022 7:30:00 AM 4.8 40.64 0.035 6.71 2.82 12.51
4/29/2022 7:45:00 AM 4.75 40.55 0.035 6.71 2.77 12.54
4/29/2022 8:00:00 AM 4.7 40.46 0.035 6.71 2.72 12.57
4/29/2022 8:15:00 AM 4.66 40.388 0.035 6.72 2.64 12.6
4/29/2022 8:30:00 AM 4.62 40.316 0.035 6.73 2.68 12.62
4/29/2022 8:45:00 AM 4.6 40.28 0.035 6.73 2.77 12.64
4/29/2022 9:00:00 AM 4.6 40.28 0.035 6.74 2.61 12.66
4/29/2022 9:15:00 AM 4.61 40.298 0.035 6.75 2.67 12.67
4/29/2022 9:30:00 AM 4.64 40.352 0.035 6.76 2.74 12.67
4/29/2022 9:45:00 AM 4.7 40.46 0.035 6.78 2.69 12.67
4/29/2022 10:00:00 AM 4.83 40.694 0.034 6.79 2.75 12.67
4/29/2022 10:15:00 AM 4.97 40.946 0.034 6.8 2.68 12.64
4/29/2022 10:30:00 AM 5.13 41.234 0.034 6.81 2.61 12.61
4/29/2022 10:45:00 AM 5.32 41.576 0.034 6.82 2.67 12.56
4/29/2022 11:00:00 AM 5.54 41.972 0.034 6.83 2.6 12.51
4/29/2022 11:15:00 AM 5.8 42.44 0.034 6.83 2.58 12.45
4/29/2022 11:30:00 AM 6.09 42.962 0.034 6.84 2.6 12.38
4/29/2022 11:45:00 AM 6.4 43.52 0.034 6.84 2.65 12.29
4/29/2022 12:00:00 PM 6.72 44.096 0.034 6.84 2.78 12.21
4/29/2022 12:15:00 PM 7.02 44.636 0.034 6.85 2.57 12.13
4/29/2022 12:30:00 PM 7.37 45.266 0.034 6.85 2.61 12.04
4/29/2022 12:45:00 PM 7.75 45.95 0.034 6.85 2.51 11.94
4/29/2022 1:00:00 PM 8.12 46.616 0.034 6.86 2.65 11.84
4/29/2022 1:15:00 PM 8.48 47.264 0.034 6.86 2.52 11.74
4/29/2022 1:30:00 PM 8.85 47.93 0.034 6.86 2.55 11.63
4/29/2022 1:45:00 PM 9.17 48.506 0.034 6.87 2.5 11.54
4/29/2022 2:00:00 PM 9.48 49.064 0.034 6.86 2.55 11.44
4/29/2022 2:15:00 PM 9.77 49.586 0.034 6.87 2.49 11.36
4/29/2022 2:30:00 PM 10.03 50.054 0.034 6.88 2.49 11.28
4/29/2022 2:45:00 PM 10.26 50.468 0.034 6.88 2.49 11.21
4/29/2022 3:00:00 PM 10.46 50.828 0.033 6.88 2.47 11.14
4/29/2022 3:15:00 PM 10.62 51.116 0.033 6.88 2.65 11.07
4/29/2022 3:30:00 PM 10.77 51.386 0.033 6.88 2.48 11.01
4/29/2022 3:45:00 PM 10.89 51.602 0.033 6.89 2.55 10.96
4/29/2022 4:00:00 PM 11 51.8 0.033 6.89 2.47 10.91
4/29/2022 4:15:00 PM 11.09 51.962 0.033 6.89 2.53 10.87
4/29/2022 4:30:00 PM 11.17 52.106 0.033 6.89 2.42 10.84
4/29/2022 4:45:00 PM 11.2 52.16 0.033 6.89 2.46 10.81
4/29/2022 5:00:00 PM 11.22 52.196 0.033 6.89 2.61 10.78
4/29/2022 5:15:00 PM 11.22 52.196 0.033 6.89 2.5 10.77
4/29/2022 5:30:00 PM 11.19 52.142 0.034 6.88 2.62 10.75
4/29/2022 5:45:00 PM 11.15 52.07 0.034 6.88 2.6 10.74
4/29/2022 6:00:00 PM 11.07 51.926 0.034 6.87 2.48 10.71
4/29/2022 6:15:00 PM 10.99 51.782 0.034 6.85 2.58 10.71
4/29/2022 6:30:00 PM 10.91 51.638 0.034 6.85 2.61 10.7
4/29/2022 6:45:00 PM 10.84 51.512 0.034 6.84 2.7 10.7
4/29/2022 7:00:00 PM 10.78 51.404 0.034 6.83 2.55 10.71
4/29/2022 7:15:00 PM 10.73 51.314 0.034 6.83 2.69 10.71
4/29/2022 7:30:00 PM 10.66 51.188 0.034 6.82 2.57 10.71
4/29/2022 7:45:00 PM 10.58 51.044 0.034 6.81 2.64 10.7
4/29/2022 8:00:00 PM 10.48 50.864 0.034 6.8 2.73 10.71
4/29/2022 8:15:00 PM 10.38 50.684 0.034 6.79 2.67 10.71
4/29/2022 8:30:00 PM 10.27 50.486 0.034 6.78 2.74 10.72
4/29/2022 8:45:00 PM 10.15 50.27 0.034 6.77 2.42 10.75
4/29/2022 9:00:00 PM 10.03 50.054 0.034 6.77 2.38 10.77
4/29/2022 9:15:00 PM 9.9 49.82 0.034 6.76 2.62 10.81
4/29/2022 9:30:00 PM 9.77 49.586 0.035 6.77 2.5 10.85
4/29/2022 9:45:00 PM 9.64 49.352 0.035 6.76 2.72 10.88
4/29/2022 10:00:00 PM 9.5 49.1 0.035 6.76 2.67 10.93
4/29/2022 10:15:00 PM 9.37 48.866 0.035 6.76 2.78 10.96
4/29/2022 10:30:00 PM 9.23 48.614 0.035 6.76 2.45 11
4/29/2022 10:45:00 PM 9.08 48.344 0.035 6.76 2.68 11.04
4/29/2022 11:00:00 PM 8.95 48.11 0.035 6.75 2.49 11.08
4/29/2022 11:15:00 PM 8.82 47.876 0.035 6.75 2.6 11.12
4/29/2022 11:30:00 PM 8.67 47.606 0.035 6.76 2.52 11.17
4/29/2022 11:45:00 PM 8.54 47.372 0.035 6.75 2.58 11.2
4/30/2022 12:00:00 AM 8.41 47.138 0.035 6.76 2.6 11.24
4/30/2022 12:15:00 AM 8.29 46.922 0.035 6.76 2.69 11.28
4/30/2022 12:30:00 AM 8.15 46.67 0.035 6.76 2.68 11.32
4/30/2022 12:45:00 AM 8.02 46.436 0.035 6.76 2.58 11.36
4/30/2022 1:00:00 AM 7.91 46.238 0.035 6.76 2.51 11.4
4/30/2022 1:15:00 AM 7.78 46.004 0.035 6.76 2.9 11.43
4/30/2022 1:30:00 AM 7.67 45.806 0.035 6.76 2.65 11.47
4/30/2022 1:45:00 AM 7.55 45.59 0.035 6.76 2.65 11.5
4/30/2022 2:00:00 AM 7.44 45.392 0.035 6.75 2.57 11.54
4/30/2022 2:15:00 AM 7.33 45.194 0.035 6.75 2.48 11.56
4/30/2022 2:30:00 AM 7.23 45.014 0.035 6.75 2.62 11.6
4/30/2022 2:45:00 AM 7.11 44.798 0.035 6.75 2.77 11.64
4/30/2022 3:00:00 AM 7.01 44.618 0.035 6.75 2.53 11.66
4/30/2022 3:15:00 AM 6.9 44.42 0.035 6.74 2.46 11.7
4/30/2022 3:30:00 AM 6.8 44.24 0.035 6.75 2.46 11.73
4/30/2022 3:45:00 AM 6.7 44.06 0.035 6.75 2.52 11.76
4/30/2022 4:00:00 AM 6.6 43.88 0.035 6.74 2.62 11.8
4/30/2022 4:15:00 AM 6.5 43.7 0.035 6.75 2.4 11.83
4/30/2022 4:30:00 AM 6.41 43.538 0.035 6.75 2.69 11.86
4/30/2022 4:45:00 AM 6.32 43.376 0.035 6.75 2.45 11.89
4/30/2022 5:00:00 AM 6.23 43.214 0.035 6.74 2.45 11.92
4/30/2022 5:15:00 AM 6.13 43.034 0.035 6.74 2.51 11.95
4/30/2022 5:30:00 AM 6.05 42.89 0.035 6.74 2.54 11.97
4/30/2022 5:45:00 AM 5.97 42.746 0.035 6.74 2.59 12
4/30/2022 6:00:00 AM 5.88 42.584 0.035 6.74 2.66 12.03
4/30/2022 6:15:00 AM 5.8 42.44 0.035 6.74 2.58 12.06
4/30/2022 6:30:00 AM 5.73 42.314 0.035 6.74 2.48 12.11
4/30/2022 6:45:00 AM 5.66 42.188 0.035 6.75 2.64 12.15
4/30/2022 7:00:00 AM 5.59 42.062 0.035 6.75 2.5 12.2
4/30/2022 7:15:00 AM 5.53 41.954 0.035 6.76 2.68 12.24
4/30/2022 7:30:00 AM 5.46 41.828 0.035 6.76 2.74 12.28
4/30/2022 7:45:00 AM 5.41 41.738 0.035 6.77 2.56 12.31
4/30/2022 8:00:00 AM 5.36 41.648 0.035 6.77 2.7 12.34
4/30/2022 8:15:00 AM 5.31 41.558 0.035 6.77 2.73 12.37
4/30/2022 8:30:00 AM 5.27 41.486 0.035 6.78 2.51 12.4
4/30/2022 8:45:00 AM 5.24 41.432 0.035 6.78 2.4 12.41
4/30/2022 9:00:00 AM 5.24 41.432 0.035 6.79 2.38 12.43
4/30/2022 9:15:00 AM 5.25 41.45 0.035 6.8 2.33 12.44
4/30/2022 9:30:00 AM 5.28 41.504 0.035 6.8 2.34 12.45
4/30/2022 9:45:00 AM 5.34 41.612 0.035 6.81 2.45 12.45
4/30/2022 10:00:00 AM 5.44 41.792 0.035 6.82 2.41 12.45
4/30/2022 10:15:00 AM 5.59 42.062 0.035 6.82 2.37 12.42
4/30/2022 10:30:00 AM 5.78 42.404 0.035 6.83 2.32 12.39
4/30/2022 10:45:00 AM 5.99 42.782 0.034 6.84 2.31 12.34
4/30/2022 11:00:00 AM 6.24 43.232 0.034 6.84 2.31 12.29
4/30/2022 11:15:00 AM 6.51 43.718 0.034 6.85 2.22 12.22
4/30/2022 11:30:00 AM 6.8 44.24 0.034 6.86 2.31 12.14
4/30/2022 11:45:00 AM 7.14 44.852 0.034 6.86 2.26 12.07
4/30/2022 12:00:00 PM 7.49 45.482 0.034 6.86 2.46 11.97
4/30/2022 12:15:00 PM 7.83 46.094 0.034 6.87 2.27 11.89
4/30/2022 12:30:00 PM 8.23 46.814 0.034 6.87 2.76 11.78
4/30/2022 12:45:00 PM 8.58 47.444 0.034 6.87 2.22 11.7
4/30/2022 1:00:00 PM 8.96 48.128 0.034 6.88 2.23 11.6
4/30/2022 1:15:00 PM 9.32 48.776 0.034 6.88 2.22 11.51
4/30/2022 1:30:00 PM 9.68 49.424 0.034 6.88 2.18 11.4
4/30/2022 1:45:00 PM 9.97 49.946 0.034 6.88 2.22 11.32
4/30/2022 2:00:00 PM 10.26 50.468 0.034 6.89 2.15 11.24
4/30/2022 2:15:00 PM 10.56 51.008 0.034 6.89 2.17 11.15
4/30/2022 2:30:00 PM 10.87 51.566 0.034 6.9 2.24 11.07
4/30/2022 2:45:00 PM 11.18 52.124 0.034 6.9 2.34 10.99
4/30/2022 3:00:00 PM 11.38 52.484 0.034 6.89 2.2 10.92
4/30/2022 3:15:00 PM 11.53 52.754 0.034 6.9 2.2 10.85
4/30/2022 3:30:00 PM 11.66 52.988 0.034 6.9 2.37 10.79
4/30/2022 3:45:00 PM 11.78 53.204 0.034 6.91 2.26 10.73
4/30/2022 4:00:00 PM 11.93 53.474 0.034 6.91 2.29 10.68
4/30/2022 4:15:00 PM 12.02 53.636 0.034 6.9 2.76 10.63
4/30/2022 4:30:00 PM 12.1 53.78 0.034 6.91 2.26 10.6
4/30/2022 4:45:00 PM 12.15 53.87 0.034 6.9 2.25 10.57
4/30/2022 5:00:00 PM 12.17 53.906 0.034 6.9 2.31 10.55
4/30/2022 5:15:00 PM 12.17 53.906 0.034 6.9 2.29 10.52
4/30/2022 5:30:00 PM 12.14 53.852 0.034 6.89 2.28 10.51
4/30/2022 5:45:00 PM 12.12 53.816 0.034 6.89 2.36 10.5
4/30/2022 6:00:00 PM 12.05 53.69 0.034 6.88 2.32 10.47
4/30/2022 6:15:00 PM 11.99 53.582 0.034 6.87 2.24 10.46
4/30/2022 6:30:00 PM 11.94 53.492 0.034 6.86 2.39 10.45
4/30/2022 6:45:00 PM 11.9 53.42 0.034 6.84 2.4 10.44
4/30/2022 7:00:00 PM 11.85 53.33 0.034 6.83 2.35 10.42
4/30/2022 7:15:00 PM 11.79 53.222 0.034 6.83 2.3 10.42
4/30/2022 7:30:00 PM 11.74 53.132 0.034 6.81 2.43 10.41
4/30/2022 7:45:00 PM 11.67 53.006 0.034 6.81 2.35 10.4
4/30/2022 8:00:00 PM 11.59 52.862 0.034 6.79 2.38 10.39
4/30/2022 8:15:00 PM 11.49 52.682 0.034 6.79 2.51 10.39
4/30/2022 8:30:00 PM 11.4 52.52 0.035 6.78 2.62 10.4
4/30/2022 8:45:00 PM 11.29 52.322 0.035 6.77 2.78 10.42
4/30/2022 9:00:00 PM 11.17 52.106 0.035 6.77 2.7 10.44
4/30/2022 9:15:00 PM 11.06 51.908 0.035 6.76 2.74 10.47
4/30/2022 9:30:00 PM 10.94 51.692 0.035 6.76 2.56 10.5
4/30/2022 9:45:00 PM 10.81 51.458 0.035 6.75 2.59 10.53
4/30/2022 10:00:00 PM 10.68 51.224 0.035 6.75 2.59 10.57
4/30/2022 10:15:00 PM 10.55 50.99 0.035 6.76 2.74 10.6
4/30/2022 10:30:00 PM 10.41 50.738 0.035 6.76 2.6 10.64
4/30/2022 10:45:00 PM 10.27 50.486 0.035 6.75 2.7 10.68
4/30/2022 11:00:00 PM 10.13 50.234 0.035 6.76 2.64 10.71
4/30/2022 11:15:00 PM 10 50 0.035 6.76 2.72 10.75
4/30/2022 11:30:00 PM 9.85 49.73 0.035 6.76 2.61 10.8
4/30/2022 11:45:00 PM 9.72 49.496 0.035 6.76 2.59 10.83
5/1/2022 12:00:00 AM 9.59 49.262 0.035 6.76 2.53 10.88
5/1/2022 12:15:00 AM 9.46 49.028 0.035 6.76 2.53 10.9
5/1/2022 12:30:00 AM 9.33 48.794 0.035 6.76 2.63 10.94
5/1/2022 12:45:00 AM 9.2 48.56 0.035 6.76 2.79 10.98
5/1/2022 1:00:00 AM 9.08 48.344 0.035 6.76 2.58 11.02
5/1/2022 1:15:00 AM 8.96 48.128 0.035 6.76 2.66 11.05
5/1/2022 1:30:00 AM 8.84 47.912 0.035 6.76 2.54 11.09
5/1/2022 1:45:00 AM 8.72 47.696 0.035 6.75 2.93 11.12
5/1/2022 2:00:00 AM 8.6 47.48 0.035 6.76 2.54 11.16
5/1/2022 2:15:00 AM 8.5 47.3 0.035 6.76 2.59 11.19
5/1/2022 2:30:00 AM 8.38 47.084 0.035 6.76 2.52 11.22
5/1/2022 2:45:00 AM 8.27 46.886 0.035 6.76 2.46 11.25
5/1/2022 3:00:00 AM 8.17 46.706 0.035 6.76 2.58 11.28
5/1/2022 3:15:00 AM 8.06 46.508 0.035 6.76 5.77 11.3
5/1/2022 3:30:00 AM 7.95 46.31 0.035 6.76 5.9 11.34
5/1/2022 3:45:00 AM 7.85 46.13 0.035 6.76 2.59 11.38
5/1/2022 4:00:00 AM 7.76 45.968 0.035 6.76 2.84 11.4
5/1/2022 4:15:00 AM 7.66 45.788 0.035 6.76 3.36 11.43
5/1/2022 4:30:00 AM 7.57 45.626 0.035 6.75 2.54 11.46
5/1/2022 4:45:00 AM 7.47 45.446 0.035 6.75 2.58 11.49
5/1/2022 5:00:00 AM 7.38 45.284 0.035 6.75 2.55 11.52
5/1/2022 5:15:00 AM 7.29 45.122 0.035 6.76 2.5 11.54
5/1/2022 5:30:00 AM 7.2 44.96 0.035 6.75 2.82 11.57
5/1/2022 5:45:00 AM 7.12 44.816 0.035 6.75 2.52 11.59
5/1/2022 6:00:00 AM 7.04 44.672 0.035 6.76 2.47 11.61
5/1/2022 6:15:00 AM 6.97 44.546 0.035 6.75 2.5 11.66
5/1/2022 6:30:00 AM 6.9 44.42 0.035 6.76 2.54 11.7
5/1/2022 6:45:00 AM 6.84 44.312 0.035 6.77 2.49 11.76
5/1/2022 7:00:00 AM 6.79 44.222 0.035 6.78 2.69 11.8
5/1/2022 7:15:00 AM 6.74 44.132 0.035 6.79 3 11.83
5/1/2022 7:30:00 AM 6.7 44.06 0.035 6.8 2.38 11.87
5/1/2022 7:45:00 AM 6.66 43.988 0.035 6.8 2.58 11.91
5/1/2022 8:00:00 AM 6.65 43.97 0.035 6.81 2.51 11.96
5/1/2022 8:15:00 AM 6.65 43.97 0.035 6.83 2.44 11.99
5/1/2022 8:30:00 AM 6.66 43.988 0.035 6.84 2.58 12.02
5/1/2022 8:45:00 AM 6.71 44.078 0.035 6.85 2.45 12.03
5/1/2022 9:00:00 AM 6.75 44.15 0.035 6.85 2.52 12.02
5/1/2022 9:15:00 AM 6.81 44.258 0.035 6.86 2.42 12.03
5/1/2022 9:30:00 AM 6.88 44.384 0.035 6.86 2.53 12.03
5/1/2022 9:45:00 AM 6.97 44.546 0.035 6.87 2.53 12
5/1/2022 10:00:00 AM 7.07 44.726 0.035 6.88 2.53 11.99
5/1/2022 10:15:00 AM 7.16 44.888 0.035 6.88 2.5 11.95
5/1/2022 10:30:00 AM 7.24 45.032 0.034 6.87 3.03 11.93
5/1/2022 10:45:00 AM 7.35 45.23 0.034 6.89 2.67 11.91
5/1/2022 11:00:00 AM 7.48 45.464 0.034 6.89 2.46 11.89
5/1/2022 11:15:00 AM 7.58 45.644 0.034 6.89 2.45 11.85
5/1/2022 11:30:00 AM 7.68 45.824 0.034 6.89 2.66 11.82
5/1/2022 11:45:00 AM 7.78 46.004 0.034 6.9 2.44 11.77
5/1/2022 12:00:00 PM 7.81 46.058 0.034 6.89 2.42 11.73
5/1/2022 12:15:00 PM 7.84 46.112 0.034 6.88 2.57 11.7
5/1/2022 12:30:00 PM 7.85 46.13 0.034 6.86 2.48 11.64
5/1/2022 12:45:00 PM 7.91 46.238 0.034 6.87 2.39 11.65
5/1/2022 1:00:00 PM 8 46.4 0.034 6.87 2.39 11.64
5/1/2022 1:15:00 PM 8.03 46.454 0.034 6.87 2.5 11.62
5/1/2022 1:30:00 PM 8.08 46.544 0.034 6.88 2.39 11.6
5/1/2022 1:45:00 PM 8.14 46.652 0.034 6.86 2.44 11.58
5/1/2022 2:00:00 PM 8.18 46.724 0.034 6.87 2.5 11.54
5/1/2022 2:15:00 PM 8.22 46.796 0.034 6.87 2.47 11.52
5/1/2022 2:30:00 PM 8.27 46.886 0.034 6.86 2.51 11.51
5/1/2022 2:45:00 PM 8.32 46.976 0.034 6.86 2.55 11.5
5/1/2022 3:00:00 PM 8.43 47.174 0.034 6.87 2.53 11.51
5/1/2022 3:15:00 PM 8.45 47.21 0.034 6.87 2.55 11.46
5/1/2022 3:30:00 PM 8.49 47.282 0.034 6.87 2.52 11.45
5/1/2022 3:45:00 PM 8.51 47.318 0.034 6.86 2.52 11.41
5/1/2022 4:00:00 PM 8.56 47.408 0.034 6.86 2.56 11.41
5/1/2022 4:15:00 PM 8.61 47.498 0.034 6.86 2.63 11.41
5/1/2022 4:30:00 PM 8.64 47.552 0.034 6.87 2.64 11.4
5/1/2022 4:45:00 PM 8.66 47.588 0.034 6.86 2.48 11.38
5/1/2022 5:00:00 PM 8.69 47.642 0.034 6.86 2.73 11.36
5/1/2022 5:15:00 PM 8.72 47.696 0.034 6.85 2.62 11.35
5/1/2022 5:30:00 PM 8.73 47.714 0.034 6.85 2.59 11.33
5/1/2022 5:45:00 PM 8.73 47.714 0.034 6.83 2.56 11.28
5/1/2022 6:00:00 PM 8.74 47.732 0.034 6.82 2.72 11.24
5/1/2022 6:15:00 PM 8.75 47.75 0.034 6.81 2.59 11.23
5/1/2022 6:30:00 PM 8.76 47.768 0.034 6.82 2.59 11.23
5/1/2022 6:45:00 PM 8.77 47.786 0.034 6.81 2.66 11.23
5/1/2022 7:00:00 PM 8.77 47.786 0.034 6.8 2.62 11.22
5/1/2022 7:15:00 PM 8.78 47.804 0.034 6.8 2.53 11.21
5/1/2022 7:30:00 PM 8.78 47.804 0.034 6.79 2.63 11.19
5/1/2022 7:45:00 PM 8.78 47.804 0.034 6.78 2.61 11.16
5/1/2022 8:00:00 PM 8.79 47.822 0.034 6.78 2.61 11.14
5/1/2022 8:15:00 PM 8.79 47.822 0.034 6.77 2.71 11.12
5/1/2022 8:30:00 PM 8.78 47.804 0.034 6.76 2.66 11.1
5/1/2022 8:45:00 PM 8.78 47.804 0.035 6.76 2.63 11.1
5/1/2022 9:00:00 PM 8.78 47.804 0.035 6.75 2.6 11.09
5/1/2022 9:15:00 PM 8.77 47.786 0.035 6.75 2.68 11.1
5/1/2022 9:30:00 PM 8.77 47.786 0.035 6.75 2.71 11.1
5/1/2022 9:45:00 PM 8.76 47.768 0.035 6.75 2.71 11.1
5/1/2022 10:00:00 PM 8.75 47.75 0.035 6.75 2.6 11.1
5/1/2022 10:15:00 PM 8.74 47.732 0.035 6.75 2.75 11.1
5/1/2022 10:30:00 PM 8.73 47.714 0.035 6.75 2.68 11.1
5/1/2022 10:45:00 PM 8.73 47.714 0.035 6.74 2.63 11.1
5/1/2022 11:00:00 PM 8.72 47.696 0.035 6.74 2.82 11.1
5/1/2022 11:15:00 PM 8.71 47.678 0.035 6.74 2.79 11.11
5/1/2022 11:30:00 PM 8.71 47.678 0.035 6.73 3 11.11
5/1/2022 11:45:00 PM 8.7 47.66 0.035 6.73 2.69 11.11
5/2/2022 12:00:00 AM 8.69 47.642 0.035 6.74 2.69 11.11
5/2/2022 12:15:00 AM 8.69 47.642 0.035 6.73 2.85 11.11
5/2/2022 12:30:00 AM 8.68 47.624 0.035 6.74 2.69 11.11
5/2/2022 12:45:00 AM 8.67 47.606 0.035 6.74 2.61 11.11
5/2/2022 1:00:00 AM 8.66 47.588 0.035 6.74 2.7 11.11
5/2/2022 1:15:00 AM 8.66 47.588 0.035 6.74 2.85 11.12
5/2/2022 1:30:00 AM 8.65 47.57 0.035 6.73 2.66 11.12
5/2/2022 1:45:00 AM 8.65 47.57 0.035 6.73 2.75 11.12
5/2/2022 2:00:00 AM 8.64 47.552 0.035 6.72 2.56 11.12
5/2/2022 2:15:00 AM 8.63 47.534 0.035 6.72 2.71 11.13
5/2/2022 2:30:00 AM 8.62 47.516 0.035 6.71 2.7 11.13
5/2/2022 2:45:00 AM 8.62 47.516 0.035 6.72 2.7 11.13
5/2/2022 3:00:00 AM 8.61 47.498 0.035 6.72 2.59 11.13
5/2/2022 3:15:00 AM 8.61 47.498 0.035 6.72 2.72 11.13
5/2/2022 3:30:00 AM 8.61 47.498 0.035 6.71 2.53 11.13
5/2/2022 3:45:00 AM 8.6 47.48 0.035 6.71 2.63 11.13
5/2/2022 4:00:00 AM 8.6 47.48 0.035 6.71 2.7 11.13
5/2/2022 4:15:00 AM 8.6 47.48 0.035 6.7 2.69 11.13
5/2/2022 4:30:00 AM 8.59 47.462 0.035 6.71 2.67 11.13
5/2/2022 4:45:00 AM 8.59 47.462 0.035 6.7 2.58 11.14
5/2/2022 5:00:00 AM 8.59 47.462 0.035 6.71 2.65 11.14
5/2/2022 5:15:00 AM 8.58 47.444 0.035 6.71 2.68 11.14
5/2/2022 5:30:00 AM 8.58 47.444 0.035 6.71 2.69 11.14
5/2/2022 5:45:00 AM 8.58 47.444 0.035 6.71 2.6 11.14
5/2/2022 6:00:00 AM 8.57 47.426 0.035 6.7 2.54 11.14
5/2/2022 6:15:00 AM 8.57 47.426 0.035 6.71 3.09 11.14
5/2/2022 6:30:00 AM 8.57 47.426 0.035 6.7 2.9 11.15
5/2/2022 6:45:00 AM 8.57 47.426 0.035 6.7 2.78 11.16
5/2/2022 7:00:00 AM 8.57 47.426 0.035 6.7 2.87 11.19
5/2/2022 7:15:00 AM 8.59 47.462 0.035 6.72 2.82 11.23
5/2/2022 7:30:00 AM 8.61 47.498 0.035 6.73 2.62 11.27
5/2/2022 7:45:00 AM 8.62 47.516 0.035 6.74 2.75 11.28
5/2/2022 8:00:00 AM 8.66 47.588 0.035 6.75 2.72 11.33
5/2/2022 8:15:00 AM 8.69 47.642 0.035 6.77 2.62 11.35
5/2/2022 8:30:00 AM 8.73 47.714 0.035 6.78 2.61 11.36
5/2/2022 8:45:00 AM 8.74 47.732 0.035 6.79 2.63 11.34
5/2/2022 9:00:00 AM 8.81 47.858 0.035 6.82 2.87 11.37
5/2/2022 9:15:00 AM 8.88 47.984 0.035 6.84 2.64 11.38
5/2/2022 9:30:00 AM 8.95 48.11 0.035 6.86 3.09 11.38
5/2/2022 9:45:00 AM 9.04 48.272 0.035 6.88 2.6 11.37
5/2/2022 10:00:00 AM 9.14 48.452 0.035 6.88 2.69 11.36
5/2/2022 10:15:00 AM 9.24 48.632 0.035 6.89 2.66 11.34
5/2/2022 10:30:00 AM 9.33 48.794 0.035 6.9 2.54 11.32
5/2/2022 10:45:00 AM 9.4 48.92 0.035 6.9 2.48 11.27
5/2/2022 11:00:00 AM 9.41 48.938 0.035 6.87 2.84 11.2
5/2/2022 11:15:00 AM 9.49 49.082 0.035 6.88 2.69 11.19
5/2/2022 11:30:00 AM 9.61 49.298 0.035 6.89 2.62 11.17
5/2/2022 11:45:00 AM 9.66 49.388 0.035 6.88 2.55 11.13
5/2/2022 12:00:00 PM 9.69 49.442 0.035 6.87 2.47 11.09
5/2/2022 12:15:00 PM 9.7 49.46 0.035 6.87 2.47 11.09
5/2/2022 12:30:00 PM 9.73 49.514 0.034 6.88 2.66 11.11
5/2/2022 12:45:00 PM 9.76 49.568 0.034 6.89 2.5 11.14
5/2/2022 1:00:00 PM 9.83 49.694 0.034 6.9 2.5 11.14
5/2/2022 1:15:00 PM 9.92 49.856 0.034 6.91 2.44 11.14
5/2/2022 1:30:00 PM 10.07 50.126 0.034 6.92 2.49 11.13
5/2/2022 1:45:00 PM 10.2 50.36 0.034 6.91 2.51 11.11
5/2/2022 2:00:00 PM 10.63 51.134 0.034 6.92 2.68 11.07
5/2/2022 2:15:00 PM 10.79 51.422 0.034 6.92 2.45 11.01
5/2/2022 2:30:00 PM 11.08 51.944 0.034 6.92 2.51 10.97
5/2/2022 2:45:00 PM 11.46 52.628 0.034 6.92 2.45 10.9
5/2/2022 3:00:00 PM 11.7 53.06 0.034 6.93 2.39 10.82
5/2/2022 3:15:00 PM 11.79 53.222 0.034 6.93 2.33 10.75
5/2/2022 3:30:00 PM 11.85 53.33 0.034 6.93 2.35 10.73
5/2/2022 3:45:00 PM 12.03 53.654 0.034 6.93 2.27 10.68
5/2/2022 4:00:00 PM 12.13 53.834 0.034 6.93 2.43 10.65
5/2/2022 4:15:00 PM 12.2 53.96 0.034 6.92 2.51 10.61
5/2/2022 4:30:00 PM 12.24 54.032 0.034 6.93 2.49 10.57
5/2/2022 4:45:00 PM 12.28 54.104 0.034 6.92 2.41 10.56
5/2/2022 5:00:00 PM 12.29 54.122 0.034 6.93 2.35 10.54
5/2/2022 5:15:00 PM 12.32 54.176 0.034 6.93 2.43 10.53
5/2/2022 5:30:00 PM 12.3 54.14 0.034 6.92 2.53 10.5
5/2/2022 5:45:00 PM 12.31 54.158 0.034 6.93 2.66 10.48
5/2/2022 6:00:00 PM 12.31 54.158 0.034 6.92 2.45 10.48
5/2/2022 6:15:00 PM 12.29 54.122 0.034 6.91 2.6 10.45
5/2/2022 6:30:00 PM 12.27 54.086 0.034 6.9 2.59 10.44
5/2/2022 6:45:00 PM 12.23 54.014 0.034 6.89 2.44 10.42
5/2/2022 7:00:00 PM 12.22 53.996 0.034 6.88 2.41 10.39
5/2/2022 7:15:00 PM 12.21 53.978 0.034 6.87 2.46 10.36
5/2/2022 7:30:00 PM 12.18 53.924 0.034 6.86 2.55 10.34
5/2/2022 7:45:00 PM 12.14 53.852 0.035 6.84 2.37 10.31
5/2/2022 8:00:00 PM 12.11 53.798 0.035 6.82 2.54 10.29
5/2/2022 8:15:00 PM 12.04 53.672 0.035 6.8 2.49 10.27
5/2/2022 8:30:00 PM 11.96 53.528 0.035 6.8 2.63 10.27
5/2/2022 8:45:00 PM 11.89 53.402 0.035 6.79 2.54 10.27
5/2/2022 9:00:00 PM 11.8 53.24 0.035 6.79 2.66 10.28
5/2/2022 9:15:00 PM 11.71 53.078 0.035 6.78 2.68 10.3
5/2/2022 9:30:00 PM 11.62 52.916 0.035 6.77 2.57 10.32
5/2/2022 9:45:00 PM 11.53 52.754 0.035 6.77 2.65 10.34
5/2/2022 10:00:00 PM 11.43 52.574 0.035 6.77 2.64 10.37
5/2/2022 10:15:00 PM 11.32 52.376 0.035 6.77 2.71 10.4
5/2/2022 10:30:00 PM 11.21 52.178 0.035 6.77 2.73 10.43
5/2/2022 10:45:00 PM 11.1 51.98 0.035 6.77 2.68 10.46
5/2/2022 11:00:00 PM 10.99 51.782 0.035 6.77 2.58 10.49
5/2/2022 11:15:00 PM 10.88 51.584 0.035 6.76 2.67 10.51
5/2/2022 11:30:00 PM 10.76 51.368 0.036 6.77 2.91 10.55
5/2/2022 11:45:00 PM 10.64 51.152 0.036 6.76 2.66 10.58
5/3/2022 12:00:00 AM 10.52 50.936 0.036 6.77 2.76 10.61
5/3/2022 12:15:00 AM 10.41 50.738 0.036 6.76 2.7 10.64
5/3/2022 12:30:00 AM 10.29 50.522 0.036 6.77 2.7 10.68
5/3/2022 12:45:00 AM 10.18 50.324 0.036 6.76 2.86 10.71
5/3/2022 1:00:00 AM 10.07 50.126 0.036 6.77 2.89 10.74
5/3/2022 1:15:00 AM 9.96 49.928 0.036 6.76 3.31 10.76
5/3/2022 1:30:00 AM 9.87 49.766 0.036 6.76 2.9 10.8
5/3/2022 1:45:00 AM 9.76 49.568 0.036 6.76 2.75 10.83
5/3/2022 2:00:00 AM 9.67 49.406 0.036 6.77 2.62 10.84
5/3/2022 2:15:00 AM 9.57 49.226 0.036 6.76 2.71 10.88
5/3/2022 2:30:00 AM 9.48 49.064 0.036 6.76 2.64 10.9
5/3/2022 2:45:00 AM 9.38 48.884 0.036 6.76 2.76 10.94
5/3/2022 3:00:00 AM 9.29 48.722 0.036 6.76 2.78 10.96
5/3/2022 3:15:00 AM 9.2 48.56 0.036 6.76 2.62 10.98
5/3/2022 3:30:00 AM 9.11 48.398 0.036 6.76 2.63 11
5/3/2022 3:45:00 AM 9.02 48.236 0.036 6.76 2.66 11.03
5/3/2022 4:00:00 AM 8.93 48.074 0.036 6.76 2.82 11.06
5/3/2022 4:15:00 AM 8.85 47.93 0.036 6.76 2.82 11.08
5/3/2022 4:30:00 AM 8.76 47.768 0.036 6.76 2.76 11.11
5/3/2022 4:45:00 AM 8.67 47.606 0.036 6.76 2.65 11.13
5/3/2022 5:00:00 AM 8.59 47.462 0.036 6.76 2.7 11.15
5/3/2022 5:15:00 AM 8.51 47.318 0.036 6.76 2.65 11.18
5/3/2022 5:30:00 AM 8.43 47.174 0.036 6.76 3.4 11.2
5/3/2022 5:45:00 AM 8.35 47.03 0.036 6.76 2.75 11.23
5/3/2022 6:00:00 AM 8.28 46.904 0.036 6.76 2.8 11.25
5/3/2022 6:15:00 AM 8.2 46.76 0.036 6.76 2.7 11.28
5/3/2022 6:30:00 AM 8.14 46.652 0.036 6.77 2.82 11.33
5/3/2022 6:45:00 AM 8.08 46.544 0.036 6.78 2.76 11.38
5/3/2022 7:00:00 AM 8.02 46.436 0.036 6.78 2.67 11.42
5/3/2022 7:15:00 AM 7.97 46.346 0.036 6.79 2.73 11.47
5/3/2022 7:30:00 AM 7.95 46.31 0.036 6.8 2.71 11.51
5/3/2022 7:45:00 AM 7.93 46.274 0.036 6.82 2.65 11.57
5/3/2022 8:00:00 AM 7.92 46.256 0.036 6.83 2.78 11.6
5/3/2022 8:15:00 AM 7.94 46.292 0.035 6.84 2.79 11.64
5/3/2022 8:30:00 AM 7.96 46.328 0.035 6.85 2.8 11.66
5/3/2022 8:45:00 AM 7.99 46.382 0.035 6.86 2.66 11.67
5/3/2022 9:00:00 AM 8.05 46.49 0.035 6.87 2.46 11.68
5/3/2022 9:15:00 AM 8.12 46.616 0.035 6.88 2.63 11.68
5/3/2022 9:30:00 AM 8.19 46.742 0.035 6.88 2.66 11.67
5/3/2022 9:45:00 AM 8.27 46.886 0.035 6.89 2.69 11.66
5/3/2022 10:00:00 AM 8.37 47.066 0.035 6.9 2.57 11.63
5/3/2022 10:15:00 AM 8.48 47.264 0.035 6.9 2.61 11.62
5/3/2022 10:30:00 AM 8.6 47.48 0.035 6.91 2.58 11.59
5/3/2022 10:45:00 AM 8.7 47.66 0.035 6.91 2.59 11.56
5/3/2022 11:00:00 AM 8.86 47.948 0.035 6.92 2.53 11.53
5/3/2022 11:15:00 AM 8.99 48.182 0.035 6.92 2.45 11.49
5/3/2022 11:30:00 AM 9.11 48.398 0.035 6.92 2.58 11.47
5/3/2022 11:45:00 AM 9.31 48.758 0.034 6.93 2.7 11.42
5/3/2022 12:00:00 PM 9.43 48.974 0.034 6.93 2.55 11.38
5/3/2022 12:15:00 PM 9.57 49.226 0.034 6.93 2.53 11.34
5/3/2022 12:30:00 PM 9.75 49.55 0.034 6.94 2.55 11.31
5/3/2022 12:45:00 PM 9.88 49.784 0.034 6.94 2.61 11.26
5/3/2022 1:00:00 PM 10.02 50.036 0.034 6.94 2.51 11.22
5/3/2022 1:15:00 PM 10.14 50.252 0.034 6.94 2.46 11.18
5/3/2022 1:30:00 PM 10.31 50.558 0.034 6.94 2.49 11.15
5/3/2022 1:45:00 PM 10.58 51.044 0.034 6.94 2.55 11.09
5/3/2022 2:00:00 PM 10.75 51.35 0.034 6.94 2.47 11.04
5/3/2022 2:15:00 PM 10.86 51.548 0.034 6.95 2.4 11
5/3/2022 2:30:00 PM 10.88 51.584 0.034 6.94 2.7 10.95
5/3/2022 2:45:00 PM 10.93 51.674 0.034 6.94 2.5 10.92
5/3/2022 3:00:00 PM 10.98 51.764 0.034 6.93 2.48 10.88
5/3/2022 3:15:00 PM 11.02 51.836 0.034 6.92 2.56 10.83
5/3/2022 3:30:00 PM 11.1 51.98 0.034 6.93 2.5 10.82
5/3/2022 3:45:00 PM 11.2 52.16 0.034 6.93 2.51 10.8
5/3/2022 4:00:00 PM 11.23 52.214 0.034 6.92 2.49 10.77
5/3/2022 4:15:00 PM 11.27 52.286 0.034 6.92 2.58 10.75
5/3/2022 4:30:00 PM 11.35 52.43 0.034 6.93 2.57 10.75
5/3/2022 4:45:00 PM 11.4 52.52 0.034 6.92 2.46 10.72
5/3/2022 5:00:00 PM 11.46 52.628 0.034 6.93 2.55 10.71
5/3/2022 5:15:00 PM 11.52 52.736 0.034 6.92 2.74 10.69
5/3/2022 5:30:00 PM 11.58 52.844 0.034 6.92 2.61 10.66
5/3/2022 5:45:00 PM 11.6 52.88 0.034 6.91 2.43 10.63
5/3/2022 6:00:00 PM 11.65 52.97 0.034 6.91 2.62 10.61
5/3/2022 6:15:00 PM 11.68 53.024 0.034 6.91 2.62 10.59
5/3/2022 6:30:00 PM 11.71 53.078 0.034 6.9 2.5 10.56
5/3/2022 6:45:00 PM 11.72 53.096 0.034 6.89 2.49 10.54
5/3/2022 7:00:00 PM 11.73 53.114 0.034 6.89 2.78 10.51
5/3/2022 7:15:00 PM 11.72 53.096 0.034 6.88 2.62 10.48
5/3/2022 7:30:00 PM 11.7 53.06 0.034 6.86 2.54 10.43
5/3/2022 7:45:00 PM 11.68 53.024 0.035 6.84 2.67 10.39
5/3/2022 8:00:00 PM 11.65 52.97 0.035 6.82 2.57 10.35
5/3/2022 8:15:00 PM 11.63 52.934 0.035 6.81 2.78 10.33
5/3/2022 8:30:00 PM 11.61 52.898 0.035 6.8 2.66 10.32
5/3/2022 8:45:00 PM 11.63 52.934 0.035 6.8 2.75 10.31
5/3/2022 9:00:00 PM 11.6 52.88 0.035 6.79 2.83 10.31
5/3/2022 9:15:00 PM 11.56 52.808 0.035 6.79 3.05 10.31
5/3/2022 9:30:00 PM 11.54 52.772 0.035 6.78 2.88 10.32
5/3/2022 9:45:00 PM 11.5 52.7 0.035 6.77 2.73 10.32
5/3/2022 10:00:00 PM 11.47 52.646 0.035 6.76 2.89 10.32
5/3/2022 10:15:00 PM 11.43 52.574 0.035 6.76 2.82 10.33
5/3/2022 10:30:00 PM 11.4 52.52 0.035 6.75 2.9 10.33
5/3/2022 10:45:00 PM 11.38 52.484 0.035 6.75 2.79 10.34
5/3/2022 11:00:00 PM 11.35 52.43 0.035 6.75 2.9 10.36
5/3/2022 11:15:00 PM 11.31 52.358 0.035 6.75 3.04 10.35
5/3/2022 11:30:00 PM 11.28 52.304 0.035 6.75 2.76 10.37
5/3/2022 11:45:00 PM 11.25 52.25 0.036 6.74 2.59 10.37
5/4/2022 12:00:00 AM 11.21 52.178 0.036 6.74 2.67 10.38
5/4/2022 12:15:00 AM 11.19 52.142 0.036 6.74 2.86 10.38
5/4/2022 12:30:00 AM 11.16 52.088 0.036 6.74 2.66 10.39
5/4/2022 12:45:00 AM 11.13 52.034 0.036 6.75 2.65 10.4
5/4/2022 1:00:00 AM 11.1 51.98 0.036 6.75 2.73 10.41
5/4/2022 1:15:00 AM 11.07 51.926 0.036 6.75 2.63 10.41
5/4/2022 1:30:00 AM 11.03 51.854 0.036 6.74 2.84 10.43
5/4/2022 1:45:00 AM 11 51.8 0.036 6.74 2.81 10.43
5/4/2022 2:00:00 AM 10.96 51.728 0.036 6.75 2.89 10.44
5/4/2022 2:15:00 AM 10.93 51.674 0.036 6.75 2.78 10.45
5/4/2022 2:30:00 AM 10.9 51.62 0.036 6.75 2.66 10.45
5/4/2022 2:45:00 AM 10.86 51.548 0.036 6.74 2.97 10.46
5/4/2022 3:00:00 AM 10.83 51.494 0.036 6.75 2.67 10.47
5/4/2022 3:15:00 AM 10.8 51.44 0.036 6.75 2.81 10.48
5/4/2022 3:30:00 AM 10.77 51.386 0.036 6.75 2.84 10.5
5/4/2022 3:45:00 AM 10.74 51.332 0.036 6.76 2.71 10.5
5/4/2022 4:00:00 AM 10.71 51.278 0.036 6.76 2.74 10.51
5/4/2022 4:15:00 AM 10.69 51.242 0.036 6.76 2.84 10.52
5/4/2022 4:30:00 AM 10.66 51.188 0.036 6.77 2.85 10.53
5/4/2022 4:45:00 AM 10.64 51.152 0.036 6.77 2.67 10.53
5/4/2022 5:00:00 AM 10.62 51.116 0.036 6.78 2.78 10.54
5/4/2022 5:15:00 AM 10.59 51.062 0.036 6.77 2.86 10.54
5/4/2022 5:30:00 AM 10.57 51.026 0.036 6.77 2.71 10.54
5/4/2022 5:45:00 AM 10.55 50.99 0.036 6.76 2.95 10.55
5/4/2022 6:00:00 AM 10.52 50.936 0.036 6.76 2.73 10.56
5/4/2022 6:15:00 AM 10.5 50.9 0.036 6.76 2.71 10.57
5/4/2022 6:30:00 AM 10.47 50.846 0.036 6.76 2.75 10.58
5/4/2022 6:45:00 AM 10.45 50.81 0.036 6.75 3.42 10.6
5/4/2022 7:00:00 AM 10.43 50.774 0.036 6.76 2.8 10.62
5/4/2022 7:15:00 AM 10.41 50.738 0.036 6.76 2.73 10.64
5/4/2022 7:30:00 AM 10.39 50.702 0.036 6.76 2.51 10.66
5/4/2022 7:45:00 AM 10.38 50.684 0.036 6.76 2.84 10.68
5/4/2022 8:00:00 AM 10.37 50.666 0.036 6.77 2.69 10.72
5/4/2022 8:15:00 AM 10.36 50.648 0.036 6.78 2.6 10.73
5/4/2022 8:30:00 AM 10.35 50.63 0.036 6.78 3.1 10.74
5/4/2022 8:45:00 AM 10.34 50.612 0.036 6.8 2.56 10.77
5/4/2022 9:00:00 AM 10.34 50.612 0.036 6.8 2.7 10.78
5/4/2022 9:15:00 AM 10.34 50.612 0.036 6.81 2.53 10.81
5/4/2022 9:30:00 AM 10.35 50.63 0.036 6.82 2.72 10.82
5/4/2022 9:45:00 AM 10.35 50.63 0.035 6.83 2.56 10.83
5/4/2022 10:00:00 AM 10.37 50.666 0.035 6.85 2.71 10.86
5/4/2022 10:15:00 AM 10.41 50.738 0.035 6.87 2.59 10.9
5/4/2022 10:30:00 AM 10.43 50.774 0.035 6.88 2.74 10.9
5/4/2022 10:45:00 AM 10.45 50.81 0.035 6.88 2.58 10.9
5/4/2022 11:00:00 AM 10.48 50.864 0.035 6.88 2.64 10.89
5/4/2022 11:15:00 AM 10.51 50.918 0.035 6.89 2.8 10.89
5/4/2022 11:30:00 AM 10.58 51.044 0.035 6.89 2.73 10.9
5/4/2022 11:45:00 AM 10.7 51.26 0.035 6.91 2.73 10.91
5/4/2022 12:00:00 PM 10.95 51.71 0.035 6.92 2.59 10.91
5/4/2022 12:15:00 PM 11.03 51.854 0.034 6.92 2.67 10.89
5/4/2022 12:30:00 PM 11.14 52.052 0.034 6.93 2.57 10.87
5/4/2022 12:45:00 PM 11.46 52.628 0.034 6.94 2.56 10.84
5/4/2022 1:00:00 PM 11.88 53.384 0.034 6.94 2.49 10.76
5/4/2022 1:15:00 PM 12.27 54.086 0.034 6.94 2.53 10.68
5/4/2022 1:30:00 PM 12.13 53.834 0.034 6.94 2.49 10.63
5/4/2022 1:45:00 PM 12.17 53.906 0.034 6.93 2.63 10.58
5/4/2022 2:00:00 PM 12.12 53.816 0.034 6.9 2.63 10.49
5/4/2022 2:15:00 PM 12.11 53.798 0.034 6.9 2.59 10.49
5/4/2022 2:30:00 PM 12.13 53.834 0.034 6.91 2.57 10.49
5/4/2022 2:45:00 PM 12.17 53.906 0.034 6.92 2.58 10.51
5/4/2022 3:00:00 PM 12.24 54.032 0.034 6.93 2.53 10.52
5/4/2022 3:15:00 PM 12.22 53.996 0.034 6.92 2.5 10.49
5/4/2022 3:30:00 PM 12.24 54.032 0.034 6.92 2.56 10.49
5/4/2022 3:45:00 PM 12.31 54.158 0.034 6.93 2.61 10.48
5/4/2022 4:00:00 PM 12.37 54.266 0.034 6.92 2.63 10.47
5/4/2022 4:15:00 PM 12.46 54.428 0.034 6.93 2.64 10.45
5/4/2022 4:30:00 PM 12.53 54.554 0.034 6.93 2.71 10.42
5/4/2022 4:45:00 PM 12.55 54.59 0.034 6.91 2.61 10.36
5/4/2022 5:00:00 PM 12.59 54.662 0.034 6.9 2.64 10.36
5/4/2022 5:15:00 PM 12.65 54.77 0.034 6.92 2.61 10.38
5/4/2022 5:30:00 PM 12.65 54.77 0.034 6.91 2.78 10.35
5/4/2022 5:45:00 PM 12.63 54.734 0.034 6.9 2.54 10.32
5/4/2022 6:00:00 PM 12.62 54.716 0.034 6.9 2.61 10.32
5/4/2022 6:15:00 PM 12.6 54.68 0.034 6.9 2.49 10.32
5/4/2022 6:30:00 PM 12.57 54.626 0.034 6.88 2.62 10.32
5/4/2022 6:45:00 PM 12.53 54.554 0.034 6.88 2.66 10.3
5/4/2022 7:00:00 PM 12.49 54.482 0.035 6.87 2.62 10.29
5/4/2022 7:15:00 PM 12.45 54.41 0.035 6.86 2.76 10.27
5/4/2022 7:30:00 PM 12.41 54.338 0.035 6.85 2.78 10.25
5/4/2022 7:45:00 PM 12.36 54.248 0.035 6.84 2.63 10.23
5/4/2022 8:00:00 PM 12.32 54.176 0.035 6.82 2.65 10.2
5/4/2022 8:15:00 PM 12.28 54.104 0.035 6.82 2.6 10.2
5/4/2022 8:30:00 PM 12.24 54.032 0.035 6.81 2.64 10.2
5/4/2022 8:45:00 PM 12.19 53.942 0.035 6.81 2.75 10.2
5/4/2022 9:00:00 PM 12.15 53.87 0.035 6.8 3.85 10.21
5/4/2022 9:15:00 PM 12.1 53.78 0.035 6.79 2.7 10.22
5/4/2022 9:30:00 PM 12.05 53.69 0.036 6.79 2.69 10.22
5/4/2022 9:45:00 PM 12 53.6 0.036 6.78 3.06 10.24
5/4/2022 10:00:00 PM 11.95 53.51 0.036 6.78 2.8 10.25
5/4/2022 10:15:00 PM 11.9 53.42 0.036 6.78 2.83 10.27
5/4/2022 10:30:00 PM 11.84 53.312 0.036 6.78 2.76 10.28
5/4/2022 10:45:00 PM 11.79 53.222 0.036 6.78 2.81 10.31
5/4/2022 11:00:00 PM 11.73 53.114 0.036 6.77 2.8 10.31
5/4/2022 11:15:00 PM 11.68 53.024 0.036 6.78 2.85 10.33
5/4/2022 11:30:00 PM 11.62 52.916 0.036 6.77 2.88 10.32
5/4/2022 11:45:00 PM 11.57 52.826 0.036 6.77 2.77 10.36
5/5/2022 12:00:00 AM 11.51 52.718 0.036 6.76 2.82 10.37
5/5/2022 12:15:00 AM 11.46 52.628 0.036 6.77 2.67 10.39
5/5/2022 12:30:00 AM 11.4 52.52 0.036 6.77 2.7 10.41
5/5/2022 12:45:00 AM 11.35 52.43 0.036 6.77 2.84 10.42
5/5/2022 1:00:00 AM 11.3 52.34 0.036 6.77 2.82 10.44
5/5/2022 1:15:00 AM 11.25 52.25 0.036 6.77 3.06 10.44
5/5/2022 1:30:00 AM 11.2 52.16 0.036 6.77 2.69 10.46
5/5/2022 1:45:00 AM 11.14 52.052 0.036 6.77 2.74 10.47
5/5/2022 2:00:00 AM 11.09 51.962 0.036 6.77 2.78 10.49
5/5/2022 2:15:00 AM 11.04 51.872 0.036 6.76 2.68 10.5
5/5/2022 2:30:00 AM 10.99 51.782 0.036 6.76 2.68 10.51
5/5/2022 2:45:00 AM 10.93 51.674 0.036 6.76 2.96 10.52
5/5/2022 3:00:00 AM 10.85 51.53 0.036 6.77 2.79 10.55
5/5/2022 3:15:00 AM 10.77 51.386 0.036 6.77 2.62 10.56
5/5/2022 3:30:00 AM 10.7 51.26 0.036 6.77 2.86 10.58
5/5/2022 3:45:00 AM 10.62 51.116 0.036 6.77 3.01 10.6
5/5/2022 4:00:00 AM 10.55 50.99 0.036 6.77 2.81 10.62
5/5/2022 4:15:00 AM 10.47 50.846 0.036 6.77 4.6 10.63
5/5/2022 4:30:00 AM 10.39 50.702 0.036 6.77 2.78 10.66
5/5/2022 4:45:00 AM 10.31 50.558 0.036 6.77 2.68 10.67
5/5/2022 5:00:00 AM 10.24 50.432 0.036 6.77 2.55 10.69
5/5/2022 5:15:00 AM 10.16 50.288 0.036 6.77 3.1 10.72
5/5/2022 5:30:00 AM 10.08 50.144 0.036 6.77 2.59 10.74
5/5/2022 5:45:00 AM 10 50 0.036 6.77 3.34 10.76
5/5/2022 6:00:00 AM 9.92 49.856 0.036 6.77 2.66 10.78
5/5/2022 6:15:00 AM 9.85 49.73 0.036 6.77 2.75 10.81
5/5/2022 6:30:00 AM 9.77 49.586 0.036 6.78 2.76 10.85
5/5/2022 6:45:00 AM 9.7 49.46 0.036 6.78 2.71 10.89
5/5/2022 7:00:00 AM 9.63 49.334 0.036 6.79 2.86 10.95
5/5/2022 7:15:00 AM 9.56 49.208 0.036 6.8 2.81 10.99
5/5/2022 7:30:00 AM 9.51 49.118 0.036 6.81 2.78 11.04
5/5/2022 7:45:00 AM 9.51 49.118 0.036 6.83 2.69 11.11
5/5/2022 8:00:00 AM 9.51 49.118 0.036 6.84 2.66 11.16
5/5/2022 8:15:00 AM 9.51 49.118 0.036 6.86 2.72 11.2
5/5/2022 8:30:00 AM 9.47 49.046 0.036 6.86 2.58 11.2
5/5/2022 8:45:00 AM 9.43 48.974 0.036 6.86 2.52 11.2
5/5/2022 9:00:00 AM 9.42 48.956 0.036 6.86 2.64 11.21
5/5/2022 9:15:00 AM 9.44 48.992 0.036 6.88 3.09 11.23
5/5/2022 9:30:00 AM 9.48 49.064 0.036 6.89 2.7 11.25
5/5/2022 9:45:00 AM 9.55 49.19 0.036 6.9 2.49 11.24
5/5/2022 10:00:00 AM 9.65 49.37 0.036 6.91 2.51 11.25
5/5/2022 10:15:00 AM 9.77 49.586 0.035 6.93 2.51 11.24
5/5/2022 10:30:00 AM 9.91 49.838 0.035 6.93 2.58 11.22
5/5/2022 10:45:00 AM 10.06 50.108 0.035 6.94 2.46 11.2
5/5/2022 11:00:00 AM 10.21 50.378 0.035 6.95 2.47 11.16
5/5/2022 11:15:00 AM 10.38 50.684 0.035 6.95 2.54 11.13
5/5/2022 11:30:00 AM 10.59 51.062 0.035 6.96 2.56 11.09
5/5/2022 11:45:00 AM 10.82 51.476 0.035 6.96 2.56 11.04
5/5/2022 12:00:00 PM 11.03 51.854 0.035 6.96 2.49 10.99
5/5/2022 12:15:00 PM 11.25 52.25 0.035 6.97 2.54 10.95
5/5/2022 12:30:00 PM 11.45 52.61 0.035 6.97 2.6 10.9
5/5/2022 12:45:00 PM 11.67 53.006 0.035 6.97 2.87 10.86
5/5/2022 1:00:00 PM 11.96 53.528 0.035 6.97 2.46 10.8
5/5/2022 1:15:00 PM 12.18 53.924 0.035 6.97 2.51 10.75
5/5/2022 1:30:00 PM 12.48 54.464 0.035 6.98 2.59 10.69
5/5/2022 1:45:00 PM 12.83 55.094 0.035 6.97 2.43 10.62
5/5/2022 2:00:00 PM 13.08 55.544 0.035 6.97 2.77 10.55
5/5/2022 2:15:00 PM 13.32 55.976 0.034 6.98 3.15 10.49
5/5/2022 2:30:00 PM 13.48 56.264 0.034 6.98 2.51 10.43
5/5/2022 2:45:00 PM 13.62 56.516 0.034 6.98 2.6 10.38
5/5/2022 3:00:00 PM 13.72 56.696 0.034 6.98 2.52 10.35
5/5/2022 3:15:00 PM 13.93 57.074 0.034 6.98 2.49 10.3
5/5/2022 3:30:00 PM 14.07 57.326 0.034 6.98 2.62 10.24
5/5/2022 3:45:00 PM 14.16 57.488 0.034 6.99 2.43 10.2
5/5/2022 4:00:00 PM 14.21 57.578 0.034 6.99 2.49 10.17
5/5/2022 4:15:00 PM 14.27 57.686 0.034 6.99 2.53 10.14
5/5/2022 4:30:00 PM 14.33 57.794 0.034 6.99 2.49 10.12
5/5/2022 4:45:00 PM 14.35 57.83 0.034 6.98 2.43 10.09
5/5/2022 5:00:00 PM 14.33 57.794 0.034 6.98 2.38 10.06
5/5/2022 5:15:00 PM 14.32 57.776 0.034 6.97 2.45 10.05
5/5/2022 5:30:00 PM 14.3 57.74 0.034 6.97 2.36 10.04
5/5/2022 5:45:00 PM 14.27 57.686 0.034 6.96 2.36 10.03
5/5/2022 6:00:00 PM 14.24 57.632 0.035 6.96 2.34 10.01
5/5/2022 6:15:00 PM 14.2 57.56 0.035 6.95 2.43 10
5/5/2022 6:30:00 PM 14.16 57.488 0.035 6.94 2.43 9.99
5/5/2022 6:45:00 PM 14.12 57.416 0.035 6.92 2.29 9.96
5/5/2022 7:00:00 PM 14.07 57.326 0.035 6.91 2.38 9.94
5/5/2022 7:15:00 PM 14.02 57.236 0.035 6.89 2.32 9.91
5/5/2022 7:30:00 PM 13.97 57.146 0.035 6.87 2.44 9.88
5/5/2022 7:45:00 PM 13.92 57.056 0.035 6.85 2.42 9.85
5/5/2022 8:00:00 PM 13.86 56.948 0.035 6.84 2.59 9.82
5/5/2022 8:15:00 PM 13.8 56.84 0.035 6.82 2.42 9.79
5/5/2022 8:30:00 PM 13.73 56.714 0.036 6.81 2.99 9.79
5/5/2022 8:45:00 PM 13.66 56.588 0.036 6.8 4.43 9.79
5/5/2022 9:00:00 PM 13.58 56.444 0.036 6.8 2.63 9.8
5/5/2022 9:15:00 PM 13.5 56.3 0.036 6.8 2.61 9.82
5/5/2022 9:30:00 PM 13.41 56.138 0.036 6.79 2.64 9.84
5/5/2022 9:45:00 PM 13.32 55.976 0.036 6.8 2.63 9.86
5/5/2022 10:00:00 PM 13.23 55.814 0.036 6.79 2.7 9.87
5/5/2022 10:15:00 PM 13.14 55.652 0.036 6.79 2.69 9.89
5/5/2022 10:30:00 PM 13.06 55.508 0.036 6.78 2.67 9.91
5/5/2022 10:45:00 PM 12.97 55.346 0.036 6.79 2.68 9.94
5/5/2022 11:00:00 PM 12.88 55.184 0.036 6.78 2.67 9.96
5/5/2022 11:15:00 PM 12.79 55.022 0.036 6.79 3.25 9.98
5/5/2022 11:30:00 PM 12.7 54.86 0.036 6.78 2.6 10
5/5/2022 11:45:00 PM 12.61 54.698 0.037 6.78 2.63 10.02
5/6/2022 12:00:00 AM 12.52 54.536 0.037 6.78 2.76 10.04
5/6/2022 12:15:00 AM 12.43 54.374 0.037 6.79 2.52 10.07
5/6/2022 12:30:00 AM 12.35 54.23 0.037 6.78 2.68 10.09
5/6/2022 12:45:00 AM 12.27 54.086 0.037 6.78 2.75 10.12
5/6/2022 1:00:00 AM 12.19 53.942 0.037 6.78 2.67 10.14
5/6/2022 1:15:00 AM 12.11 53.798 0.037 6.78 2.75 10.16
5/6/2022 1:30:00 AM 12.03 53.654 0.037 6.78 2.75 10.17
5/6/2022 1:45:00 AM 11.96 53.528 0.037 6.78 2.65 10.19
5/6/2022 2:00:00 AM 11.88 53.384 0.037 6.79 2.71 10.21
5/6/2022 2:15:00 AM 11.81 53.258 0.037 6.79 2.54 10.23
5/6/2022 2:30:00 AM 11.74 53.132 0.037 6.78 2.68 10.25
5/6/2022 2:45:00 AM 11.67 53.006 0.037 6.79 2.83 10.27
5/6/2022 3:00:00 AM 11.6 52.88 0.037 6.79 2.69 10.28
5/6/2022 3:15:00 AM 11.53 52.754 0.037 6.79 2.82 10.29
5/6/2022 3:30:00 AM 11.46 52.628 0.037 6.79 2.74 10.31
5/6/2022 3:45:00 AM 11.41 52.538 0.037 6.79 2.8 10.32
5/6/2022 4:00:00 AM 11.34 52.412 0.037 6.8 2.63 10.34
5/6/2022 4:15:00 AM 11.28 52.304 0.037 6.8 2.68 10.35
5/6/2022 4:30:00 AM 11.22 52.196 0.037 6.8 2.68 10.37
5/6/2022 4:45:00 AM 11.16 52.088 0.037 6.8 2.66 10.39
5/6/2022 5:00:00 AM 11.1 51.98 0.037 6.8 2.9 10.39
5/6/2022 5:15:00 AM 11.04 51.872 0.037 6.8 2.66 10.42
5/6/2022 5:30:00 AM 10.99 51.782 0.037 6.8 2.73 10.43
5/6/2022 5:45:00 AM 10.93 51.674 0.037 6.8 2.93 10.44
5/6/2022 6:00:00 AM 10.88 51.584 0.037 6.8 3.08 10.45
5/6/2022 6:15:00 AM 10.83 51.494 0.037 6.8 3.36 10.48
5/6/2022 6:30:00 AM 10.78 51.404 0.037 6.8 3.06 10.49
5/6/2022 6:45:00 AM 10.73 51.314 0.037 6.8 3.26 10.51
5/6/2022 7:00:00 AM 10.68 51.224 0.037 6.8 3.22 10.53
5/6/2022 7:15:00 AM 10.63 51.134 0.036 6.81 3.4 10.56
5/6/2022 7:30:00 AM 10.6 51.08 0.036 6.81 3.43 10.58
5/6/2022 7:45:00 AM 10.56 51.008 0.036 6.82 3.22 10.62
5/6/2022 8:00:00 AM 10.54 50.972 0.036 6.83 3.11 10.67
5/6/2022 8:15:00 AM 10.52 50.936 0.036 6.84 3.13 10.7
5/6/2022 8:30:00 AM 10.49 50.882 0.036 6.85 3.27 10.73
5/6/2022 8:45:00 AM 10.47 50.846 0.036 6.86 3.08 10.74
5/6/2022 9:00:00 AM 10.45 50.81 0.036 6.85 2.86 10.75
5/6/2022 9:15:00 AM 10.42 50.756 0.036 6.86 2.9 10.76
5/6/2022 9:30:00 AM 10.4 50.72 0.036 6.86 3.03 10.76
5/6/2022 9:45:00 AM 10.38 50.684 0.036 6.86 2.86 10.78
5/6/2022 10:00:00 AM 10.36 50.648 0.036 6.86 2.97 10.79
5/6/2022 10:15:00 AM 10.35 50.63 0.036 6.86 3.11 10.81
5/6/2022 10:30:00 AM 10.35 50.63 0.035 6.87 3.23 10.83
5/6/2022 10:45:00 AM 10.34 50.612 0.035 6.88 3.23 10.85
5/6/2022 11:00:00 AM 10.34 50.612 0.035 6.88 2.94 10.86
5/6/2022 11:15:00 AM 10.34 50.612 0.035 6.89 3.09 10.88
5/6/2022 11:30:00 AM 10.34 50.612 0.035 6.89 3.25 10.88
5/6/2022 11:45:00 AM 10.34 50.612 0.035 6.9 2.92 10.89
5/6/2022 12:00:00 PM 10.35 50.63 0.035 6.9 3.14 10.89
5/6/2022 12:15:00 PM 10.36 50.648 0.035 6.9 3.13 10.89
5/6/2022 12:30:00 PM 10.38 50.684 0.035 6.9 3.13 10.9
5/6/2022 12:45:00 PM 10.4 50.72 0.035 6.9 3.08 10.9
5/6/2022 1:00:00 PM 10.41 50.738 0.034 6.9 3.31 10.89
5/6/2022 1:15:00 PM 10.41 50.738 0.034 6.9 3.2 10.87
5/6/2022 1:30:00 PM 10.41 50.738 0.034 6.89 3.19 10.85
5/6/2022 1:45:00 PM 10.42 50.756 0.034 6.89 3.44 10.86
5/6/2022 2:00:00 PM 10.43 50.774 0.034 6.89 3.53 10.85
5/6/2022 2:15:00 PM 10.43 50.774 0.034 6.88 3.49 10.84
5/6/2022 2:30:00 PM 10.43 50.774 0.034 6.88 3.89 10.83
5/6/2022 2:45:00 PM 10.43 50.774 0.034 6.87 3.81 10.81
5/6/2022 3:00:00 PM 10.43 50.774 0.034 6.86 3.93 10.81
5/6/2022 3:15:00 PM 10.42 50.756 0.034 6.84 5.91 10.8
5/6/2022 3:30:00 PM 10.42 50.756 0.034 6.84 4.09 10.78
5/6/2022 3:45:00 PM 10.41 50.738 0.034 6.83 4.75 10.78
5/6/2022 4:00:00 PM 10.42 50.756 0.034 6.84 4.2 10.78
5/6/2022 4:15:00 PM 10.4 50.72 0.034 6.82 4.17 10.77
5/6/2022 4:30:00 PM 10.41 50.738 0.034 6.83 4.5 10.78
5/6/2022 4:45:00 PM 10.41 50.738 0.034 6.83 4.92 10.77
5/6/2022 5:00:00 PM 10.4 50.72 0.034 6.82 5.77 10.77
5/6/2022 5:15:00 PM 10.39 50.702 0.034 6.83 5.35 10.75
5/6/2022 5:30:00 PM 10.39 50.702 0.034 6.83 5.08 10.76
5/6/2022 5:45:00 PM 10.37 50.666 0.034 6.83 5.15 10.75
5/6/2022 6:00:00 PM 10.36 50.648 0.034 6.83 5.56 10.76
5/6/2022 6:15:00 PM 10.34 50.612 0.034 6.83 6.49 10.74
5/6/2022 6:30:00 PM 10.33 50.594 0.034 6.82 5.65 10.73
5/6/2022 6:45:00 PM 10.31 50.558 0.034 6.82 6.13 10.72
5/6/2022 7:00:00 PM 10.29 50.522 0.034 6.8 5.95 10.71
5/6/2022 7:15:00 PM 10.26 50.468 0.034 6.79 5.37 10.7
5/6/2022 7:30:00 PM 10.24 50.432 0.034 6.79 5.91 10.7
5/6/2022 7:45:00 PM 10.21 50.378 0.034 6.78 5.46 10.7
5/6/2022 8:00:00 PM 10.18 50.324 0.034 6.77 5.33 10.68
5/6/2022 8:15:00 PM 10.15 50.27 0.034 6.76 5.68 10.68
5/6/2022 8:30:00 PM 10.13 50.234 0.034 6.76 5.07 10.69
5/6/2022 8:45:00 PM 10.1 50.18 0.035 6.74 5.27 10.68
5/6/2022 9:00:00 PM 10.08 50.144 0.035 6.73 5.56 10.69
5/6/2022 9:15:00 PM 10.05 50.09 0.035 6.74 4.46 10.69
5/6/2022 9:30:00 PM 10.03 50.054 0.035 6.74 4.48 10.7
5/6/2022 9:45:00 PM 10 50 0.035 6.74 4.35 10.71
5/6/2022 10:00:00 PM 9.98 49.964 0.035 6.72 4.1 10.71
5/6/2022 10:15:00 PM 9.95 49.91 0.035 6.73 4.23 10.72
5/6/2022 10:30:00 PM 9.92 49.856 0.035 6.73 4.25 10.73
5/6/2022 10:45:00 PM 9.9 49.82 0.035 6.73 4.03 10.74
5/6/2022 11:00:00 PM 9.87 49.766 0.035 6.72 4.48 10.74
5/6/2022 11:15:00 PM 9.85 49.73 0.035 6.73 3.94 10.75
5/6/2022 11:30:00 PM 9.82 49.676 0.035 6.73 3.95 10.75
5/6/2022 11:45:00 PM 9.79 49.622 0.035 6.73 3.98 10.76
5/7/2022 12:00:00 AM 9.76 49.568 0.036 6.71 3.92 10.75
5/7/2022 12:15:00 AM 9.74 49.532 0.036 6.73 3.84 10.76
5/7/2022 12:30:00 AM 9.71 49.478 0.036 6.73 3.77 10.77
5/7/2022 12:45:00 AM 9.69 49.442 0.036 6.75 3.99 10.77
5/7/2022 1:00:00 AM 9.67 49.406 0.036 6.73 4.03 10.79
5/7/2022 1:15:00 AM 9.64 49.352 0.036 6.74 4.1 10.8
5/7/2022 1:30:00 AM 9.62 49.316 0.036 6.73 3.92 10.79
5/7/2022 1:45:00 AM 9.6 49.28 0.036 6.73 3.76 10.8
5/7/2022 2:00:00 AM 9.58 49.244 0.036 6.73 4.42 10.81
5/7/2022 2:15:00 AM 9.56 49.208 0.036 6.73 4.05 10.8
5/7/2022 2:30:00 AM 9.54 49.172 0.036 6.72 4.11 10.81
5/7/2022 2:45:00 AM 9.52 49.136 0.036 6.72 4.28 10.81
5/7/2022 3:00:00 AM 9.5 49.1 0.036 6.74 3.94 10.82
5/7/2022 3:15:00 AM 9.49 49.082 0.036 6.73 4.19 10.82
5/7/2022 3:30:00 AM 9.47 49.046 0.036 6.74 4.36 10.84
5/7/2022 3:45:00 AM 9.46 49.028 0.036 6.73 4.33 10.83
5/7/2022 4:00:00 AM 9.44 48.992 0.036 6.72 4.24 10.84
5/7/2022 4:15:00 AM 9.43 48.974 0.036 6.72 4.36 10.85
5/7/2022 4:30:00 AM 9.41 48.938 0.036 6.72 4.32 10.85
5/7/2022 4:45:00 AM 9.4 48.92 0.036 6.72 4.22 10.85
5/7/2022 5:00:00 AM 9.39 48.902 0.036 6.73 4.12 10.86
5/7/2022 5:15:00 AM 9.37 48.866 0.036 6.74 4.13 10.86
5/7/2022 5:30:00 AM 9.35 48.83 0.036 6.74 4.67 10.87
5/7/2022 5:45:00 AM 9.34 48.812 0.036 6.73 3.99 10.87
5/7/2022 6:00:00 AM 9.32 48.776 0.036 6.73 4.62 10.88
5/7/2022 6:15:00 AM 9.3 48.74 0.036 6.73 4.09 10.88
5/7/2022 6:30:00 AM 9.29 48.722 0.036 6.73 4 10.89
5/7/2022 6:45:00 AM 9.28 48.704 0.036 6.73 4.03 10.91
5/7/2022 7:00:00 AM 9.27 48.686 0.036 6.74 4.05 10.92
5/7/2022 7:15:00 AM 9.26 48.668 0.036 6.74 3.95 10.93
5/7/2022 7:30:00 AM 9.25 48.65 0.036 6.75 3.76 10.96
5/7/2022 7:45:00 AM 9.24 48.632 0.036 6.75 3.71 10.97
5/7/2022 8:00:00 AM 9.24 48.632 0.036 6.76 3.65 11
5/7/2022 8:15:00 AM 9.24 48.632 0.036 6.78 3.64 11.02
5/7/2022 8:30:00 AM 9.24 48.632 0.036 6.78 3.81 11.04
5/7/2022 8:45:00 AM 9.25 48.65 0.036 6.79 3.96 11.07
5/7/2022 9:00:00 AM 9.24 48.632 0.035 6.8 3.97 11.09
5/7/2022 9:15:00 AM 9.25 48.65 0.035 6.8 6.68 11.1
5/7/2022 9:30:00 AM 9.27 48.686 0.035 6.82 3.48 11.13
5/7/2022 9:45:00 AM 9.28 48.704 0.035 6.83 3.41 11.14
5/7/2022 10:00:00 AM 9.29 48.722 0.035 6.83 3.39 11.14
5/7/2022 10:15:00 AM 9.3 48.74 0.035 6.84